Wetterdaten: Dienstag, 14.11.2017
Datum Zeit Temp. A. Feuchte A. Luftdruck Regen Wind Richtung Richtung Taupunkt Windben Empfang
14.11.2017 00:00 4,7 C 96 % 1020,3 hPa 0,0 l/m 3,5 km/h (1 Bft) W 277 4,1 C 9,4 km/h (2 Bft) 99 %
14.11.2017 00:01 4,7 C 96 % 1020,4 hPa 0,0 l/m 1,3 km/h (1 Bft) W-NW 301 4,1 C 3,1 km/h (1 Bft) 100 %
14.11.2017 00:02 4,8 C 95 % 1020,4 hPa 0,0 l/m 2,1 km/h (1 Bft) W 269 4,1 C 9,4 km/h (2 Bft) 100 %
14.11.2017 00:03 4,8 C 95 % 1020,4 hPa 0,0 l/m 0,3 km/h (0 Bft) W-NW 285 4,1 C 3,1 km/h (1 Bft) 100 %
14.11.2017 00:04 4,8 C 95 % 1020,4 hPa 0,0 l/m 1,6 km/h (1 Bft) W-NW 285 4,1 C 6,3 km/h (2 Bft) 100 %
14.11.2017 00:05 4,8 C 95 % 1020,4 hPa 0,0 l/m 0,8 km/h (0 Bft) NW 319 4,1 C 3,1 km/h (1 Bft) 100 %
14.11.2017 00:06 4,8 C 95 % 1020,4 hPa 0,0 l/m 0,5 km/h (0 Bft) NW 309 4,1 C 3,1 km/h (1 Bft) 100 %
14.11.2017 00:07 4,8 C 95 % 1020,4 hPa 0,0 l/m 0,9 km/h (0 Bft) W 274 4,1 C 3,1 km/h (1 Bft) 100 %
14.11.2017 00:08 4,8 C 95 % 1020,4 hPa 0,0 l/m 0,0 km/h (0 Bft) W 272 4,1 C 0,0 km/h (0 Bft) 100 %
14.11.2017 00:09 4,8 C 95 % 1020,4 hPa 0,0 l/m 0,0 km/h (0 Bft) W 272 4,1 C 0,0 km/h (0 Bft) 100 %
14.11.2017 00:10 4,8 C 95 % 1020,4 hPa 0,0 l/m 0,0 km/h (0 Bft) W 272 4,1 C 0,0 km/h (0 Bft) 100 %
14.11.2017 00:11 4,8 C 95 % 1020,4 hPa 0,0 l/m 1,7 km/h (1 Bft) W-NW 297 4,1 C 3,1 km/h (1 Bft) 100 %
14.11.2017 00:12 4,8 C 95 % 1020,4 hPa 0,0 l/m 0,6 km/h (0 Bft) W-SW 256 4,1 C 3,1 km/h (1 Bft) 100 %
14.11.2017 00:13 4,8 C 95 % 1020,4 hPa 0,0 l/m 0,1 km/h (0 Bft) W-SW 256 4,1 C 3,1 km/h (1 Bft) 100 %
14.11.2017 00:14 4,8 C 95 % 1020,4 hPa 0,0 l/m 2,1 km/h (1 Bft) W 264 4,1 C 6,3 km/h (2 Bft) 100 %
14.11.2017 00:15 4,8 C 95 % 1020,4 hPa 0,0 l/m 0,9 km/h (0 Bft) SW 219 4,1 C 3,1 km/h (1 Bft) 100 %
14.11.2017 00:16 4,8 C 95 % 1020,4 hPa 0,0 l/m 0,1 km/h (0 Bft) SW 222 4,1 C 3,1 km/h (1 Bft) 100 %
14.11.2017 00:17 4,8 C 95 % 1020,4 hPa 0,0 l/m 5,6 km/h (1 Bft) W-NW 296 4,1 C 9,4 km/h (2 Bft) 100 %
14.11.2017 00:18 4,8 C 95 % 1020,4 hPa 0,0 l/m 4,8 km/h (1 Bft) W 281 4,1 C 15,7 km/h (3 Bft) 100 %
14.11.2017 00:19 4,8 C 95 % 1020,5 hPa 0,0 l/m 1,6 km/h (1 Bft) NW 318 4,1 C 3,1 km/h (1 Bft) 100 %
14.11.2017 00:20 4,8 C 95 % 1020,5 hPa 0,0 l/m 4,3 km/h (1 Bft) W-NW 285 4,1 C 9,4 km/h (2 Bft) 100 %
14.11.2017 00:21 4,8 C 95 % 1020,5 hPa 0,0 l/m 10,0 km/h (2 Bft) W-SW 241 4,1 C 18,8 km/h (3 Bft) 100 %
14.11.2017 00:22 4,9 C 95 % 1020,5 hPa 0,0 l/m 4,7 km/h (1 Bft) W-SW 244 4,2 C 9,4 km/h (2 Bft) 100 %
14.11.2017 00:23 4,9 C 95 % 1020,5 hPa 0,0 l/m 4,1 km/h (1 Bft) W 274 4,2 C 9,4 km/h (2 Bft) 100 %
14.11.2017 00:24 4,9 C 95 % 1020,5 hPa 0,0 l/m 4,6 km/h (1 Bft) W 262 4,2 C 9,4 km/h (2 Bft) 100 %
14.11.2017 00:25 4,9 C 95 % 1020,5 hPa 0,0 l/m 0,6 km/h (0 Bft) W 277 4,2 C 3,1 km/h (1 Bft) 100 %
14.11.2017 00:26 4,9 C 95 % 1020,5 hPa 0,0 l/m 2,2 km/h (1 Bft) W 259 4,2 C 6,3 km/h (2 Bft) 100 %
14.11.2017 00:27 4,9 C 95 % 1020,5 hPa 0,0 l/m 1,6 km/h (1 Bft) W-NW 298 4,2 C 9,4 km/h (2 Bft) 100 %
14.11.2017 00:28 4,9 C 95 % 1020,5 hPa 0,0 l/m 5,3 km/h (1 Bft) NW 307 4,2 C 9,4 km/h (2 Bft) 100 %
14.11.2017 00:29 4,9 C 95 % 1020,5 hPa 0,0 l/m 2,0 km/h (1 Bft) W-NW 288 4,2 C 6,3 km/h (2 Bft) 100 %
14.11.2017 00:30 4,9 C 95 % 1020,5 hPa 0,0 l/m 1,3 km/h (1 Bft) W 267 4,2 C 3,1 km/h (1 Bft) 100 %
14.11.2017 00:31 4,9 C 95 % 1020,5 hPa 0,0 l/m 1,6 km/h (1 Bft) SW 227 4,2 C 3,1 km/h (1 Bft) 100 %
14.11.2017 00:32 4,9 C 95 % 1020,5 hPa 0,0 l/m 0,9 km/h (0 Bft) W-NW 283 4,2 C 6,3 km/h (2 Bft) 100 %
14.11.2017 00:33 4,9 C 95 % 1020,5 hPa 0,0 l/m 3,8 km/h (1 Bft) NW 316 4,2 C 6,3 km/h (2 Bft) 100 %
14.11.2017 00:34 4,9 C 95 % 1020,5 hPa 0,0 l/m 1,8 km/h (1 Bft) W-NW 296 4,2 C 6,3 km/h (2 Bft) 100 %
14.11.2017 00:35 4,9 C 95 % 1020,5 hPa 0,0 l/m 4,8 km/h (1 Bft) NW 313 4,2 C 9,4 km/h (2 Bft) 100 %
14.11.2017 00:36 4,9 C 95 % 1020,5 hPa 0,0 l/m 2,0 km/h (1 Bft) W 277 4,2 C 6,3 km/h (2 Bft) 100 %
14.11.2017 00:37 4,9 C 94 % 1020,5 hPa 0,0 l/m 3,7 km/h (1 Bft) NW 321 4,0 C 6,3 km/h (2 Bft) 100 %
14.11.2017 00:38 4,9 C 94 % 1020,6 hPa 0,0 l/m 5,2 km/h (1 Bft) W-NW 293 4,0 C 9,4 km/h (2 Bft) 100 %
14.11.2017 00:39 4,9 C 94 % 1020,5 hPa 0,0 l/m 3,9 km/h (1 Bft) W-SW 242 4,0 C 9,4 km/h (2 Bft) 100 %
14.11.2017 00:40 4,9 C 94 % 1020,5 hPa 0,0 l/m 3,1 km/h (1 Bft) W-NW 298 4,0 C 9,4 km/h (2 Bft) 100 %
14.11.2017 00:42 4,9 C 94 % 1020,6 hPa 0,0 l/m 3,0 km/h (1 Bft) W 276 4,0 C 9,4 km/h (2 Bft) 100 %
14.11.2017 00:43 4,9 C 94 % 1020,6 hPa 0,0 l/m 4,9 km/h (1 Bft) W-NW 289 4,0 C 9,4 km/h (2 Bft) 100 %
14.11.2017 00:44 4,9 C 94 % 1020,6 hPa 0,0 l/m 3,3 km/h (1 Bft) W-SW 250 4,0 C 6,3 km/h (2 Bft) 100 %
14.11.2017 00:45 4,9 C 94 % 1020,6 hPa 0,0 l/m 0,0 km/h (0 Bft) S 174 4,0 C 0,0 km/h (0 Bft) 100 %
14.11.2017 00:46 4,9 C 94 % 1020,6 hPa 0,0 l/m 0,9 km/h (0 Bft) SW 228 4,0 C 3,1 km/h (1 Bft) 100 %
14.11.2017 00:47 4,9 C 94 % 1020,6 hPa 0,0 l/m 1,8 km/h (1 Bft) W 275 4,0 C 6,3 km/h (2 Bft) 100 %
14.11.2017 00:48 4,9 C 94 % 1020,6 hPa 0,0 l/m 2,4 km/h (1 Bft) W-NW 288 4,0 C 6,3 km/h (2 Bft) 100 %
14.11.2017 00:49 4,9 C 94 % 1020,7 hPa 0,0 l/m 4,2 km/h (1 Bft) W-SW 250 4,0 C 6,3 km/h (2 Bft) 100 %
14.11.2017 00:50 4,9 C 94 % 1020,6 hPa 0,0 l/m 1,6 km/h (1 Bft) NW 316 4,0 C 3,1 km/h (1 Bft) 100 %
14.11.2017 00:51 4,9 C 94 % 1020,7 hPa 0,0 l/m 0,0 km/h (0 Bft) SW 218 4,0 C 0,0 km/h (0 Bft) 100 %
14.11.2017 00:52 4,9 C 94 % 1020,7 hPa 0,0 l/m 0,7 km/h (0 Bft) W 278 4,0 C 3,1 km/h (1 Bft) 100 %
14.11.2017 00:53 4,9 C 94 % 1020,7 hPa 0,0 l/m 5,6 km/h (1 Bft) W-NW 297 4,0 C 9,4 km/h (2 Bft) 100 %
14.11.2017 00:54 4,9 C 94 % 1020,7 hPa 0,0 l/m 2,0 km/h (1 Bft) W 278 4,0 C 3,1 km/h (1 Bft) 100 %
14.11.2017 00:55 4,9 C 94 % 1020,7 hPa 0,0 l/m 1,6 km/h (1 Bft) W 273 4,0 C 3,1 km/h (1 Bft) 96 %
14.11.2017 00:56 4,8 C 94 % 1020,6 hPa 0,0 l/m 0,3 km/h (0 Bft) SW 233 3,9 C 3,1 km/h (1 Bft) 100 %
14.11.2017 00:57 4,8 C 94 % 1020,7 hPa 0,0 l/m 0,4 km/h (0 Bft) NW 320 3,9 C 3,1 km/h (1 Bft) 100 %
14.11.2017 00:58 4,8 C 94 % 1020,7 hPa 0,0 l/m 1,4 km/h (1 Bft) NW 315 3,9 C 3,1 km/h (1 Bft) 92 %
14.11.2017 01:00 4,8 C 94 % 1020,6 hPa 0,0 l/m 2,2 km/h (1 Bft) W 276 3,9 C 9,4 km/h (2 Bft) 100 %
14.11.2017 01:01 4,8 C 94 % 1020,6 hPa 0,0 l/m 0,4 km/h (0 Bft) NW 316 3,9 C 3,1 km/h (1 Bft) 92 %
14.11.2017 01:02 4,7 C 94 % 1020,7 hPa 0,0 l/m 4,1 km/h (1 Bft) W-NW 292 3,8 C 6,3 km/h (2 Bft) 100 %
14.11.2017 01:03 4,7 C 94 % 1020,7 hPa 0,0 l/m 2,5 km/h (1 Bft) W-NW 298 3,8 C 6,3 km/h (2 Bft) 100 %
14.11.2017 01:04 4,7 C 94 % 1020,7 hPa 0,0 l/m 1,5 km/h (1 Bft) W 276 3,8 C 3,1 km/h (1 Bft) 97 %
14.11.2017 01:05 4,7 C 94 % 1020,7 hPa 0,0 l/m 2,4 km/h (1 Bft) NW 316 3,8 C 6,3 km/h (2 Bft) 100 %
14.11.2017 01:06 4,7 C 94 % 1020,7 hPa 0,0 l/m 3,0 km/h (1 Bft) W-NW 301 3,8 C 6,3 km/h (2 Bft) 100 %
14.11.2017 01:07 4,7 C 94 % 1020,7 hPa 0,0 l/m 1,4 km/h (1 Bft) W-NW 286 3,8 C 3,1 km/h (1 Bft) 96 %
14.11.2017 01:08 4,7 C 94 % 1020,7 hPa 0,0 l/m 0,8 km/h (0 Bft) NW 311 3,8 C 3,1 km/h (1 Bft) 100 %
14.11.2017 01:09 4,7 C 94 % 1020,7 hPa 0,0 l/m 1,0 km/h (0 Bft) W 274 3,8 C 3,1 km/h (1 Bft) 100 %
14.11.2017 01:10 4,7 C 95 % 1020,7 hPa 0,0 l/m 3,4 km/h (1 Bft) W 272 4,0 C 6,3 km/h (2 Bft) 96 %
14.11.2017 01:11 4,7 C 95 % 1020,7 hPa 0,0 l/m 3,3 km/h (1 Bft) W 272 4,0 C 6,3 km/h (2 Bft) 100 %
14.11.2017 01:12 4,8 C 95 % 1020,7 hPa 0,0 l/m 1,5 km/h (1 Bft) W-SW 250 4,1 C 6,3 km/h (2 Bft) 96 %
14.11.2017 01:13 4,7 C 95 % 1020,7 hPa 0,0 l/m 3,3 km/h (1 Bft) NW 312 4,0 C 6,3 km/h (2 Bft) 100 %
14.11.2017 01:14 4,7 C 95 % 1020,7 hPa 0,0 l/m 3,4 km/h (1 Bft) W-NW 298 4,0 C 6,3 km/h (2 Bft) 96 %
14.11.2017 01:15 4,8 C 95 % 1020,6 hPa 0,0 l/m 0,5 km/h (0 Bft) W 266 4,1 C 3,1 km/h (1 Bft) 100 %
14.11.2017 01:16 4,8 C 95 % 1020,7 hPa 0,0 l/m 0,1 km/h (0 Bft) W-SW 257 4,1 C 3,1 km/h (1 Bft) 96 %
14.11.2017 01:17 4,8 C 94 % 1020,7 hPa 0,0 l/m 0,8 km/h (0 Bft) W-NW 300 3,9 C 3,1 km/h (1 Bft) 100 %
14.11.2017 01:18 4,8 C 94 % 1020,6 hPa 0,0 l/m 0,6 km/h (0 Bft) W-SW 238 3,9 C 3,1 km/h (1 Bft) 96 %
14.11.2017 01:19 4,8 C 94 % 1020,6 hPa 0,0 l/m 0,5 km/h (0 Bft) W-SW 253 3,9 C 3,1 km/h (1 Bft) 96 %
14.11.2017 01:20 4,8 C 94 % 1020,6 hPa 0,0 l/m 1,7 km/h (1 Bft) NW 304 3,9 C 3,1 km/h (1 Bft) 100 %
14.11.2017 01:21 4,7 C 94 % 1020,6 hPa 0,0 l/m 0,7 km/h (0 Bft) W-NW 290 3,8 C 3,1 km/h (1 Bft) 96 %
14.11.2017 01:22 4,7 C 94 % 1020,6 hPa 0,0 l/m 2,9 km/h (1 Bft) W-SW 239 3,8 C 9,4 km/h (2 Bft) 100 %
14.11.2017 01:23 4,7 C 94 % 1020,7 hPa 0,0 l/m 0,2 km/h (0 Bft) SW 228 3,8 C 3,1 km/h (1 Bft) 96 %
14.11.2017 01:24 4,7 C 94 % 1020,7 hPa 0,0 l/m 0,0 km/h (0 Bft) SW 228 3,8 C 0,0 km/h (0 Bft) 100 %
14.11.2017 01:25 4,7 C 94 % 1020,7 hPa 0,0 l/m 0,3 km/h (0 Bft) SW 235 3,8 C 3,1 km/h (1 Bft) 96 %
14.11.2017 01:26 4,7 C 94 % 1020,7 hPa 0,0 l/m 0,0 km/h (0 Bft) SW 235 3,8 C 0,0 km/h (0 Bft) 100 %
14.11.2017 01:27 4,7 C 94 % 1020,8 hPa 0,0 l/m 0,1 km/h (0 Bft) SW 234 3,8 C 3,1 km/h (1 Bft) 96 %
14.11.2017 01:28 4,7 C 94 % 1020,8 hPa 0,0 l/m 1,0 km/h (0 Bft) W 273 3,8 C 3,1 km/h (1 Bft) 96 %
14.11.2017 01:29 4,7 C 94 % 1020,8 hPa 0,0 l/m 0,1 km/h (0 Bft) W-SW 250 3,8 C 3,1 km/h (1 Bft) 100 %
14.11.2017 01:30 4,7 C 94 % 1020,7 hPa 0,0 l/m 0,8 km/h (0 Bft) W 262 3,8 C 3,1 km/h (1 Bft) 96 %
14.11.2017 01:31 4,7 C 95 % 1020,7 hPa 0,0 l/m 2,5 km/h (1 Bft) W 269 4,0 C 3,1 km/h (1 Bft) 100 %
14.11.2017 01:32 4,7 C 95 % 1020,7 hPa 0,0 l/m 0,0 km/h (0 Bft) W-SW 250 4,0 C 0,0 km/h (0 Bft) 96 %
14.11.2017 01:33 4,7 C 95 % 1020,7 hPa 0,0 l/m 0,9 km/h (0 Bft) W 260 4,0 C 3,1 km/h (1 Bft) 100 %
14.11.2017 01:34 4,7 C 95 % 1020,8 hPa 0,0 l/m 0,4 km/h (0 Bft) SW 219 4,0 C 3,1 km/h (1 Bft) 96 %
14.11.2017 01:35 4,7 C 95 % 1020,8 hPa 0,0 l/m 0,3 km/h (0 Bft) W 280 4,0 C 3,1 km/h (1 Bft) 100 %
14.11.2017 01:36 4,7 C 95 % 1020,8 hPa 0,0 l/m 0,5 km/h (0 Bft) W 280 4,0 C 3,1 km/h (1 Bft) 96 %
14.11.2017 01:37 4,7 C 95 % 1020,8 hPa 0,0 l/m 0,1 km/h (0 Bft) W 280 4,0 C 3,1 km/h (1 Bft) 100 %
14.11.2017 01:38 4,7 C 95 % 1020,9 hPa 0,0 l/m 0,1 km/h (0 Bft) W 280 4,0 C 3,1 km/h (1 Bft) 96 %
14.11.2017 01:39 4,7 C 95 % 1020,9 hPa 0,0 l/m 0,0 km/h (0 Bft) W 280 4,0 C 0,0 km/h (0 Bft) 96 %
14.11.2017 01:40 4,7 C 95 % 1020,9 hPa 0,0 l/m 0,0 km/h (0 Bft) W 280 4,0 C 0,0 km/h (0 Bft) 100 %
14.11.2017 01:41 4,7 C 95 % 1020,9 hPa 0,0 l/m 0,2 km/h (0 Bft) W 280 4,0 C 3,1 km/h (1 Bft) 100 %
14.11.2017 01:42 4,7 C 95 % 1020,9 hPa 0,0 l/m 0,0 km/h (0 Bft) W 280 4,0 C 0,0 km/h (0 Bft) 100 %
14.11.2017 01:43 4,7 C 95 % 1020,9 hPa 0,0 l/m 0,2 km/h (0 Bft) W 280 4,0 C 3,1 km/h (1 Bft) 100 %
14.11.2017 01:44 4,7 C 95 % 1020,9 hPa 0,0 l/m 0,0 km/h (0 Bft) W 280 4,0 C 0,0 km/h (0 Bft) 100 %
14.11.2017 01:45 4,7 C 95 % 1020,9 hPa 0,0 l/m 0,2 km/h (0 Bft) W 280 4,0 C 3,1 km/h (1 Bft) 100 %
14.11.2017 01:46 4,7 C 95 % 1021,0 hPa 0,0 l/m 0,0 km/h (0 Bft) W 280 4,0 C 0,0 km/h (0 Bft) 100 %
14.11.2017 01:47 4,7 C 95 % 1021,0 hPa 0,0 l/m 0,0 km/h (0 Bft) W 280 4,0 C 0,0 km/h (0 Bft) 100 %
14.11.2017 01:48 4,7 C 95 % 1020,9 hPa 0,0 l/m 0,0 km/h (0 Bft) W 280 4,0 C 0,0 km/h (0 Bft) 100 %
14.11.2017 01:49 4,7 C 95 % 1020,9 hPa 0,0 l/m 0,0 km/h (0 Bft) W 280 4,0 C 0,0 km/h (0 Bft) 100 %
14.11.2017 01:50 4,7 C 95 % 1020,9 hPa 0,0 l/m 0,1 km/h (0 Bft) W 280 4,0 C 3,1 km/h (1 Bft) 100 %
14.11.2017 01:51 4,7 C 95 % 1021,0 hPa 0,0 l/m 0,4 km/h (0 Bft) W 280 4,0 C 3,1 km/h (1 Bft) 100 %
14.11.2017 01:52 4,7 C 95 % 1021,0 hPa 0,0 l/m 0,0 km/h (0 Bft) W 280 4,0 C 0,0 km/h (0 Bft) 100 %
14.11.2017 01:53 4,7 C 95 % 1021,0 hPa 0,0 l/m 0,0 km/h (0 Bft) W 280 4,0 C 0,0 km/h (0 Bft) 100 %
14.11.2017 01:54 4,7 C 95 % 1021,0 hPa 0,0 l/m 0,0 km/h (0 Bft) W 280 4,0 C 0,0 km/h (0 Bft) 100 %
14.11.2017 01:55 4,7 C 95 % 1021,0 hPa 0,0 l/m 0,0 km/h (0 Bft) W 280 4,0 C 0,0 km/h (0 Bft) 100 %
14.11.2017 01:56 4,7 C 95 % 1021,0 hPa 0,0 l/m 0,1 km/h (0 Bft) W 280 4,0 C 3,1 km/h (1 Bft) 100 %
14.11.2017 01:57 4,7 C 95 % 1021,0 hPa 0,0 l/m 0,0 km/h (0 Bft) W 280 4,0 C 0,0 km/h (0 Bft) 100 %
14.11.2017 01:58 4,7 C 95 % 1021,0 hPa 0,0 l/m 0,0 km/h (0 Bft) W 280 4,0 C 0,0 km/h (0 Bft) 100 %
14.11.2017 01:59 4,7 C 95 % 1021,0 hPa 0,0 l/m 0,0 km/h (0 Bft) W 279 4,0 C 0,0 km/h (0 Bft) 100 %
14.11.2017 02:00 4,7 C 95 % 1021,0 hPa 0,0 l/m 0,0 km/h (0 Bft) W 279 4,0 C 0,0 km/h (0 Bft) 100 %
14.11.2017 02:01 4,7 C 95 % 1021,0 hPa 0,0 l/m 0,0 km/h (0 Bft) W 279 4,0 C 0,0 km/h (0 Bft) 100 %
14.11.2017 02:02 4,7 C 95 % 1021,0 hPa 0,0 l/m 0,0 km/h (0 Bft) W 279 4,0 C 0,0 km/h (0 Bft) 100 %
14.11.2017 02:03 4,7 C 95 % 1021,0 hPa 0,0 l/m 0,4 km/h (0 Bft) W-SW 250 4,0 C 3,1 km/h (1 Bft) 100 %
14.11.2017 02:04 4,7 C 95 % 1021,0 hPa 0,0 l/m 0,0 km/h (0 Bft) W-SW 238 4,0 C 0,0 km/h (0 Bft) 100 %
14.11.2017 02:05 4,7 C 95 % 1021,0 hPa 0,0 l/m 0,0 km/h (0 Bft) W-SW 238 4,0 C 0,0 km/h (0 Bft) 100 %
14.11.2017 02:06 4,7 C 95 % 1021,0 hPa 0,0 l/m 0,4 km/h (0 Bft) W 260 4,0 C 3,1 km/h (1 Bft) 100 %
14.11.2017 02:07 4,7 C 95 % 1021,0 hPa 0,0 l/m 1,9 km/h (1 Bft) W 264 4,0 C 6,3 km/h (2 Bft) 100 %
14.11.2017 02:08 4,7 C 95 % 1021,1 hPa 0,0 l/m 0,0 km/h (0 Bft) W 264 4,0 C 0,0 km/h (0 Bft) 100 %
14.11.2017 02:09 4,7 C 95 % 1021,0 hPa 0,0 l/m 0,7 km/h (0 Bft) W 274 4,0 C 3,1 km/h (1 Bft) 100 %
14.11.2017 02:10 4,7 C 95 % 1021,0 hPa 0,0 l/m 1,2 km/h (1 Bft) W 272 4,0 C 3,1 km/h (1 Bft) 100 %
14.11.2017 02:11 4,7 C 95 % 1021,0 hPa 0,0 l/m 0,4 km/h (0 Bft) W 272 4,0 C 3,1 km/h (1 Bft) 100 %
14.11.2017 02:12 4,7 C 95 % 1021,0 hPa 0,0 l/m 0,2 km/h (0 Bft) W 272 4,0 C 3,1 km/h (1 Bft) 100 %
14.11.2017 02:13 4,7 C 95 % 1021,0 hPa 0,0 l/m 4,2 km/h (1 Bft) NW 309 4,0 C 9,4 km/h (2 Bft) 100 %
14.11.2017 02:14 4,7 C 95 % 1021,0 hPa 0,0 l/m 1,8 km/h (1 Bft) NW 319 4,0 C 6,3 km/h (2 Bft) 100 %
14.11.2017 02:15 4,7 C 95 % 1021,0 hPa 0,0 l/m 4,6 km/h (1 Bft) W-NW 288 4,0 C 12,6 km/h (3 Bft) 100 %
14.11.2017 02:16 4,7 C 94 % 1021,1 hPa 0,0 l/m 3,1 km/h (1 Bft) W-NW 297 3,8 C 12,6 km/h (3 Bft) 100 %
14.11.2017 02:17 4,7 C 94 % 1021,1 hPa 0,0 l/m 3,7 km/h (1 Bft) NW 316 3,8 C 6,3 km/h (2 Bft) 100 %
14.11.2017 02:18 4,7 C 94 % 1021,1 hPa 0,0 l/m 1,6 km/h (1 Bft) W-NW 302 3,8 C 6,3 km/h (2 Bft) 100 %
14.11.2017 02:19 4,7 C 94 % 1021,2 hPa 0,0 l/m 0,2 km/h (0 Bft) W-SW 255 3,8 C 3,1 km/h (1 Bft) 100 %
14.11.2017 02:20 4,7 C 94 % 1021,2 hPa 0,0 l/m 1,7 km/h (1 Bft) W-NW 296 3,8 C 3,1 km/h (1 Bft) 100 %
14.11.2017 02:21 4,7 C 94 % 1021,2 hPa 0,0 l/m 0,7 km/h (0 Bft) W-NW 291 3,8 C 3,1 km/h (1 Bft) 100 %
14.11.2017 02:22 4,8 C 94 % 1021,2 hPa 0,0 l/m 4,4 km/h (1 Bft) W 265 3,9 C 9,4 km/h (2 Bft) 100 %
14.11.2017 02:23 4,8 C 94 % 1021,2 hPa 0,0 l/m 2,6 km/h (1 Bft) N-NW 332 3,9 C 6,3 km/h (2 Bft) 100 %
14.11.2017 02:24 4,8 C 94 % 1021,2 hPa 0,0 l/m 1,9 km/h (1 Bft) W-NW 302 3,9 C 6,3 km/h (2 Bft) 100 %
14.11.2017 02:25 4,8 C 94 % 1021,2 hPa 0,0 l/m 1,0 km/h (0 Bft) NW 305 3,9 C 6,3 km/h (2 Bft) 100 %
14.11.2017 02:26 4,8 C 94 % 1021,1 hPa 0,0 l/m 1,8 km/h (1 Bft) N-NW 328 3,9 C 6,3 km/h (2 Bft) 100 %
14.11.2017 02:27 4,8 C 93 % 1021,1 hPa 0,0 l/m 5,4 km/h (1 Bft) NW 307 3,8 C 12,6 km/h (3 Bft) 100 %
14.11.2017 02:28 4,8 C 93 % 1021,1 hPa 0,0 l/m 6,4 km/h (2 Bft) SW 219 3,8 C 9,4 km/h (2 Bft) 100 %
14.11.2017 02:29 4,8 C 93 % 1021,1 hPa 0,0 l/m 3,1 km/h (1 Bft) NW 307 3,8 C 9,4 km/h (2 Bft) 100 %
14.11.2017 02:30 4,8 C 93 % 1021,2 hPa 0,0 l/m 2,5 km/h (1 Bft) NW 304 3,8 C 6,3 km/h (2 Bft) 100 %
14.11.2017 02:31 4,8 C 93 % 1021,2 hPa 0,0 l/m 0,9 km/h (0 Bft) W 281 3,8 C 3,1 km/h (1 Bft) 100 %
14.11.2017 02:32 4,8 C 93 % 1021,2 hPa 0,0 l/m 0,1 km/h (0 Bft) W-SW 257 3,8 C 3,1 km/h (1 Bft) 100 %
14.11.2017 02:33 4,8 C 93 % 1021,2 hPa 0,0 l/m 2,0 km/h (1 Bft) W-NW 286 3,8 C 3,1 km/h (1 Bft) 100 %
14.11.2017 02:34 4,8 C 93 % 1021,2 hPa 0,0 l/m 3,3 km/h (1 Bft) W-NW 284 3,8 C 6,3 km/h (2 Bft) 100 %
14.11.2017 02:35 4,8 C 93 % 1021,2 hPa 0,0 l/m 2,5 km/h (1 Bft) W-SW 249 3,8 C 6,3 km/h (2 Bft) 100 %
14.11.2017 02:36 4,8 C 93 % 1021,1 hPa 0,0 l/m 2,2 km/h (1 Bft) W-SW 252 3,8 C 6,3 km/h (2 Bft) 100 %
14.11.2017 02:37 4,8 C 93 % 1021,2 hPa 0,0 l/m 0,7 km/h (0 Bft) W-NW 297 3,8 C 3,1 km/h (1 Bft) 100 %
14.11.2017 02:38 4,8 C 93 % 1021,2 hPa 0,0 l/m 3,7 km/h (1 Bft) W-NW 290 3,8 C 9,4 km/h (2 Bft) 100 %
14.11.2017 02:39 4,8 C 93 % 1021,2 hPa 0,0 l/m 3,8 km/h (1 Bft) W-NW 287 3,8 C 6,3 km/h (2 Bft) 100 %
14.11.2017 02:40 4,8 C 93 % 1021,2 hPa 0,0 l/m 1,4 km/h (1 Bft) NW 304 3,8 C 3,1 km/h (1 Bft) 100 %
14.11.2017 02:41 4,8 C 93 % 1021,2 hPa 0,0 l/m 5,9 km/h (2 Bft) W-NW 293 3,8 C 9,4 km/h (2 Bft) 100 %
14.11.2017 02:42 4,8 C 93 % 1021,1 hPa 0,0 l/m 2,7 km/h (1 Bft) W 261 3,8 C 6,3 km/h (2 Bft) 100 %
14.11.2017 02:43 4,8 C 93 % 1021,1 hPa 0,0 l/m 4,0 km/h (1 Bft) W 271 3,8 C 6,3 km/h (2 Bft) 100 %
14.11.2017 02:44 4,8 C 93 % 1021,1 hPa 0,0 l/m 2,7 km/h (1 Bft) W-NW 297 3,8 C 6,3 km/h (2 Bft) 100 %
14.11.2017 02:45 4,7 C 93 % 1021,2 hPa 0,0 l/m 3,1 km/h (1 Bft) NW 324 3,7 C 6,3 km/h (2 Bft) 100 %
14.11.2017 02:46 4,8 C 93 % 1021,2 hPa 0,0 l/m 6,1 km/h (2 Bft) W-NW 303 3,8 C 12,6 km/h (3 Bft) 100 %
14.11.2017 02:47 4,7 C 93 % 1021,2 hPa 0,0 l/m 1,3 km/h (1 Bft) W-NW 290 3,7 C 6,3 km/h (2 Bft) 100 %
14.11.2017 02:48 4,7 C 93 % 1021,2 hPa 0,0 l/m 2,8 km/h (1 Bft) W 271 3,7 C 6,3 km/h (2 Bft) 100 %
14.11.2017 02:49 4,7 C 93 % 1021,2 hPa 0,0 l/m 6,3 km/h (2 Bft) W-NW 283 3,7 C 9,4 km/h (2 Bft) 100 %
14.11.2017 02:50 4,7 C 93 % 1021,2 hPa 0,0 l/m 3,8 km/h (1 Bft) W-SW 256 3,7 C 9,4 km/h (2 Bft) 100 %
14.11.2017 02:51 4,7 C 92 % 1021,2 hPa 0,0 l/m 6,9 km/h (2 Bft) W 272 3,5 C 12,6 km/h (3 Bft) 100 %
14.11.2017 02:52 4,7 C 92 % 1021,2 hPa 0,0 l/m 5,2 km/h (1 Bft) NW 306 3,5 C 9,4 km/h (2 Bft) 100 %
14.11.2017 02:53 4,7 C 92 % 1021,2 hPa 0,0 l/m 3,5 km/h (1 Bft) W-NW 299 3,5 C 9,4 km/h (2 Bft) 100 %
14.11.2017 02:54 4,7 C 92 % 1021,2 hPa 0,0 l/m 2,2 km/h (1 Bft) W-NW 298 3,5 C 3,1 km/h (1 Bft) 100 %
14.11.2017 02:55 4,7 C 92 % 1021,2 hPa 0,0 l/m 2,9 km/h (1 Bft) W 273 3,5 C 6,3 km/h (2 Bft) 100 %
14.11.2017 02:56 4,7 C 92 % 1021,2 hPa 0,0 l/m 3,0 km/h (1 Bft) N-NW 345 3,5 C 6,3 km/h (2 Bft) 100 %
14.11.2017 02:57 4,7 C 92 % 1021,2 hPa 0,0 l/m 3,0 km/h (1 Bft) NW 311 3,5 C 9,4 km/h (2 Bft) 100 %
14.11.2017 02:58 4,7 C 92 % 1021,2 hPa 0,0 l/m 1,9 km/h (1 Bft) W-NW 300 3,5 C 6,3 km/h (2 Bft) 100 %
14.11.2017 02:59 4,7 C 92 % 1021,1 hPa 0,0 l/m 0,0 km/h (0 Bft) W-NW 300 3,5 C 0,0 km/h (0 Bft) 100 %
14.11.2017 03:00 4,7 C 92 % 1021,2 hPa 0,0 l/m 1,0 km/h (0 Bft) NW 304 3,5 C 3,1 km/h (1 Bft) 100 %
14.11.2017 03:01 4,7 C 92 % 1021,2 hPa 0,0 l/m 3,0 km/h (1 Bft) NW 309 3,5 C 6,3 km/h (2 Bft) 100 %
14.11.2017 03:02 4,7 C 92 % 1021,2 hPa 0,0 l/m 2,4 km/h (1 Bft) W-SW 255 3,5 C 6,3 km/h (2 Bft) 100 %
14.11.2017 03:03 4,7 C 92 % 1021,2 hPa 0,0 l/m 0,1 km/h (0 Bft) W-SW 256 3,5 C 3,1 km/h (1 Bft) 100 %
14.11.2017 03:04 4,7 C 92 % 1021,2 hPa 0,0 l/m 0,8 km/h (0 Bft) W 274 3,5 C 3,1 km/h (1 Bft) 100 %
14.11.2017 03:05 4,7 C 92 % 1021,2 hPa 0,0 l/m 3,3 km/h (1 Bft) W 269 3,5 C 9,4 km/h (2 Bft) 99 %
14.11.2017 03:06 4,7 C 92 % 1021,2 hPa 0,0 l/m 0,4 km/h (0 Bft) W 262 3,5 C 3,1 km/h (1 Bft) 100 %
14.11.2017 03:07 4,7 C 92 % 1021,2 hPa 0,0 l/m 2,4 km/h (1 Bft) NW 310 3,5 C 6,3 km/h (2 Bft) 100 %
14.11.2017 03:08 4,7 C 92 % 1021,2 hPa 0,0 l/m 7,4 km/h (2 Bft) W-NW 295 3,5 C 12,6 km/h (3 Bft) 100 %
14.11.2017 03:09 4,7 C 92 % 1021,2 hPa 0,0 l/m 2,7 km/h (1 Bft) NW 305 3,5 C 6,3 km/h (2 Bft) 100 %
14.11.2017 03:10 4,7 C 92 % 1021,2 hPa 0,0 l/m 0,9 km/h (0 Bft) NW 311 3,5 C 3,1 km/h (1 Bft) 100 %
14.11.2017 03:11 4,7 C 92 % 1021,2 hPa 0,0 l/m 3,4 km/h (1 Bft) W 268 3,5 C 6,3 km/h (2 Bft) 100 %
14.11.2017 03:12 4,7 C 92 % 1021,2 hPa 0,0 l/m 1,4 km/h (1 Bft) W-NW 288 3,5 C 3,1 km/h (1 Bft) 100 %
14.11.2017 03:13 4,7 C 92 % 1021,2 hPa 0,0 l/m 2,1 km/h (1 Bft) SW 227 3,5 C 3,1 km/h (1 Bft) 100 %
14.11.2017 03:14 4,7 C 92 % 1021,2 hPa 0,0 l/m 1,7 km/h (1 Bft) W 276 3,5 C 6,3 km/h (2 Bft) 100 %
14.11.2017 03:15 4,7 C 92 % 1021,2 hPa 0,0 l/m 3,4 km/h (1 Bft) NW 307 3,5 C 6,3 km/h (2 Bft) 100 %
14.11.2017 03:16 4,7 C 92 % 1021,2 hPa 0,0 l/m 3,3 km/h (1 Bft) NW 308 3,5 C 9,4 km/h (2 Bft) 100 %
14.11.2017 03:17 4,7 C 92 % 1021,2 hPa 0,0 l/m 3,4 km/h (1 Bft) W-NW 301 3,5 C 6,3 km/h (2 Bft) 100 %
14.11.2017 03:18 4,7 C 92 % 1021,2 hPa 0,0 l/m 0,6 km/h (0 Bft) NW 309 3,5 C 3,1 km/h (1 Bft) 100 %
14.11.2017 03:19 4,7 C 92 % 1021,2 hPa 0,0 l/m 2,0 km/h (1 Bft) W-NW 298 3,5 C 6,3 km/h (2 Bft) 100 %
14.11.2017 03:20 4,7 C 92 % 1021,2 hPa 0,0 l/m 3,9 km/h (1 Bft) W 264 3,5 C 9,4 km/h (2 Bft) 100 %
14.11.2017 03:21 4,7 C 92 % 1021,2 hPa 0,0 l/m 3,9 km/h (1 Bft) NW 313 3,5 C 6,3 km/h (2 Bft) 100 %
14.11.2017 03:22 4,7 C 92 % 1021,2 hPa 0,0 l/m 2,0 km/h (1 Bft) NW 312 3,5 C 6,3 km/h (2 Bft) 100 %
14.11.2017 03:23 4,7 C 92 % 1021,2 hPa 0,0 l/m 0,0 km/h (0 Bft) NW 312 3,5 C 0,0 km/h (0 Bft) 100 %
14.11.2017 03:24 4,7 C 92 % 1021,2 hPa 0,0 l/m 0,0 km/h (0 Bft) NW 312 3,5 C 0,0 km/h (0 Bft) 100 %
14.11.2017 03:25 4,7 C 92 % 1021,3 hPa 0,0 l/m 0,0 km/h (0 Bft) NW 312 3,5 C 0,0 km/h (0 Bft) 100 %
14.11.2017 03:26 4,7 C 92 % 1021,3 hPa 0,0 l/m 0,8 km/h (0 Bft) W 273 3,5 C 3,1 km/h (1 Bft) 100 %
14.11.2017 03:27 4,7 C 92 % 1021,3 hPa 0,0 l/m 0,0 km/h (0 Bft) W-SW 248 3,5 C 0,0 km/h (0 Bft) 100 %
14.11.2017 03:28 4,7 C 92 % 1021,3 hPa 0,0 l/m 0,9 km/h (0 Bft) W-SW 249 3,5 C 3,1 km/h (1 Bft) 100 %
14.11.2017 03:29 4,7 C 92 % 1021,2 hPa 0,0 l/m 1,0 km/h (0 Bft) NW 307 3,5 C 6,3 km/h (2 Bft) 100 %
14.11.2017 03:30 4,7 C 92 % 1021,2 hPa 0,0 l/m 0,0 km/h (0 Bft) NW 307 3,5 C 0,0 km/h (0 Bft) 100 %
14.11.2017 03:31 4,7 C 92 % 1021,2 hPa 0,0 l/m 0,4 km/h (0 Bft) NW 305 3,5 C 3,1 km/h (1 Bft) 100 %
14.11.2017 03:32 4,7 C 92 % 1021,2 hPa 0,0 l/m 0,0 km/h (0 Bft) NW 305 3,5 C 0,0 km/h (0 Bft) 100 %
14.11.2017 03:33 4,7 C 92 % 1021,2 hPa 0,0 l/m 0,0 km/h (0 Bft) NW 305 3,5 C 0,0 km/h (0 Bft) 100 %
14.11.2017 03:34 4,7 C 92 % 1021,3 hPa 0,0 l/m 0,0 km/h (0 Bft) NW 305 3,5 C 0,0 km/h (0 Bft) 100 %
14.11.2017 03:35 4,7 C 92 % 1021,3 hPa 0,0 l/m 0,0 km/h (0 Bft) NW 306 3,5 C 0,0 km/h (0 Bft) 100 %
14.11.2017 03:36 4,7 C 92 % 1021,3 hPa 0,0 l/m 0,0 km/h (0 Bft) NW 305 3,5 C 0,0 km/h (0 Bft) 100 %
14.11.2017 03:37 4,7 C 92 % 1021,3 hPa 0,0 l/m 0,0 km/h (0 Bft) NW 305 3,5 C 0,0 km/h (0 Bft) 100 %
14.11.2017 03:38 4,7 C 92 % 1021,3 hPa 0,0 l/m 0,0 km/h (0 Bft) W-NW 298 3,5 C 0,0 km/h (0 Bft) 100 %
14.11.2017 03:39 4,6 C 92 % 1021,3 hPa 0,0 l/m 0,0 km/h (0 Bft) W-NW 298 3,4 C 0,0 km/h (0 Bft) 100 %
14.11.2017 03:40 4,6 C 92 % 1021,3 hPa 0,0 l/m 0,0 km/h (0 Bft) W-NW 298 3,4 C 0,0 km/h (0 Bft) 100 %
14.11.2017 03:41 4,6 C 92 % 1021,4 hPa 0,0 l/m 0,0 km/h (0 Bft) W-NW 298 3,4 C 0,0 km/h (0 Bft) 100 %
14.11.2017 03:42 4,6 C 92 % 1021,3 hPa 0,0 l/m 0,0 km/h (0 Bft) W-NW 298 3,4 C 0,0 km/h (0 Bft) 100 %
14.11.2017 03:43 4,6 C 92 % 1021,4 hPa 0,0 l/m 0,0 km/h (0 Bft) W-NW 298 3,4 C 0,0 km/h (0 Bft) 100 %
14.11.2017 03:44 4,6 C 92 % 1021,4 hPa 0,0 l/m 0,0 km/h (0 Bft) W-NW 298 3,4 C 0,0 km/h (0 Bft) 100 %
14.11.2017 03:45 4,6 C 92 % 1021,4 hPa 0,0 l/m 0,0 km/h (0 Bft) W-NW 298 3,4 C 0,0 km/h (0 Bft) 100 %
14.11.2017 03:46 4,6 C 92 % 1021,4 hPa 0,0 l/m 0,0 km/h (0 Bft) W-NW 298 3,4 C 0,0 km/h (0 Bft) 100 %
14.11.2017 03:47 4,6 C 93 % 1021,4 hPa 0,0 l/m 0,1 km/h (0 Bft) W-NW 298 3,6 C 3,1 km/h (1 Bft) 100 %
14.11.2017 03:48 4,6 C 93 % 1021,4 hPa 0,0 l/m 0,3 km/h (0 Bft) W-NW 298 3,6 C 3,1 km/h (1 Bft) 100 %
14.11.2017 03:49 4,6 C 93 % 1021,4 hPa 0,0 l/m 0,5 km/h (0 Bft) W-NW 298 3,6 C 3,1 km/h (1 Bft) 100 %
14.11.2017 03:50 4,6 C 93 % 1021,3 hPa 0,0 l/m 0,1 km/h (0 Bft) W-NW 298 3,6 C 3,1 km/h (1 Bft) 100 %
14.11.2017 03:51 4,6 C 93 % 1021,3 hPa 0,0 l/m 0,2 km/h (0 Bft) W-NW 288 3,6 C 3,1 km/h (1 Bft) 93 %
14.11.2017 03:52 4,6 C 93 % 1021,4 hPa 0,0 l/m 0,3 km/h (0 Bft) W-NW 290 3,6 C 3,1 km/h (1 Bft) 100 %
14.11.2017 03:53 4,6 C 93 % 1021,4 hPa 0,0 l/m 0,0 km/h (0 Bft) W-NW 290 3,6 C 0,0 km/h (0 Bft) 100 %
14.11.2017 03:54 4,6 C 93 % 1021,4 hPa 0,0 l/m 4,3 km/h (1 Bft) NW 312 3,6 C 6,3 km/h (2 Bft) 94 %
14.11.2017 03:55 4,6 C 93 % 1021,4 hPa 0,0 l/m 0,8 km/h (0 Bft) NW 311 3,6 C 3,1 km/h (1 Bft) 100 %
14.11.2017 03:56 4,6 C 93 % 1021,4 hPa 0,0 l/m 0,2 km/h (0 Bft) W 265 3,6 C 3,1 km/h (1 Bft) 96 %
14.11.2017 03:57 4,6 C 93 % 1021,4 hPa 0,0 l/m 2,6 km/h (1 Bft) W 269 3,6 C 9,4 km/h (2 Bft) 100 %
14.11.2017 03:58 4,6 C 93 % 1021,4 hPa 0,0 l/m 5,3 km/h (1 Bft) W-NW 295 3,6 C 12,6 km/h (3 Bft) 100 %
14.11.2017 03:59 4,6 C 93 % 1021,4 hPa 0,0 l/m 3,5 km/h (1 Bft) W-NW 290 3,6 C 6,3 km/h (2 Bft) 92 %
14.11.2017 04:00 4,7 C 92 % 1021,5 hPa 0,0 l/m 4,4 km/h (1 Bft) W-NW 302 3,5 C 9,4 km/h (2 Bft) 100 %
14.11.2017 04:01 4,7 C 92 % 1021,5 hPa 0,0 l/m 2,5 km/h (1 Bft) W-NW 302 3,5 C 6,3 km/h (2 Bft) 100 %
14.11.2017 04:02 4,7 C 92 % 1021,5 hPa 0,0 l/m 1,3 km/h (1 Bft) W-NW 294 3,5 C 3,1 km/h (1 Bft) 100 %
14.11.2017 04:03 4,7 C 92 % 1021,4 hPa 0,0 l/m 0,5 km/h (0 Bft) W-NW 293 3,5 C 3,1 km/h (1 Bft) 96 %
14.11.2017 04:04 4,7 C 92 % 1021,4 hPa 0,0 l/m 0,8 km/h (0 Bft) NW 307 3,5 C 3,1 km/h (1 Bft) 96 %
14.11.2017 04:05 4,7 C 92 % 1021,5 hPa 0,0 l/m 0,0 km/h (0 Bft) W 267 3,5 C 0,0 km/h (0 Bft) 100 %
14.11.2017 04:06 4,7 C 92 % 1021,5 hPa 0,0 l/m 0,0 km/h (0 Bft) W 275 3,5 C 0,0 km/h (0 Bft) 96 %
14.11.2017 04:07 4,7 C 92 % 1021,5 hPa 0,0 l/m 1,0 km/h (0 Bft) W 259 3,5 C 3,1 km/h (1 Bft) 100 %
14.11.2017 04:08 4,7 C 92 % 1021,4 hPa 0,0 l/m 0,1 km/h (0 Bft) W-SW 258 3,5 C 3,1 km/h (1 Bft) 96 %
14.11.2017 04:09 4,7 C 92 % 1021,5 hPa 0,0 l/m 0,0 km/h (0 Bft) W-SW 258 3,5 C 0,0 km/h (0 Bft) 96 %
14.11.2017 04:10 4,7 C 92 % 1021,5 hPa 0,0 l/m 0,0 km/h (0 Bft) W-SW 258 3,5 C 0,0 km/h (0 Bft) 100 %
14.11.2017 04:11 4,7 C 92 % 1021,5 hPa 0,0 l/m 0,0 km/h (0 Bft) W 262 3,5 C 0,0 km/h (0 Bft) 96 %
14.11.2017 04:13 4,7 C 92 % 1021,5 hPa 0,0 l/m 0,0 km/h (0 Bft) W 262 3,5 C 0,0 km/h (0 Bft) 98 %
14.11.2017 04:15 4,7 C 92 % 1021,5 hPa 0,0 l/m 0,0 km/h (0 Bft) W 262 3,5 C 0,0 km/h (0 Bft) 97 %
14.11.2017 04:16 4,7 C 92 % 1021,5 hPa 0,0 l/m 0,1 km/h (0 Bft) W 262 3,5 C 3,1 km/h (1 Bft) 100 %
14.11.2017 04:17 4,7 C 92 % 1021,5 hPa 0,0 l/m 0,0 km/h (0 Bft) W 262 3,5 C 0,0 km/h (0 Bft) 96 %
14.11.2017 04:18 4,7 C 93 % 1021,5 hPa 0,0 l/m 0,0 km/h (0 Bft) W 262 3,7 C 0,0 km/h (0 Bft) 96 %
14.11.2017 04:19 4,7 C 93 % 1021,5 hPa 0,0 l/m 0,0 km/h (0 Bft) W 262 3,7 C 0,0 km/h (0 Bft) 100 %
14.11.2017 04:20 4,7 C 93 % 1021,5 hPa 0,0 l/m 0,0 km/h (0 Bft) W 262 3,7 C 0,0 km/h (0 Bft) 96 %
14.11.2017 04:21 4,7 C 93 % 1021,5 hPa 0,0 l/m 0,0 km/h (0 Bft) W 262 3,7 C 0,0 km/h (0 Bft) 100 %
14.11.2017 04:22 4,7 C 93 % 1021,5 hPa 0,0 l/m 0,0 km/h (0 Bft) W 262 3,7 C 0,0 km/h (0 Bft) 96 %
14.11.2017 04:23 4,7 C 93 % 1021,5 hPa 0,0 l/m 0,0 km/h (0 Bft) W 262 3,7 C 0,0 km/h (0 Bft) 100 %
14.11.2017 04:24 4,7 C 93 % 1021,5 hPa 0,0 l/m 0,0 km/h (0 Bft) W 262 3,7 C 0,0 km/h (0 Bft) 96 %
14.11.2017 04:25 4,7 C 93 % 1021,5 hPa 0,0 l/m 0,0 km/h (0 Bft) W 262 3,7 C 0,0 km/h (0 Bft) 100 %
14.11.2017 04:26 4,7 C 93 % 1021,5 hPa 0,0 l/m 0,0 km/h (0 Bft) W 262 3,7 C 0,0 km/h (0 Bft) 97 %
14.11.2017 04:27 4,7 C 93 % 1021,5 hPa 0,0 l/m 0,0 km/h (0 Bft) W 262 3,7 C 0,0 km/h (0 Bft) 96 %
14.11.2017 04:28 4,7 C 93 % 1021,5 hPa 0,0 l/m 0,0 km/h (0 Bft) W 262 3,7 C 0,0 km/h (0 Bft) 100 %
14.11.2017 04:29 4,7 C 93 % 1021,5 hPa 0,0 l/m 0,0 km/h (0 Bft) W 262 3,7 C 0,0 km/h (0 Bft) 92 %
14.11.2017 04:30 4,7 C 93 % 1021,6 hPa 0,0 l/m 0,0 km/h (0 Bft) W 262 3,7 C 0,0 km/h (0 Bft) 100 %
14.11.2017 04:31 4,7 C 93 % 1021,6 hPa 0,0 l/m 0,0 km/h (0 Bft) W 262 3,7 C 0,0 km/h (0 Bft) 96 %
14.11.2017 04:32 4,6 C 93 % 1021,6 hPa 0,0 l/m 0,0 km/h (0 Bft) W 262 3,6 C 0,0 km/h (0 Bft) 100 %
14.11.2017 04:33 4,6 C 93 % 1021,5 hPa 0,0 l/m 0,0 km/h (0 Bft) W 262 3,6 C 0,0 km/h (0 Bft) 96 %
14.11.2017 04:34 4,6 C 93 % 1021,6 hPa 0,0 l/m 2,7 km/h (1 Bft) W-SW 252 3,6 C 6,3 km/h (2 Bft) 100 %
14.11.2017 04:35 4,6 C 93 % 1021,6 hPa 0,0 l/m 0,2 km/h (0 Bft) W 266 3,6 C 3,1 km/h (1 Bft) 100 %
14.11.2017 04:36 4,6 C 93 % 1021,5 hPa 0,0 l/m 0,0 km/h (0 Bft) W 266 3,6 C 0,0 km/h (0 Bft) 100 %
14.11.2017 04:37 4,6 C 93 % 1021,5 hPa 0,0 l/m 0,1 km/h (0 Bft) W 266 3,6 C 3,1 km/h (1 Bft) 100 %
14.11.2017 04:38 4,6 C 93 % 1021,5 hPa 0,0 l/m 0,0 km/h (0 Bft) W 266 3,6 C 0,0 km/h (0 Bft) 100 %
14.11.2017 04:39 4,6 C 93 % 1021,5 hPa 0,0 l/m 1,5 km/h (1 Bft) W 265 3,6 C 6,3 km/h (2 Bft) 100 %
14.11.2017 04:40 4,6 C 93 % 1021,6 hPa 0,0 l/m 1,7 km/h (1 Bft) W-NW 302 3,6 C 3,1 km/h (1 Bft) 100 %
14.11.2017 04:41 4,6 C 93 % 1021,6 hPa 0,0 l/m 0,5 km/h (0 Bft) W-NW 302 3,6 C 3,1 km/h (1 Bft) 100 %
14.11.2017 04:42 4,6 C 93 % 1021,6 hPa 0,0 l/m 0,0 km/h (0 Bft) W-NW 302 3,6 C 0,0 km/h (0 Bft) 100 %
14.11.2017 04:43 4,6 C 93 % 1021,5 hPa 0,0 l/m 0,0 km/h (0 Bft) W-NW 302 3,6 C 0,0 km/h (0 Bft) 100 %
14.11.2017 04:44 4,6 C 93 % 1021,6 hPa 0,0 l/m 0,0 km/h (0 Bft) W-NW 302 3,6 C 0,0 km/h (0 Bft) 100 %
14.11.2017 04:45 4,6 C 93 % 1021,5 hPa 0,0 l/m 0,1 km/h (0 Bft) W-NW 302 3,6 C 3,1 km/h (1 Bft) 100 %
14.11.2017 04:46 4,6 C 93 % 1021,5 hPa 0,0 l/m 0,0 km/h (0 Bft) W-NW 302 3,6 C 0,0 km/h (0 Bft) 100 %
14.11.2017 04:47 4,6 C 93 % 1021,5 hPa 0,0 l/m 0,0 km/h (0 Bft) W-NW 302 3,6 C 0,0 km/h (0 Bft) 100 %
14.11.2017 04:48 4,6 C 93 % 1021,5 hPa 0,0 l/m 0,0 km/h (0 Bft) W-NW 302 3,6 C 0,0 km/h (0 Bft) 100 %
14.11.2017 04:49 4,6 C 93 % 1021,6 hPa 0,0 l/m 0,0 km/h (0 Bft) W-NW 302 3,6 C 0,0 km/h (0 Bft) 100 %
14.11.2017 04:50 4,6 C 93 % 1021,6 hPa 0,0 l/m 0,0 km/h (0 Bft) W-NW 302 3,6 C 0,0 km/h (0 Bft) 100 %
14.11.2017 04:51 4,5 C 93 % 1021,6 hPa 0,0 l/m 0,0 km/h (0 Bft) W-NW 302 3,5 C 0,0 km/h (0 Bft) 100 %
14.11.2017 04:52 4,5 C 93 % 1021,6 hPa 0,0 l/m 0,2 km/h (0 Bft) W-NW 302 3,5 C 3,1 km/h (1 Bft) 100 %
14.11.2017 04:53 4,5 C 93 % 1021,6 hPa 0,0 l/m 0,2 km/h (0 Bft) W-NW 302 3,5 C 3,1 km/h (1 Bft) 100 %
14.11.2017 04:54 4,5 C 93 % 1021,6 hPa 0,0 l/m 0,0 km/h (0 Bft) W-NW 302 3,5 C 0,0 km/h (0 Bft) 100 %
14.11.2017 04:55 4,5 C 93 % 1021,7 hPa 0,0 l/m 0,0 km/h (0 Bft) W-NW 302 3,5 C 0,0 km/h (0 Bft) 100 %
14.11.2017 04:56 4,4 C 93 % 1021,7 hPa 0,0 l/m 0,0 km/h (0 Bft) W-NW 302 3,4 C 0,0 km/h (0 Bft) 100 %
14.11.2017 04:57 4,4 C 93 % 1021,7 hPa 0,0 l/m 0,0 km/h (0 Bft) W-NW 302 3,4 C 0,0 km/h (0 Bft) 100 %
14.11.2017 04:58 4,4 C 93 % 1021,7 hPa 0,0 l/m 0,0 km/h (0 Bft) W-NW 302 3,4 C 0,0 km/h (0 Bft) 100 %
14.11.2017 04:59 4,4 C 93 % 1021,7 hPa 0,0 l/m 0,0 km/h (0 Bft) W-NW 302 3,4 C 0,0 km/h (0 Bft) 100 %
14.11.2017 05:00 4,4 C 93 % 1021,7 hPa 0,0 l/m 0,2 km/h (0 Bft) W-NW 302 3,4 C 3,1 km/h (1 Bft) 100 %
14.11.2017 05:01 4,4 C 93 % 1021,7 hPa 0,0 l/m 0,0 km/h (0 Bft) W-NW 302 3,4 C 0,0 km/h (0 Bft) 100 %
14.11.2017 05:02 4,4 C 93 % 1021,7 hPa 0,0 l/m 0,0 km/h (0 Bft) W-NW 302 3,4 C 0,0 km/h (0 Bft) 100 %
14.11.2017 05:03 4,4 C 93 % 1021,7 hPa 0,0 l/m 0,0 km/h (0 Bft) W-NW 302 3,4 C 0,0 km/h (0 Bft) 100 %
14.11.2017 05:04 4,4 C 93 % 1021,7 hPa 0,0 l/m 0,0 km/h (0 Bft) W-NW 302 3,4 C 0,0 km/h (0 Bft) 100 %
14.11.2017 05:05 4,4 C 93 % 1021,8 hPa 0,0 l/m 0,0 km/h (0 Bft) W-NW 302 3,4 C 0,0 km/h (0 Bft) 100 %
14.11.2017 05:06 4,3 C 93 % 1021,8 hPa 0,0 l/m 0,0 km/h (0 Bft) W-NW 302 3,3 C 0,0 km/h (0 Bft) 100 %
14.11.2017 05:07 4,3 C 93 % 1021,7 hPa 0,0 l/m 0,0 km/h (0 Bft) W-NW 302 3,3 C 0,0 km/h (0 Bft) 100 %
14.11.2017 05:08 4,3 C 93 % 1021,7 hPa 0,0 l/m 0,0 km/h (0 Bft) W-SW 252 3,3 C 0,0 km/h (0 Bft) 100 %
14.11.2017 05:09 4,3 C 93 % 1021,8 hPa 0,0 l/m 0,0 km/h (0 Bft) W-SW 252 3,3 C 0,0 km/h (0 Bft) 100 %
14.11.2017 05:10 4,2 C 93 % 1021,8 hPa 0,0 l/m 0,0 km/h (0 Bft) W-SW 252 3,2 C 0,0 km/h (0 Bft) 100 %
14.11.2017 05:11 4,2 C 93 % 1021,8 hPa 0,0 l/m 0,0 km/h (0 Bft) W-SW 252 3,2 C 0,0 km/h (0 Bft) 100 %
14.11.2017 05:12 4,2 C 93 % 1021,8 hPa 0,0 l/m 0,2 km/h (0 Bft) W-SW 252 3,2 C 3,1 km/h (1 Bft) 100 %
14.11.2017 05:13 4,2 C 93 % 1021,8 hPa 0,0 l/m 0,0 km/h (0 Bft) W-SW 252 3,2 C 0,0 km/h (0 Bft) 100 %
14.11.2017 05:14 4,1 C 93 % 1021,8 hPa 0,0 l/m 0,5 km/h (0 Bft) W-NW 297 3,1 C 3,1 km/h (1 Bft) 100 %
14.11.2017 05:15 4,1 C 93 % 1021,8 hPa 0,0 l/m 0,9 km/h (0 Bft) W-NW 284 3,1 C 3,1 km/h (1 Bft) 100 %
14.11.2017 05:16 4,1 C 93 % 1021,8 hPa 0,0 l/m 1,0 km/h (0 Bft) W 267 3,1 C 3,1 km/h (1 Bft) 100 %
14.11.2017 05:17 4,0 C 94 % 1021,8 hPa 0,0 l/m 0,0 km/h (0 Bft) W 267 3,1 C 0,0 km/h (0 Bft) 100 %
14.11.2017 05:18 4,0 C 94 % 1021,8 hPa 0,0 l/m 3,3 km/h (1 Bft) W 270 3,1 C 6,3 km/h (2 Bft) 100 %
14.11.2017 05:19 4,0 C 94 % 1021,8 hPa 0,0 l/m 0,3 km/h (0 Bft) W-NW 290 3,1 C 3,1 km/h (1 Bft) 100 %
14.11.2017 05:20 4,0 C 94 % 1021,8 hPa 0,0 l/m 1,4 km/h (1 Bft) NW 308 3,1 C 6,3 km/h (2 Bft) 100 %
14.11.2017 05:21 3,9 C 94 % 1021,8 hPa 0,0 l/m 0,8 km/h (0 Bft) W-SW 243 3,0 C 3,1 km/h (1 Bft) 100 %
14.11.2017 05:22 3,9 C 94 % 1021,8 hPa 0,0 l/m 0,5 km/h (0 Bft) W-SW 251 3,0 C 3,1 km/h (1 Bft) 100 %
14.11.2017 05:23 3,9 C 94 % 1021,8 hPa 0,0 l/m 1,6 km/h (1 Bft) W 276 3,0 C 9,4 km/h (2 Bft) 100 %
14.11.2017 05:24 3,9 C 94 % 1021,8 hPa 0,0 l/m 0,0 km/h (0 Bft) W 271 3,0 C 0,0 km/h (0 Bft) 100 %
14.11.2017 05:25 3,9 C 94 % 1021,8 hPa 0,0 l/m 3,0 km/h (1 Bft) W-SW 251 3,0 C 6,3 km/h (2 Bft) 100 %
14.11.2017 05:26 3,9 C 94 % 1021,8 hPa 0,0 l/m 0,5 km/h (0 Bft) W-SW 251 3,0 C 3,1 km/h (1 Bft) 100 %
14.11.2017 05:27 3,8 C 94 % 1021,8 hPa 0,0 l/m 0,8 km/h (0 Bft) W-SW 238 2,9 C 3,1 km/h (1 Bft) 100 %
14.11.2017 05:28 3,8 C 94 % 1021,8 hPa 0,0 l/m 0,6 km/h (0 Bft) W-NW 296 2,9 C 3,1 km/h (1 Bft) 100 %
14.11.2017 05:29 3,8 C 94 % 1021,8 hPa 0,0 l/m 0,5 km/h (0 Bft) W 278 2,9 C 3,1 km/h (1 Bft) 100 %
14.11.2017 05:30 3,8 C 94 % 1021,8 hPa 0,0 l/m 0,9 km/h (0 Bft) W-NW 300 2,9 C 3,1 km/h (1 Bft) 100 %
14.11.2017 05:31 3,8 C 94 % 1021,9 hPa 0,0 l/m 0,8 km/h (0 Bft) W-SW 257 2,9 C 3,1 km/h (1 Bft) 100 %
14.11.2017 05:32 3,8 C 94 % 1021,9 hPa 0,0 l/m 0,5 km/h (0 Bft) W 263 2,9 C 3,1 km/h (1 Bft) 100 %
14.11.2017 05:33 3,7 C 94 % 1021,9 hPa 0,0 l/m 0,3 km/h (0 Bft) W 263 2,8 C 3,1 km/h (1 Bft) 100 %
14.11.2017 05:34 3,7 C 94 % 1021,9 hPa 0,0 l/m 0,9 km/h (0 Bft) W 270 2,8 C 3,1 km/h (1 Bft) 100 %
14.11.2017 05:35 3,7 C 94 % 1021,9 hPa 0,0 l/m 0,7 km/h (0 Bft) W 271 2,8 C 3,1 km/h (1 Bft) 100 %
14.11.2017 05:36 3,7 C 94 % 1021,9 hPa 0,0 l/m 0,6 km/h (0 Bft) W-NW 296 2,8 C 3,1 km/h (1 Bft) 99 %
14.11.2017 05:37 3,7 C 94 % 1021,9 hPa 0,0 l/m 0,0 km/h (0 Bft) W-NW 296 2,8 C 0,0 km/h (0 Bft) 100 %
14.11.2017 05:38 3,7 C 94 % 1022,0 hPa 0,0 l/m 0,1 km/h (0 Bft) W-NW 282 2,8 C 3,1 km/h (1 Bft) 100 %
14.11.2017 05:39 3,6 C 94 % 1022,0 hPa 0,0 l/m 0,0 km/h (0 Bft) W-NW 282 2,7 C 0,0 km/h (0 Bft) 100 %
14.11.2017 05:40 3,6 C 94 % 1021,9 hPa 0,0 l/m 1,6 km/h (1 Bft) W-SW 250 2,7 C 3,1 km/h (1 Bft) 100 %
14.11.2017 05:41 3,6 C 94 % 1022,0 hPa 0,0 l/m 0,3 km/h (0 Bft) W-SW 250 2,7 C 3,1 km/h (1 Bft) 100 %
14.11.2017 05:42 3,6 C 94 % 1022,0 hPa 0,0 l/m 0,1 km/h (0 Bft) W-SW 250 2,7 C 3,1 km/h (1 Bft) 100 %
14.11.2017 05:43 3,6 C 94 % 1021,9 hPa 0,0 l/m 0,7 km/h (0 Bft) W-NW 302 2,7 C 3,1 km/h (1 Bft) 100 %
14.11.2017 05:44 3,6 C 94 % 1022,0 hPa 0,0 l/m 0,0 km/h (0 Bft) W-NW 302 2,7 C 0,0 km/h (0 Bft) 100 %
14.11.2017 05:45 3,6 C 94 % 1022,0 hPa 0,0 l/m 0,3 km/h (0 Bft) NW 322 2,7 C 3,1 km/h (1 Bft) 100 %
14.11.2017 05:46 3,6 C 94 % 1022,0 hPa 0,0 l/m 0,7 km/h (0 Bft) W-SW 253 2,7 C 3,1 km/h (1 Bft) 100 %
14.11.2017 05:47 3,6 C 94 % 1022,0 hPa 0,0 l/m 2,8 km/h (1 Bft) SW 226 2,7 C 3,1 km/h (1 Bft) 100 %
14.11.2017 05:48 3,6 C 94 % 1022,0 hPa 0,0 l/m 0,1 km/h (0 Bft) NW 309 2,7 C 3,1 km/h (1 Bft) 100 %
14.11.2017 05:49 3,6 C 94 % 1022,0 hPa 0,0 l/m 0,0 km/h (0 Bft) W 265 2,7 C 0,0 km/h (0 Bft) 100 %
14.11.2017 05:50 3,6 C 94 % 1022,0 hPa 0,0 l/m 1,0 km/h (0 Bft) W 271 2,7 C 3,1 km/h (1 Bft) 100 %
14.11.2017 05:51 3,6 C 94 % 1022,0 hPa 0,0 l/m 0,1 km/h (0 Bft) W 271 2,7 C 3,1 km/h (1 Bft) 100 %
14.11.2017 05:52 3,6 C 94 % 1022,0 hPa 0,0 l/m 0,0 km/h (0 Bft) W 271 2,7 C 0,0 km/h (0 Bft) 100 %
14.11.2017 05:53 3,6 C 94 % 1022,0 hPa 0,0 l/m 0,3 km/h (0 Bft) W 271 2,7 C 3,1 km/h (1 Bft) 100 %
14.11.2017 05:54 3,5 C 94 % 1022,0 hPa 0,0 l/m 0,0 km/h (0 Bft) W 271 2,6 C 0,0 km/h (0 Bft) 100 %
14.11.2017 05:55 3,5 C 94 % 1022,0 hPa 0,0 l/m 0,0 km/h (0 Bft) W 271 2,6 C 0,0 km/h (0 Bft) 100 %
14.11.2017 05:56 3,5 C 94 % 1022,0 hPa 0,0 l/m 0,0 km/h (0 Bft) W 271 2,6 C 0,0 km/h (0 Bft) 100 %
14.11.2017 05:57 3,4 C 94 % 1022,0 hPa 0,0 l/m 0,0 km/h (0 Bft) W 271 2,5 C 0,0 km/h (0 Bft) 100 %
14.11.2017 05:58 3,4 C 94 % 1022,0 hPa 0,0 l/m 0,0 km/h (0 Bft) SW 232 2,5 C 0,0 km/h (0 Bft) 100 %
14.11.2017 05:59 3,4 C 94 % 1022,1 hPa 0,0 l/m 0,0 km/h (0 Bft) SW 232 2,5 C 0,0 km/h (0 Bft) 100 %
14.11.2017 06:00 3,4 C 94 % 1022,1 hPa 0,0 l/m 0,0 km/h (0 Bft) SW 232 2,5 C 0,0 km/h (0 Bft) 100 %
14.11.2017 06:01 3,4 C 94 % 1022,1 hPa 0,0 l/m 0,5 km/h (0 Bft) W-SW 253 2,5 C 3,1 km/h (1 Bft) 100 %
14.11.2017 06:02 3,4 C 94 % 1022,1 hPa 0,0 l/m 0,2 km/h (0 Bft) W-NW 300 2,5 C 3,1 km/h (1 Bft) 100 %
14.11.2017 06:03 3,4 C 94 % 1022,1 hPa 0,0 l/m 0,5 km/h (0 Bft) W-NW 300 2,5 C 3,1 km/h (1 Bft) 100 %
14.11.2017 06:04 3,4 C 95 % 1022,1 hPa 0,0 l/m 0,9 km/h (0 Bft) W 270 2,7 C 3,1 km/h (1 Bft) 100 %
14.11.2017 06:05 3,4 C 95 % 1022,1 hPa 0,0 l/m 0,8 km/h (0 Bft) SW 221 2,7 C 3,1 km/h (1 Bft) 100 %
14.11.2017 06:06 3,4 C 95 % 1022,1 hPa 0,0 l/m 0,8 km/h (0 Bft) W-NW 302 2,7 C 3,1 km/h (1 Bft) 100 %
14.11.2017 06:07 3,4 C 95 % 1022,1 hPa 0,0 l/m 0,1 km/h (0 Bft) W-NW 302 2,7 C 3,1 km/h (1 Bft) 100 %
14.11.2017 06:08 3,4 C 95 % 1022,1 hPa 0,0 l/m 0,0 km/h (0 Bft) W-NW 302 2,7 C 0,0 km/h (0 Bft) 100 %
14.11.2017 06:09 3,3 C 95 % 1022,1 hPa 0,0 l/m 0,0 km/h (0 Bft) W-NW 302 2,6 C 0,0 km/h (0 Bft) 100 %
14.11.2017 06:10 3,3 C 94 % 1022,1 hPa 0,0 l/m 0,0 km/h (0 Bft) W-NW 302 2,4 C 0,0 km/h (0 Bft) 100 %
14.11.2017 06:11 3,3 C 94 % 1022,1 hPa 0,0 l/m 0,0 km/h (0 Bft) W-NW 302 2,4 C 0,0 km/h (0 Bft) 100 %
14.11.2017 06:12 3,3 C 94 % 1022,1 hPa 0,0 l/m 0,0 km/h (0 Bft) W-NW 302 2,4 C 0,0 km/h (0 Bft) 100 %
14.11.2017 06:13 3,3 C 95 % 1022,1 hPa 0,0 l/m 2,4 km/h (1 Bft) SW 233 2,6 C 6,3 km/h (2 Bft) 100 %
14.11.2017 06:14 3,3 C 95 % 1022,1 hPa 0,0 l/m 1,0 km/h (0 Bft) W-SW 255 2,6 C 3,1 km/h (1 Bft) 100 %
14.11.2017 06:15 3,3 C 95 % 1022,1 hPa 0,0 l/m 1,0 km/h (0 Bft) W 271 2,6 C 3,1 km/h (1 Bft) 100 %
14.11.2017 06:16 3,3 C 95 % 1022,1 hPa 0,0 l/m 0,0 km/h (0 Bft) W 271 2,6 C 0,0 km/h (0 Bft) 100 %
14.11.2017 06:17 3,3 C 95 % 1022,1 hPa 0,0 l/m 0,0 km/h (0 Bft) W-SW 249 2,6 C 0,0 km/h (0 Bft) 100 %
14.11.2017 06:18 3,3 C 95 % 1022,1 hPa 0,0 l/m 0,0 km/h (0 Bft) W-SW 249 2,6 C 0,0 km/h (0 Bft) 100 %
14.11.2017 06:19 3,3 C 95 % 1022,2 hPa 0,0 l/m 0,0 km/h (0 Bft) W-SW 249 2,6 C 0,0 km/h (0 Bft) 100 %
14.11.2017 06:20 3,3 C 94 % 1022,1 hPa 0,0 l/m 0,0 km/h (0 Bft) W-SW 249 2,4 C 0,0 km/h (0 Bft) 100 %
14.11.2017 06:21 3,3 C 94 % 1022,1 hPa 0,0 l/m 0,0 km/h (0 Bft) W-SW 250 2,4 C 0,0 km/h (0 Bft) 100 %
14.11.2017 06:22 3,2 C 94 % 1022,1 hPa 0,0 l/m 0,0 km/h (0 Bft) W-SW 249 2,3 C 0,0 km/h (0 Bft) 100 %
14.11.2017 06:23 3,2 C 94 % 1022,2 hPa 0,0 l/m 0,0 km/h (0 Bft) W-SW 249 2,3 C 0,0 km/h (0 Bft) 100 %
14.11.2017 06:24 3,1 C 94 % 1022,2 hPa 0,0 l/m 0,0 km/h (0 Bft) W-SW 249 2,2 C 0,0 km/h (0 Bft) 100 %
14.11.2017 06:25 3,1 C 94 % 1022,2 hPa 0,0 l/m 0,0 km/h (0 Bft) W-SW 250 2,2 C 0,0 km/h (0 Bft) 100 %
14.11.2017 06:26 3,1 C 94 % 1022,2 hPa 0,0 l/m 0,0 km/h (0 Bft) W-SW 249 2,2 C 0,0 km/h (0 Bft) 100 %
14.11.2017 06:27 3,0 C 94 % 1022,2 hPa 0,0 l/m 0,0 km/h (0 Bft) W-SW 249 2,1 C 0,0 km/h (0 Bft) 100 %
14.11.2017 06:28 2,9 C 94 % 1022,2 hPa 0,0 l/m 0,0 km/h (0 Bft) W-SW 249 2,0 C 0,0 km/h (0 Bft) 100 %
14.11.2017 06:29 2,9 C 94 % 1022,2 hPa 0,0 l/m 0,0 km/h (0 Bft) W-SW 249 2,0 C 0,0 km/h (0 Bft) 100 %
14.11.2017 06:30 2,8 C 94 % 1022,2 hPa 0,0 l/m 0,0 km/h (0 Bft) W-SW 250 1,9 C 0,0 km/h (0 Bft) 100 %
14.11.2017 06:31 2,8 C 94 % 1022,3 hPa 0,0 l/m 0,0 km/h (0 Bft) W-SW 250 1,9 C 0,0 km/h (0 Bft) 100 %
14.11.2017 06:32 2,7 C 94 % 1022,3 hPa 0,0 l/m 0,0 km/h (0 Bft) W-SW 249 1,8 C 0,0 km/h (0 Bft) 100 %
14.11.2017 06:33 2,7 C 94 % 1022,4 hPa 0,0 l/m 0,0 km/h (0 Bft) W-SW 249 1,8 C 0,0 km/h (0 Bft) 100 %
14.11.2017 06:34 2,6 C 94 % 1022,4 hPa 0,0 l/m 0,0 km/h (0 Bft) W-SW 250 1,7 C 0,0 km/h (0 Bft) 100 %
14.11.2017 06:35 2,6 C 94 % 1022,3 hPa 0,0 l/m 0,0 km/h (0 Bft) W-SW 249 1,7 C 0,0 km/h (0 Bft) 100 %
14.11.2017 06:36 2,5 C 94 % 1022,3 hPa 0,0 l/m 0,0 km/h (0 Bft) W-SW 250 1,6 C 0,0 km/h (0 Bft) 100 %
14.11.2017 06:37 2,5 C 94 % 1022,4 hPa 0,0 l/m 0,0 km/h (0 Bft) W-SW 250 1,6 C 0,0 km/h (0 Bft) 100 %
14.11.2017 06:38 2,4 C 94 % 1022,4 hPa 0,0 l/m 0,0 km/h (0 Bft) W-SW 249 1,5 C 0,0 km/h (0 Bft) 100 %
14.11.2017 06:39 2,4 C 94 % 1022,4 hPa 0,0 l/m 0,0 km/h (0 Bft) W-SW 249 1,5 C 0,0 km/h (0 Bft) 100 %
14.11.2017 06:40 2,4 C 94 % 1022,4 hPa 0,0 l/m 0,0 km/h (0 Bft) W-SW 249 1,5 C 0,0 km/h (0 Bft) 100 %
14.11.2017 06:41 2,4 C 94 % 1022,4 hPa 0,0 l/m 0,0 km/h (0 Bft) W-SW 250 1,5 C 0,0 km/h (0 Bft) 100 %
14.11.2017 06:42 2,4 C 95 % 1022,4 hPa 0,0 l/m 0,0 km/h (0 Bft) W-SW 249 1,7 C 0,0 km/h (0 Bft) 100 %
14.11.2017 06:43 2,3 C 95 % 1022,4 hPa 0,0 l/m 0,0 km/h (0 Bft) W-SW 249 1,6 C 0,0 km/h (0 Bft) 100 %
14.11.2017 06:44 2,3 C 95 % 1022,4 hPa 0,0 l/m 0,0 km/h (0 Bft) W-SW 249 1,6 C 0,0 km/h (0 Bft) 100 %
14.11.2017 06:45 2,3 C 95 % 1022,4 hPa 0,0 l/m 0,0 km/h (0 Bft) W-SW 249 1,6 C 0,0 km/h (0 Bft) 100 %
14.11.2017 06:46 2,3 C 95 % 1022,4 hPa 0,0 l/m 0,0 km/h (0 Bft) W-SW 249 1,6 C 0,0 km/h (0 Bft) 100 %
14.11.2017 06:47 2,3 C 95 % 1022,4 hPa 0,0 l/m 0,0 km/h (0 Bft) W-SW 249 1,6 C 0,0 km/h (0 Bft) 100 %
14.11.2017 06:48 2,3 C 95 % 1022,4 hPa 0,0 l/m 0,0 km/h (0 Bft) W-SW 249 1,6 C 0,0 km/h (0 Bft) 100 %
14.11.2017 06:49 2,3 C 95 % 1022,5 hPa 0,0 l/m 0,0 km/h (0 Bft) W-SW 249 1,6 C 0,0 km/h (0 Bft) 100 %
14.11.2017 06:50 2,3 C 96 % 1022,4 hPa 0,0 l/m 0,0 km/h (0 Bft) W-SW 250 1,7 C 0,0 km/h (0 Bft) 100 %
14.11.2017 06:51 2,3 C 96 % 1022,4 hPa 0,0 l/m 0,0 km/h (0 Bft) W-SW 249 1,7 C 0,0 km/h (0 Bft) 100 %
14.11.2017 06:52 2,3 C 96 % 1022,4 hPa 0,0 l/m 0,0 km/h (0 Bft) W-SW 250 1,7 C 0,0 km/h (0 Bft) 100 %
14.11.2017 06:53 2,3 C 96 % 1022,4 hPa 0,0 l/m 0,0 km/h (0 Bft) W-SW 249 1,7 C 0,0 km/h (0 Bft) 100 %
14.11.2017 06:54 2,3 C 96 % 1022,5 hPa 0,0 l/m 0,0 km/h (0 Bft) W-SW 250 1,7 C 0,0 km/h (0 Bft) 100 %
14.11.2017 06:55 2,3 C 96 % 1022,4 hPa 0,0 l/m 0,0 km/h (0 Bft) W-SW 249 1,7 C 0,0 km/h (0 Bft) 100 %
14.11.2017 06:56 2,3 C 96 % 1022,5 hPa 0,0 l/m 0,0 km/h (0 Bft) W-SW 249 1,7 C 0,0 km/h (0 Bft) 100 %
14.11.2017 06:57 2,3 C 96 % 1022,5 hPa 0,0 l/m 0,0 km/h (0 Bft) W-SW 250 1,7 C 0,0 km/h (0 Bft) 100 %
14.11.2017 06:58 2,3 C 96 % 1022,5 hPa 0,0 l/m 0,0 km/h (0 Bft) W-SW 249 1,7 C 0,0 km/h (0 Bft) 100 %
14.11.2017 06:59 2,3 C 96 % 1022,5 hPa 0,0 l/m 0,0 km/h (0 Bft) W-SW 249 1,7 C 0,0 km/h (0 Bft) 100 %
14.11.2017 07:00 2,2 C 96 % 1022,5 hPa 0,0 l/m 0,0 km/h (0 Bft) W-SW 249 1,6 C 0,0 km/h (0 Bft) 100 %
14.11.2017 07:01 2,2 C 96 % 1022,5 hPa 0,0 l/m 0,0 km/h (0 Bft) W-SW 249 1,6 C 0,0 km/h (0 Bft) 100 %
14.11.2017 07:02 2,3 C 96 % 1022,4 hPa 0,0 l/m 0,0 km/h (0 Bft) W-SW 249 1,7 C 0,0 km/h (0 Bft) 100 %
14.11.2017 07:03 2,3 C 96 % 1022,4 hPa 0,0 l/m 0,0 km/h (0 Bft) W-SW 249 1,7 C 0,0 km/h (0 Bft) 100 %
14.11.2017 07:04 2,3 C 96 % 1022,4 hPa 0,0 l/m 0,0 km/h (0 Bft) W-SW 250 1,7 C 0,0 km/h (0 Bft) 100 %
14.11.2017 07:05 2,3 C 96 % 1022,4 hPa 0,0 l/m 0,0 km/h (0 Bft) W-SW 249 1,7 C 0,0 km/h (0 Bft) 100 %
14.11.2017 07:06 2,2 C 96 % 1022,4 hPa 0,0 l/m 0,0 km/h (0 Bft) W-SW 249 1,6 C 0,0 km/h (0 Bft) 100 %
14.11.2017 07:07 2,2 C 96 % 1022,4 hPa 0,0 l/m 0,0 km/h (0 Bft) W-SW 249 1,6 C 0,0 km/h (0 Bft) 100 %
14.11.2017 07:08 2,2 C 96 % 1022,4 hPa 0,0 l/m 0,0 km/h (0 Bft) W-SW 249 1,6 C 0,0 km/h (0 Bft) 100 %
14.11.2017 07:09 2,2 C 96 % 1022,4 hPa 0,0 l/m 0,0 km/h (0 Bft) W-SW 250 1,6 C 0,0 km/h (0 Bft) 100 %
14.11.2017 07:10 2,2 C 96 % 1022,4 hPa 0,0 l/m 0,0 km/h (0 Bft) W-SW 250 1,6 C 0,0 km/h (0 Bft) 100 %
14.11.2017 07:11 2,1 C 96 % 1022,4 hPa 0,0 l/m 0,0 km/h (0 Bft) W-SW 249 1,5 C 0,0 km/h (0 Bft) 100 %
14.11.2017 07:12 2,1 C 96 % 1022,4 hPa 0,0 l/m 0,0 km/h (0 Bft) W-SW 249 1,5 C 0,0 km/h (0 Bft) 100 %
14.11.2017 07:13 2,1 C 96 % 1022,4 hPa 0,0 l/m 0,0 km/h (0 Bft) W-SW 249 1,5 C 0,0 km/h (0 Bft) 100 %
14.11.2017 07:14 2,1 C 96 % 1022,4 hPa 0,0 l/m 0,0 km/h (0 Bft) W-SW 250 1,5 C 0,0 km/h (0 Bft) 100 %
14.11.2017 07:15 2,1 C 96 % 1022,4 hPa 0,0 l/m 0,0 km/h (0 Bft) W-SW 250 1,5 C 0,0 km/h (0 Bft) 100 %
14.11.2017 07:16 2,1 C 96 % 1022,4 hPa 0,0 l/m 0,0 km/h (0 Bft) W-SW 250 1,5 C 0,0 km/h (0 Bft) 100 %
14.11.2017 07:17 2,1 C 96 % 1022,4 hPa 0,0 l/m 0,0 km/h (0 Bft) W-SW 249 1,5 C 0,0 km/h (0 Bft) 100 %
14.11.2017 07:18 2,0 C 96 % 1022,4 hPa 0,0 l/m 0,0 km/h (0 Bft) W-SW 249 1,4 C 0,0 km/h (0 Bft) 100 %
14.11.2017 07:19 2,0 C 96 % 1022,4 hPa 0,0 l/m 0,0 km/h (0 Bft) W-SW 250 1,4 C 0,0 km/h (0 Bft) 100 %
14.11.2017 07:20 1,9 C 96 % 1022,4 hPa 0,0 l/m 0,0 km/h (0 Bft) W-SW 250 1,3 C 0,0 km/h (0 Bft) 100 %
14.11.2017 07:21 1,9 C 96 % 1022,4 hPa 0,0 l/m 0,0 km/h (0 Bft) W-SW 249 1,3 C 0,0 km/h (0 Bft) 100 %
14.11.2017 07:22 1,8 C 96 % 1022,4 hPa 0,0 l/m 0,0 km/h (0 Bft) W-SW 250 1,2 C 0,0 km/h (0 Bft) 100 %
14.11.2017 07:23 1,8 C 96 % 1022,4 hPa 0,0 l/m 0,1 km/h (0 Bft) S 175 1,2 C 3,1 km/h (1 Bft) 100 %
14.11.2017 07:24 1,8 C 96 % 1022,4 hPa 0,0 l/m 0,0 km/h (0 Bft) S 175 1,2 C 0,0 km/h (0 Bft) 100 %
14.11.2017 07:25 1,8 C 96 % 1022,4 hPa 0,0 l/m 0,0 km/h (0 Bft) S 175 1,2 C 0,0 km/h (0 Bft) 100 %
14.11.2017 07:26 1,8 C 96 % 1022,5 hPa 0,0 l/m 0,0 km/h (0 Bft) S 175 1,2 C 0,0 km/h (0 Bft) 100 %
14.11.2017 07:27 1,8 C 96 % 1022,5 hPa 0,0 l/m 0,0 km/h (0 Bft) S 175 1,2 C 0,0 km/h (0 Bft) 100 %
14.11.2017 07:28 1,8 C 96 % 1022,5 hPa 0,0 l/m 0,0 km/h (0 Bft) S 175 1,2 C 0,0 km/h (0 Bft) 100 %
14.11.2017 07:29 1,8 C 97 % 1022,5 hPa 0,0 l/m 0,7 km/h (0 Bft) W 274 1,4 C 3,1 km/h (1 Bft) 100 %
14.11.2017 07:30 1,8 C 97 % 1022,5 hPa 0,0 l/m 0,0 km/h (0 Bft) W 274 1,4 C 0,0 km/h (0 Bft) 100 %
14.11.2017 07:31 1,8 C 97 % 1022,5 hPa 0,0 l/m 0,0 km/h (0 Bft) W 274 1,4 C 0,0 km/h (0 Bft) 100 %
14.11.2017 07:32 1,8 C 97 % 1022,5 hPa 0,0 l/m 0,0 km/h (0 Bft) W 274 1,4 C 0,0 km/h (0 Bft) 100 %
14.11.2017 07:33 1,8 C 97 % 1022,5 hPa 0,0 l/m 1,6 km/h (1 Bft) W-NW 288 1,4 C 9,4 km/h (2 Bft) 100 %
14.11.2017 07:34 1,9 C 97 % 1022,5 hPa 0,0 l/m 0,1 km/h (0 Bft) W 262 1,5 C 3,1 km/h (1 Bft) 100 %
14.11.2017 07:35 1,9 C 97 % 1022,5 hPa 0,0 l/m 0,0 km/h (0 Bft) W 262 1,5 C 0,0 km/h (0 Bft) 100 %
14.11.2017 07:36 1,9 C 97 % 1022,6 hPa 0,0 l/m 0,0 km/h (0 Bft) W 262 1,5 C 0,0 km/h (0 Bft) 100 %
14.11.2017 07:37 1,9 C 97 % 1022,6 hPa 0,0 l/m 0,0 km/h (0 Bft) W 262 1,5 C 0,0 km/h (0 Bft) 100 %
14.11.2017 07:38 1,9 C 97 % 1022,6 hPa 0,0 l/m 0,0 km/h (0 Bft) W 262 1,5 C 0,0 km/h (0 Bft) 100 %
14.11.2017 07:39 1,9 C 97 % 1022,6 hPa 0,0 l/m 0,0 km/h (0 Bft) W 262 1,5 C 0,0 km/h (0 Bft) 100 %
14.11.2017 07:40 1,9 C 97 % 1022,6 hPa 0,0 l/m 0,1 km/h (0 Bft) W 262 1,5 C 3,1 km/h (1 Bft) 100 %
14.11.2017 07:41 1,9 C 97 % 1022,6 hPa 0,0 l/m 0,0 km/h (0 Bft) W 262 1,5 C 0,0 km/h (0 Bft) 100 %
14.11.2017 07:42 1,9 C 97 % 1022,6 hPa 0,0 l/m 0,1 km/h (0 Bft) W 262 1,5 C 3,1 km/h (1 Bft) 100 %
14.11.2017 07:43 1,9 C 97 % 1022,6 hPa 0,0 l/m 0,1 km/h (0 Bft) W 262 1,5 C 3,1 km/h (1 Bft) 100 %
14.11.2017 07:44 1,9 C 97 % 1022,6 hPa 0,0 l/m 0,0 km/h (0 Bft) W 262 1,5 C 0,0 km/h (0 Bft) 100 %
14.11.2017 07:45 1,9 C 97 % 1022,7 hPa 0,0 l/m 0,0 km/h (0 Bft) W 262 1,5 C 0,0 km/h (0 Bft) 100 %
14.11.2017 07:46 1,9 C 97 % 1022,7 hPa 0,0 l/m 0,0 km/h (0 Bft) W 262 1,5 C 0,0 km/h (0 Bft) 100 %
14.11.2017 07:48 1,9 C 97 % 1022,7 hPa 0,0 l/m 0,1 km/h (0 Bft) W 275 1,5 C 3,1 km/h (1 Bft) 100 %
14.11.2017 07:49 1,9 C 97 % 1022,7 hPa 0,0 l/m 0,0 km/h (0 Bft) W 264 1,5 C 0,0 km/h (0 Bft) 100 %
14.11.2017 07:50 2,0 C 97 % 1022,6 hPa 0,0 l/m 1,3 km/h (1 Bft) W-SW 254 1,6 C 3,1 km/h (1 Bft) 100 %
14.11.2017 07:51 2,0 C 97 % 1022,7 hPa 0,0 l/m 0,5 km/h (0 Bft) W-SW 254 1,6 C 3,1 km/h (1 Bft) 100 %
14.11.2017 07:52 2,0 C 97 % 1022,6 hPa 0,0 l/m 0,3 km/h (0 Bft) W-NW 296 1,6 C 3,1 km/h (1 Bft) 100 %
14.11.2017 07:53 2,1 C 97 % 1022,6 hPa 0,0 l/m 0,4 km/h (0 Bft) W-NW 296 1,7 C 3,1 km/h (1 Bft) 100 %
14.11.2017 07:54 2,1 C 97 % 1022,6 hPa 0,0 l/m 0,0 km/h (0 Bft) W-NW 296 1,7 C 0,0 km/h (0 Bft) 100 %
14.11.2017 07:55 2,1 C 97 % 1022,6 hPa 0,0 l/m 0,0 km/h (0 Bft) W-NW 296 1,7 C 0,0 km/h (0 Bft) 100 %
14.11.2017 07:56 2,1 C 97 % 1022,6 hPa 0,0 l/m 0,0 km/h (0 Bft) W-NW 296 1,7 C 0,0 km/h (0 Bft) 100 %
14.11.2017 07:57 2,1 C 97 % 1022,6 hPa 0,0 l/m 0,7 km/h (0 Bft) NW 313 1,7 C 3,1 km/h (1 Bft) 100 %
14.11.2017 07:58 2,1 C 97 % 1022,6 hPa 0,0 l/m 0,0 km/h (0 Bft) NW 307 1,7 C 0,0 km/h (0 Bft) 100 %
14.11.2017 07:59 2,1 C 97 % 1022,6 hPa 0,0 l/m 0,0 km/h (0 Bft) W-NW 298 1,7 C 0,0 km/h (0 Bft) 100 %
14.11.2017 08:00 2,1 C 97 % 1022,7 hPa 0,0 l/m 0,2 km/h (0 Bft) W-NW 299 1,7 C 3,1 km/h (1 Bft) 100 %
14.11.2017 08:01 2,1 C 97 % 1022,7 hPa 0,0 l/m 0,0 km/h (0 Bft) W-NW 299 1,7 C 0,0 km/h (0 Bft) 100 %
14.11.2017 08:02 2,0 C 97 % 1022,7 hPa 0,0 l/m 0,0 km/h (0 Bft) W-NW 299 1,6 C 0,0 km/h (0 Bft) 100 %
14.11.2017 08:03 2,0 C 97 % 1022,7 hPa 0,0 l/m 0,0 km/h (0 Bft) W-NW 299 1,6 C 0,0 km/h (0 Bft) 100 %
14.11.2017 08:04 2,0 C 97 % 1022,7 hPa 0,0 l/m 0,1 km/h (0 Bft) W 265 1,6 C 3,1 km/h (1 Bft) 100 %
14.11.2017 08:05 2,0 C 97 % 1022,8 hPa 0,0 l/m 1,0 km/h (0 Bft) NW 304 1,6 C 3,1 km/h (1 Bft) 100 %
14.11.2017 08:06 2,0 C 97 % 1022,8 hPa 0,0 l/m 0,0 km/h (0 Bft) NW 304 1,6 C 0,0 km/h (0 Bft) 100 %
14.11.2017 08:07 2,0 C 97 % 1022,8 hPa 0,0 l/m 0,0 km/h (0 Bft) NW 304 1,6 C 0,0 km/h (0 Bft) 100 %
14.11.2017 08:08 2,0 C 97 % 1022,8 hPa 0,0 l/m 0,0 km/h (0 Bft) NW 304 1,6 C 0,0 km/h (0 Bft) 100 %
14.11.2017 08:09 2,0 C 97 % 1022,8 hPa 0,0 l/m 0,0 km/h (0 Bft) NW 304 1,6 C 0,0 km/h (0 Bft) 100 %
14.11.2017 08:10 1,9 C 97 % 1022,8 hPa 0,0 l/m 0,0 km/h (0 Bft) NW 304 1,5 C 0,0 km/h (0 Bft) 100 %
14.11.2017 08:11 1,9 C 97 % 1022,8 hPa 0,0 l/m 0,0 km/h (0 Bft) NW 304 1,5 C 0,0 km/h (0 Bft) 100 %
14.11.2017 08:12 1,9 C 97 % 1022,8 hPa 0,0 l/m 0,0 km/h (0 Bft) NW 304 1,5 C 0,0 km/h (0 Bft) 100 %
14.11.2017 08:13 1,9 C 97 % 1022,8 hPa 0,0 l/m 0,0 km/h (0 Bft) NW 304 1,5 C 0,0 km/h (0 Bft) 100 %
14.11.2017 08:14 1,9 C 97 % 1022,8 hPa 0,0 l/m 0,0 km/h (0 Bft) NW 304 1,5 C 0,0 km/h (0 Bft) 100 %
14.11.2017 08:15 1,9 C 97 % 1022,8 hPa 0,0 l/m 0,0 km/h (0 Bft) NW 304 1,5 C 0,0 km/h (0 Bft) 100 %
14.11.2017 08:16 1,9 C 97 % 1022,8 hPa 0,0 l/m 0,4 km/h (0 Bft) O-NO 65 1,5 C 3,1 km/h (1 Bft) 100 %
14.11.2017 08:17 1,9 C 97 % 1022,8 hPa 0,0 l/m 0,1 km/h (0 Bft) O-NO 65 1,5 C 3,1 km/h (1 Bft) 100 %
14.11.2017 08:18 1,9 C 97 % 1022,8 hPa 0,0 l/m 0,0 km/h (0 Bft) O-NO 65 1,5 C 0,0 km/h (0 Bft) 100 %
14.11.2017 08:19 1,9 C 97 % 1022,8 hPa 0,0 l/m 0,0 km/h (0 Bft) O-NO 65 1,5 C 0,0 km/h (0 Bft) 100 %
14.11.2017 08:20 1,9 C 97 % 1022,8 hPa 0,0 l/m 0,0 km/h (0 Bft) O-NO 65 1,5 C 0,0 km/h (0 Bft) 96 %
14.11.2017 08:21 1,8 C 97 % 1022,8 hPa 0,0 l/m 0,0 km/h (0 Bft) O-NO 65 1,4 C 0,0 km/h (0 Bft) 100 %
14.11.2017 08:22 1,9 C 97 % 1022,9 hPa 0,0 l/m 0,0 km/h (0 Bft) O-NO 65 1,5 C 0,0 km/h (0 Bft) 100 %
14.11.2017 08:23 1,8 C 97 % 1022,9 hPa 0,0 l/m 0,0 km/h (0 Bft) O-NO 65 1,4 C 0,0 km/h (0 Bft) 100 %
14.11.2017 08:24 1,9 C 97 % 1022,9 hPa 0,0 l/m 0,0 km/h (0 Bft) O-NO 65 1,5 C 0,0 km/h (0 Bft) 100 %
14.11.2017 08:25 1,9 C 97 % 1022,8 hPa 0,0 l/m 0,0 km/h (0 Bft) O-NO 65 1,5 C 0,0 km/h (0 Bft) 100 %
14.11.2017 08:26 1,9 C 97 % 1022,8 hPa 0,0 l/m 0,0 km/h (0 Bft) O-NO 65 1,5 C 0,0 km/h (0 Bft) 100 %
14.11.2017 08:27 1,8 C 97 % 1022,8 hPa 0,0 l/m 0,6 km/h (0 Bft) W-SW 241 1,4 C 3,1 km/h (1 Bft) 100 %
14.11.2017 08:28 1,9 C 97 % 1022,9 hPa 0,0 l/m 1,4 km/h (1 Bft) SW 235 1,5 C 6,3 km/h (2 Bft) 100 %
14.11.2017 08:29 1,9 C 97 % 1022,9 hPa 0,0 l/m 0,0 km/h (0 Bft) SW 234 1,5 C 0,0 km/h (0 Bft) 100 %
14.11.2017 08:30 1,9 C 97 % 1023,0 hPa 0,0 l/m 0,0 km/h (0 Bft) SW 234 1,5 C 0,0 km/h (0 Bft) 100 %
14.11.2017 08:31 1,9 C 97 % 1023,0 hPa 0,0 l/m 0,0 km/h (0 Bft) SW 234 1,5 C 0,0 km/h (0 Bft) 100 %
14.11.2017 08:32 1,9 C 97 % 1023,0 hPa 0,0 l/m 0,0 km/h (0 Bft) W-SW 240 1,5 C 0,0 km/h (0 Bft) 100 %
14.11.2017 08:33 1,9 C 97 % 1022,9 hPa 0,0 l/m 0,4 km/h (0 Bft) W-SW 257 1,5 C 3,1 km/h (1 Bft) 100 %
14.11.2017 08:34 1,9 C 97 % 1022,9 hPa 0,0 l/m 0,0 km/h (0 Bft) SW 219 1,5 C 0,0 km/h (0 Bft) 100 %
14.11.2017 08:35 1,9 C 97 % 1023,0 hPa 0,0 l/m 0,1 km/h (0 Bft) W-NW 289 1,5 C 3,1 km/h (1 Bft) 100 %
14.11.2017 08:36 2,0 C 97 % 1023,0 hPa 0,0 l/m 0,0 km/h (0 Bft) W-NW 289 1,6 C 0,0 km/h (0 Bft) 100 %
14.11.2017 08:37 2,0 C 97 % 1023,0 hPa 0,0 l/m 0,0 km/h (0 Bft) W-NW 289 1,6 C 0,0 km/h (0 Bft) 100 %
14.11.2017 08:38 2,0 C 97 % 1023,0 hPa 0,0 l/m 0,0 km/h (0 Bft) W 281 1,6 C 0,0 km/h (0 Bft) 100 %
14.11.2017 08:39 2,0 C 97 % 1023,0 hPa 0,0 l/m 0,0 km/h (0 Bft) W 281 1,6 C 0,0 km/h (0 Bft) 100 %
14.11.2017 08:40 2,0 C 97 % 1023,0 hPa 0,0 l/m 0,0 km/h (0 Bft) W-SW 245 1,6 C 0,0 km/h (0 Bft) 100 %
14.11.2017 08:41 2,1 C 97 % 1023,0 hPa 0,0 l/m 0,0 km/h (0 Bft) W-SW 245 1,7 C 0,0 km/h (0 Bft) 100 %
14.11.2017 08:42 2,1 C 97 % 1023,0 hPa 0,0 l/m 0,1 km/h (0 Bft) S-SW 212 1,7 C 3,1 km/h (1 Bft) 100 %
14.11.2017 08:43 2,1 C 97 % 1023,0 hPa 0,0 l/m 0,9 km/h (0 Bft) SW 228 1,7 C 3,1 km/h (1 Bft) 100 %
14.11.2017 08:44 2,1 C 97 % 1022,9 hPa 0,0 l/m 0,0 km/h (0 Bft) SW 231 1,7 C 0,0 km/h (0 Bft) 100 %
14.11.2017 08:45 2,1 C 97 % 1023,0 hPa 0,0 l/m 0,0 km/h (0 Bft) SW 231 1,7 C 0,0 km/h (0 Bft) 100 %
14.11.2017 08:46 2,2 C 97 % 1023,0 hPa 0,0 l/m 0,2 km/h (0 Bft) W-SW 250 1,8 C 3,1 km/h (1 Bft) 100 %
14.11.2017 08:47 2,2 C 97 % 1023,0 hPa 0,0 l/m 0,0 km/h (0 Bft) W-SW 250 1,8 C 0,0 km/h (0 Bft) 100 %
14.11.2017 08:48 2,2 C 97 % 1023,1 hPa 0,0 l/m 0,0 km/h (0 Bft) W-SW 250 1,8 C 0,0 km/h (0 Bft) 100 %
14.11.2017 08:49 2,2 C 97 % 1023,0 hPa 0,0 l/m 0,0 km/h (0 Bft) W-SW 250 1,8 C 0,0 km/h (0 Bft) 100 %
14.11.2017 08:50 2,2 C 97 % 1023,0 hPa 0,0 l/m 0,0 km/h (0 Bft) O-NO 72 1,8 C 0,0 km/h (0 Bft) 100 %
14.11.2017 08:51 2,2 C 97 % 1023,1 hPa 0,0 l/m 0,4 km/h (0 Bft) W-NW 291 1,8 C 3,1 km/h (1 Bft) 100 %
14.11.2017 08:52 2,2 C 97 % 1023,1 hPa 0,0 l/m 1,0 km/h (0 Bft) W 265 1,8 C 3,1 km/h (1 Bft) 100 %
14.11.2017 08:53 2,2 C 97 % 1023,1 hPa 0,0 l/m 0,4 km/h (0 Bft) W 259 1,8 C 3,1 km/h (1 Bft) 100 %
14.11.2017 08:54 2,2 C 97 % 1023,1 hPa 0,0 l/m 0,1 km/h (0 Bft) W-NW 294 1,8 C 3,1 km/h (1 Bft) 100 %
14.11.2017 08:55 2,2 C 97 % 1023,1 hPa 0,0 l/m 1,7 km/h (1 Bft) W-SW 243 1,8 C 6,3 km/h (2 Bft) 100 %
14.11.2017 08:56 2,3 C 97 % 1023,2 hPa 0,0 l/m 0,0 km/h (0 Bft) W-SW 243 1,9 C 0,0 km/h (0 Bft) 100 %
14.11.2017 08:57 2,3 C 97 % 1023,2 hPa 0,0 l/m 1,2 km/h (1 Bft) SW 234 1,9 C 6,3 km/h (2 Bft) 100 %
14.11.2017 08:58 2,3 C 97 % 1023,2 hPa 0,0 l/m 3,3 km/h (1 Bft) W 263 1,9 C 6,3 km/h (2 Bft) 100 %
14.11.2017 08:59 2,3 C 97 % 1023,2 hPa 0,0 l/m 0,3 km/h (0 Bft) N-NW 336 1,9 C 3,1 km/h (1 Bft) 100 %
14.11.2017 09:00 2,3 C 97 % 1023,2 hPa 0,0 l/m 1,9 km/h (1 Bft) N-NO 32 1,9 C 6,3 km/h (2 Bft) 100 %
14.11.2017 09:01 2,3 C 97 % 1023,2 hPa 0,0 l/m 0,1 km/h (0 Bft) S-SO 160 1,9 C 3,1 km/h (1 Bft) 100 %
14.11.2017 09:02 2,4 C 97 % 1023,3 hPa 0,0 l/m 2,7 km/h (1 Bft) W-NW 297 2,0 C 6,3 km/h (2 Bft) 100 %
14.11.2017 09:03 2,4 C 97 % 1023,3 hPa 0,0 l/m 5,3 km/h (1 Bft) W-SW 257 2,0 C 9,4 km/h (2 Bft) 100 %
14.11.2017 09:04 2,4 C 97 % 1023,3 hPa 0,0 l/m 0,8 km/h (0 Bft) SW 234 2,0 C 6,3 km/h (2 Bft) 100 %
14.11.2017 09:05 2,4 C 97 % 1023,3 hPa 0,0 l/m 1,1 km/h (1 Bft) S-SO 165 2,0 C 6,3 km/h (2 Bft) 100 %
14.11.2017 09:06 2,4 C 96 % 1023,4 hPa 0,0 l/m 2,5 km/h (1 Bft) W-NW 282 1,8 C 12,6 km/h (3 Bft) 100 %
14.11.2017 09:07 2,4 C 96 % 1023,4 hPa 0,0 l/m 4,3 km/h (1 Bft) W 263 1,8 C 9,4 km/h (2 Bft) 100 %
14.11.2017 09:08 2,5 C 96 % 1023,4 hPa 0,0 l/m 1,4 km/h (1 Bft) SW 228 1,9 C 12,6 km/h (3 Bft) 100 %
14.11.2017 09:09 2,5 C 96 % 1023,5 hPa 0,0 l/m 4,6 km/h (1 Bft) W-SW 248 1,9 C 9,4 km/h (2 Bft) 100 %
14.11.2017 09:10 2,6 C 96 % 1023,5 hPa 0,0 l/m 0,3 km/h (0 Bft) W 276 2,0 C 3,1 km/h (1 Bft) 100 %
14.11.2017 09:11 2,6 C 96 % 1023,5 hPa 0,0 l/m 1,7 km/h (1 Bft) W 279 2,0 C 6,3 km/h (2 Bft) 100 %
14.11.2017 09:12 2,6 C 96 % 1023,6 hPa 0,0 l/m 3,9 km/h (1 Bft) W-NW 282 2,0 C 6,3 km/h (2 Bft) 100 %
14.11.2017 09:13 2,6 C 96 % 1023,6 hPa 0,0 l/m 1,3 km/h (1 Bft) W-SW 244 2,0 C 6,3 km/h (2 Bft) 100 %
14.11.2017 09:14 2,7 C 96 % 1023,5 hPa 0,0 l/m 0,4 km/h (0 Bft) W-SW 258 2,1 C 3,1 km/h (1 Bft) 100 %
14.11.2017 09:15 2,7 C 96 % 1023,5 hPa 0,0 l/m 3,0 km/h (1 Bft) SW 224 2,1 C 6,3 km/h (2 Bft) 100 %
14.11.2017 09:16 2,7 C 96 % 1023,6 hPa 0,0 l/m 2,0 km/h (1 Bft) W-SW 247 2,1 C 6,3 km/h (2 Bft) 100 %
14.11.2017 09:17 2,7 C 96 % 1023,6 hPa 0,0 l/m 0,5 km/h (0 Bft) SW 234 2,1 C 3,1 km/h (1 Bft) 100 %
14.11.2017 09:18 2,8 C 95 % 1023,6 hPa 0,0 l/m 0,0 km/h (0 Bft) SW 234 2,1 C 0,0 km/h (0 Bft) 100 %
14.11.2017 09:19 2,8 C 95 % 1023,5 hPa 0,0 l/m 3,4 km/h (1 Bft) SW 224 2,1 C 6,3 km/h (2 Bft) 100 %
14.11.2017 09:20 2,8 C 95 % 1023,6 hPa 0,0 l/m 1,8 km/h (1 Bft) S-SW 210 2,1 C 6,3 km/h (2 Bft) 100 %
14.11.2017 09:21 2,8 C 95 % 1023,6 hPa 0,0 l/m 0,1 km/h (0 Bft) S-SW 210 2,1 C 3,1 km/h (1 Bft) 100 %
14.11.2017 09:22 2,9 C 95 % 1023,5 hPa 0,0 l/m 0,4 km/h (0 Bft) W-SW 255 2,2 C 6,3 km/h (2 Bft) 100 %
14.11.2017 09:23 2,9 C 95 % 1023,5 hPa 0,0 l/m 1,3 km/h (1 Bft) SW 222 2,2 C 6,3 km/h (2 Bft) 100 %
14.11.2017 09:24 2,9 C 95 % 1023,5 hPa 0,0 l/m 1,4 km/h (1 Bft) W-SW 258 2,2 C 6,3 km/h (2 Bft) 100 %
14.11.2017 09:32 3,1 C 94 % 1023,5 hPa 0,0 l/m 1,3 km/h (1 Bft) W-SW 238 2,2 C 6,3 km/h (2 Bft) 100 %
14.11.2017 09:33 3,1 C 94 % 1023,4 hPa 0,0 l/m 2,1 km/h (1 Bft) NW 304 2,2 C 6,3 km/h (2 Bft) 100 %
14.11.2017 09:34 3,1 C 94 % 1023,4 hPa 0,0 l/m 0,6 km/h (0 Bft) W-NW 303 2,2 C 3,1 km/h (1 Bft) 100 %
14.11.2017 09:35 3,2 C 94 % 1023,4 hPa 0,0 l/m 1,8 km/h (1 Bft) W 270 2,3 C 6,3 km/h (2 Bft) 100 %
14.11.2017 09:36 3,2 C 94 % 1023,4 hPa 0,0 l/m 0,0 km/h (0 Bft) W 269 2,3 C 0,0 km/h (0 Bft) 100 %
14.11.2017 09:37 3,2 C 94 % 1023,4 hPa 0,0 l/m 0,1 km/h (0 Bft) W 262 2,3 C 3,1 km/h (1 Bft) 100 %
14.11.2017 09:38 3,2 C 94 % 1023,4 hPa 0,0 l/m 0,7 km/h (0 Bft) N-NW 338 2,3 C 6,3 km/h (2 Bft) 100 %
14.11.2017 09:39 3,2 C 94 % 1023,4 hPa 0,0 l/m 0,3 km/h (0 Bft) S-SW 206 2,3 C 3,1 km/h (1 Bft) 100 %
14.11.2017 09:40 3,2 C 94 % 1023,4 hPa 0,0 l/m 2,1 km/h (1 Bft) W-SW 253 2,3 C 6,3 km/h (2 Bft) 100 %
14.11.2017 09:41 3,3 C 94 % 1023,3 hPa 0,0 l/m 0,5 km/h (0 Bft) W-SW 257 2,4 C 3,1 km/h (1 Bft) 100 %
14.11.2017 09:42 3,3 C 94 % 1023,3 hPa 0,0 l/m 0,1 km/h (0 Bft) S 180 2,4 C 3,1 km/h (1 Bft) 100 %
14.11.2017 09:43 3,3 C 94 % 1023,3 hPa 0,0 l/m 3,1 km/h (1 Bft) W-SW 244 2,4 C 9,4 km/h (2 Bft) 100 %
14.11.2017 09:44 3,3 C 94 % 1023,3 hPa 0,0 l/m 0,7 km/h (0 Bft) W 262 2,4 C 6,3 km/h (2 Bft) 100 %
14.11.2017 09:45 3,3 C 94 % 1023,2 hPa 0,0 l/m 0,2 km/h (0 Bft) W 262 2,4 C 3,1 km/h (1 Bft) 100 %
14.11.2017 09:46 3,3 C 94 % 1023,2 hPa 0,0 l/m 0,0 km/h (0 Bft) NO 52 2,4 C 0,0 km/h (0 Bft) 100 %
14.11.2017 09:47 3,4 C 94 % 1023,1 hPa 0,0 l/m 0,3 km/h (0 Bft) S-SW 195 2,5 C 3,1 km/h (1 Bft) 100 %
14.11.2017 09:48 3,4 C 94 % 1023,2 hPa 0,0 l/m 0,3 km/h (0 Bft) W 265 2,5 C 3,1 km/h (1 Bft) 100 %
14.11.2017 09:49 3,4 C 94 % 1023,2 hPa 0,0 l/m 1,0 km/h (0 Bft) SW 218 2,5 C 6,3 km/h (2 Bft) 100 %
14.11.2017 09:50 3,4 C 94 % 1023,2 hPa 0,0 l/m 0,0 km/h (0 Bft) SW 218 2,5 C 0,0 km/h (0 Bft) 92 %
14.11.2017 09:51 3,4 C 94 % 1023,1 hPa 0,0 l/m 0,5 km/h (0 Bft) O 89 2,5 C 3,1 km/h (1 Bft) 100 %
14.11.2017 09:52 3,5 C 94 % 1023,1 hPa 0,0 l/m 0,0 km/h (0 Bft) S-SW 195 2,6 C 0,0 km/h (0 Bft) 100 %
14.11.2017 09:53 3,5 C 94 % 1023,2 hPa 0,0 l/m 0,9 km/h (0 Bft) W-SW 251 2,6 C 3,1 km/h (1 Bft) 100 %
14.11.2017 09:54 3,5 C 93 % 1023,2 hPa 0,0 l/m 4,1 km/h (1 Bft) SW 219 2,5 C 6,3 km/h (2 Bft) 92 %
14.11.2017 09:55 3,6 C 93 % 1023,2 hPa 0,0 l/m 1,5 km/h (1 Bft) SW 225 2,6 C 6,3 km/h (2 Bft) 100 %
14.11.2017 09:56 3,6 C 93 % 1023,2 hPa 0,0 l/m 3,0 km/h (1 Bft) W 278 2,6 C 9,4 km/h (2 Bft) 100 %
14.11.2017 09:57 3,6 C 93 % 1023,2 hPa 0,0 l/m 2,1 km/h (1 Bft) SW 231 2,6 C 6,3 km/h (2 Bft) 100 %
14.11.2017 09:58 3,6 C 93 % 1023,1 hPa 0,0 l/m 0,7 km/h (0 Bft) SW 232 2,6 C 3,1 km/h (1 Bft) 96 %
14.11.2017 09:59 3,6 C 93 % 1023,1 hPa 0,0 l/m 2,9 km/h (1 Bft) W 276 2,6 C 9,4 km/h (2 Bft) 96 %
14.11.2017 10:00 3,6 C 93 % 1023,2 hPa 0,0 l/m 0,7 km/h (0 Bft) W 274 2,6 C 3,1 km/h (1 Bft) 100 %
14.11.2017 10:01 3,6 C 93 % 1023,2 hPa 0,0 l/m 3,7 km/h (1 Bft) SW 226 2,6 C 9,4 km/h (2 Bft) 100 %
14.11.2017 10:02 3,7 C 93 % 1023,2 hPa 0,0 l/m 1,5 km/h (1 Bft) W 266 2,7 C 6,3 km/h (2 Bft) 96 %
14.11.2017 10:03 3,7 C 93 % 1023,1 hPa 0,0 l/m 0,2 km/h (0 Bft) W 266 2,7 C 3,1 km/h (1 Bft) 100 %
14.11.2017 10:04 3,7 C 93 % 1023,1 hPa 0,0 l/m 1,9 km/h (1 Bft) O-SO 117 2,7 C 6,3 km/h (2 Bft) 100 %
14.11.2017 10:05 3,8 C 93 % 1023,1 hPa 0,0 l/m 2,0 km/h (1 Bft) W-SW 239 2,8 C 6,3 km/h (2 Bft) 100 %
14.11.2017 10:06 3,8 C 93 % 1023,2 hPa 0,0 l/m 0,1 km/h (0 Bft) W-SW 244 2,8 C 3,1 km/h (1 Bft) 100 %
14.11.2017 10:07 3,8 C 93 % 1023,2 hPa 0,0 l/m 0,4 km/h (0 Bft) N 354 2,8 C 3,1 km/h (1 Bft) 96 %
14.11.2017 10:08 3,8 C 93 % 1023,2 hPa 0,0 l/m 0,4 km/h (0 Bft) SW 226 2,8 C 3,1 km/h (1 Bft) 100 %
14.11.2017 10:09 3,9 C 93 % 1023,2 hPa 0,0 l/m 1,0 km/h (0 Bft) W 272 2,9 C 3,1 km/h (1 Bft) 100 %
14.11.2017 10:10 3,9 C 93 % 1023,2 hPa 0,0 l/m 0,4 km/h (0 Bft) SW 217 2,9 C 3,1 km/h (1 Bft) 100 %
14.11.2017 10:11 4,1 C 93 % 1023,1 hPa 0,0 l/m 0,6 km/h (0 Bft) S-SW 209 3,1 C 6,3 km/h (2 Bft) 96 %
14.11.2017 10:12 4,1 C 93 % 1023,1 hPa 0,0 l/m 0,0 km/h (0 Bft) S-SW 208 3,1 C 0,0 km/h (0 Bft) 96 %
14.11.2017 10:13 4,2 C 93 % 1023,1 hPa 0,0 l/m 0,6 km/h (0 Bft) SW 214 3,2 C 6,3 km/h (2 Bft) 100 %
14.11.2017 10:14 4,2 C 93 % 1023,1 hPa 0,0 l/m 2,4 km/h (1 Bft) W-SW 250 3,2 C 6,3 km/h (2 Bft) 96 %
14.11.2017 10:15 4,3 C 93 % 1023,1 hPa 0,0 l/m 5,2 km/h (1 Bft) W-SW 248 3,3 C 9,4 km/h (2 Bft) 100 %
14.11.2017 10:16 4,3 C 92 % 1023,1 hPa 0,0 l/m 3,5 km/h (1 Bft) S-SW 204 3,1 C 9,4 km/h (2 Bft) 93 %
14.11.2017 10:17 4,4 C 92 % 1023,1 hPa 0,0 l/m 1,6 km/h (1 Bft) W-SW 240 3,2 C 3,1 km/h (1 Bft) 100 %
14.11.2017 10:18 4,4 C 92 % 1023,1 hPa 0,0 l/m 2,6 km/h (1 Bft) W-NW 294 3,2 C 3,1 km/h (1 Bft) 96 %
14.11.2017 10:19 4,5 C 92 % 1023,1 hPa 0,0 l/m 0,0 km/h (0 Bft) S-SW 198 3,3 C 0,0 km/h (0 Bft) 97 %
14.11.2017 10:20 4,6 C 92 % 1023,1 hPa 0,0 l/m 0,0 km/h (0 Bft) SW 222 3,4 C 0,0 km/h (0 Bft) 100 %
14.11.2017 10:22 4,7 C 92 % 1023,1 hPa 0,0 l/m 3,3 km/h (1 Bft) SW 226 3,5 C 9,4 km/h (2 Bft) 98 %
14.11.2017 10:23 4,8 C 91 % 1023,2 hPa 0,0 l/m 6,3 km/h (2 Bft) W-SW 250 3,5 C 9,4 km/h (2 Bft) 95 %
14.11.2017 10:24 4,8 C 91 % 1023,2 hPa 0,0 l/m 0,8 km/h (0 Bft) SW 229 3,5 C 6,3 km/h (2 Bft) 100 %
14.11.2017 10:25 4,9 C 91 % 1023,1 hPa 0,0 l/m 0,1 km/h (0 Bft) W-SW 258 3,6 C 3,1 km/h (1 Bft) 96 %
14.11.2017 10:27 5,1 C 91 % 1023,2 hPa 0,0 l/m 0,5 km/h (0 Bft) N-NO 32 3,8 C 3,1 km/h (1 Bft) 97 %
14.11.2017 10:28 5,1 C 91 % 1023,2 hPa 0,0 l/m 0,1 km/h (0 Bft) SW 224 3,8 C 3,1 km/h (1 Bft) 96 %
14.11.2017 10:29 5,2 C 91 % 1023,3 hPa 0,0 l/m 5,0 km/h (1 Bft) SW 221 3,9 C 12,6 km/h (3 Bft) 100 %
14.11.2017 10:30 5,2 C 90 % 1023,3 hPa 0,0 l/m 1,9 km/h (1 Bft) W 264 3,7 C 6,3 km/h (2 Bft) 96 %
14.11.2017 10:31 5,2 C 89 % 1023,3 hPa 0,0 l/m 1,6 km/h (1 Bft) W-SW 248 3,5 C 3,1 km/h (1 Bft) 100 %
14.11.2017 10:32 5,3 C 89 % 1023,3 hPa 0,0 l/m 1,7 km/h (1 Bft) W-SW 250 3,6 C 6,3 km/h (2 Bft) 96 %
14.11.2017 10:33 5,3 C 89 % 1023,3 hPa 0,0 l/m 3,6 km/h (1 Bft) W-NW 294 3,6 C 6,3 km/h (2 Bft) 100 %
14.11.2017 10:34 5,3 C 89 % 1023,3 hPa 0,0 l/m 4,6 km/h (1 Bft) SW 231 3,6 C 9,4 km/h (2 Bft) 96 %
14.11.2017 10:35 5,4 C 88 % 1023,2 hPa 0,0 l/m 2,9 km/h (1 Bft) SW 224 3,6 C 9,4 km/h (2 Bft) 96 %
14.11.2017 10:36 5,4 C 88 % 1023,2 hPa 0,0 l/m 5,6 km/h (1 Bft) SW 229 3,6 C 9,4 km/h (2 Bft) 100 %
14.11.2017 10:37 5,4 C 88 % 1023,2 hPa 0,0 l/m 5,8 km/h (2 Bft) W 272 3,6 C 9,4 km/h (2 Bft) 96 %
14.11.2017 10:38 5,4 C 88 % 1023,2 hPa 0,0 l/m 0,1 km/h (0 Bft) W-NW 283 3,6 C 3,1 km/h (1 Bft) 100 %
14.11.2017 10:39 5,5 C 89 % 1023,2 hPa 0,0 l/m 0,6 km/h (0 Bft) SW 217 3,8 C 3,1 km/h (1 Bft) 92 %
14.11.2017 10:40 5,6 C 88 % 1023,2 hPa 0,0 l/m 3,5 km/h (1 Bft) S-SW 205 3,8 C 9,4 km/h (2 Bft) 100 %
14.11.2017 10:41 5,6 C 88 % 1023,2 hPa 0,0 l/m 0,0 km/h (0 Bft) S-SW 205 3,8 C 0,0 km/h (0 Bft) 96 %
14.11.2017 10:42 5,6 C 88 % 1023,2 hPa 0,0 l/m 4,7 km/h (1 Bft) W-SW 238 3,8 C 9,4 km/h (2 Bft) 100 %
14.11.2017 10:43 5,6 C 88 % 1023,2 hPa 0,0 l/m 1,7 km/h (1 Bft) SW 236 3,8 C 9,4 km/h (2 Bft) 96 %
14.11.2017 10:44 5,6 C 88 % 1023,2 hPa 0,0 l/m 2,2 km/h (1 Bft) W-NW 296 3,8 C 6,3 km/h (2 Bft) 100 %
14.11.2017 10:45 5,7 C 88 % 1023,2 hPa 0,0 l/m 0,5 km/h (0 Bft) W-NW 285 3,9 C 3,1 km/h (1 Bft) 100 %
14.11.2017 10:46 5,7 C 88 % 1023,3 hPa 0,0 l/m 0,2 km/h (0 Bft) O-SO 123 3,9 C 3,1 km/h (1 Bft) 100 %
14.11.2017 10:47 5,7 C 88 % 1023,2 hPa 0,0 l/m 0,9 km/h (0 Bft) SW 219 3,9 C 3,1 km/h (1 Bft) 100 %
14.11.2017 10:48 5,7 C 88 % 1023,2 hPa 0,0 l/m 2,8 km/h (1 Bft) W-NW 296 3,9 C 6,3 km/h (2 Bft) 100 %
14.11.2017 10:49 5,7 C 88 % 1023,3 hPa 0,0 l/m 1,3 km/h (1 Bft) SW 223 3,9 C 9,4 km/h (2 Bft) 100 %
14.11.2017 10:50 5,8 C 87 % 1023,2 hPa 0,0 l/m 1,4 km/h (1 Bft) N 8 3,8 C 9,4 km/h (2 Bft) 100 %
14.11.2017 10:51 5,8 C 88 % 1023,3 hPa 0,0 l/m 1,6 km/h (1 Bft) SW 224 4,0 C 6,3 km/h (2 Bft) 100 %
14.11.2017 10:52 5,8 C 87 % 1023,3 hPa 0,0 l/m 7,0 km/h (2 Bft) SW 226 3,8 C 12,6 km/h (3 Bft) 99 %
14.11.2017 10:53 5,8 C 87 % 1023,3 hPa 0,0 l/m 2,5 km/h (1 Bft) NW 308 3,8 C 3,1 km/h (1 Bft) 100 %
14.11.2017 10:54 5,8 C 87 % 1023,3 hPa 0,0 l/m 1,6 km/h (1 Bft) W-SW 248 3,8 C 3,1 km/h (1 Bft) 100 %
14.11.2017 10:55 5,8 C 87 % 1023,3 hPa 0,0 l/m 3,3 km/h (1 Bft) W-NW 293 3,8 C 6,3 km/h (2 Bft) 100 %
14.11.2017 10:56 5,8 C 87 % 1023,3 hPa 0,0 l/m 2,2 km/h (1 Bft) SW 236 3,8 C 6,3 km/h (2 Bft) 100 %
14.11.2017 10:57 5,8 C 87 % 1023,3 hPa 0,0 l/m 0,4 km/h (0 Bft) W-SW 246 3,8 C 3,1 km/h (1 Bft) 100 %
14.11.2017 10:58 5,8 C 87 % 1023,3 hPa 0,0 l/m 4,6 km/h (1 Bft) NW 305 3,8 C 6,3 km/h (2 Bft) 100 %
14.11.2017 10:59 5,9 C 87 % 1023,3 hPa 0,0 l/m 2,9 km/h (1 Bft) SW 227 3,9 C 6,3 km/h (2 Bft) 100 %
14.11.2017 11:00 5,8 C 86 % 1023,3 hPa 0,0 l/m 7,5 km/h (2 Bft) W-NW 282 3,6 C 22,0 km/h (4 Bft) 100 %
14.11.2017 11:01 5,9 C 87 % 1023,3 hPa 0,0 l/m 5,8 km/h (2 Bft) W-NW 293 3,9 C 12,6 km/h (3 Bft) 100 %
14.11.2017 11:02 5,9 C 87 % 1023,3 hPa 0,0 l/m 2,9 km/h (1 Bft) S-SW 203 3,9 C 6,3 km/h (2 Bft) 100 %
14.11.2017 11:03 5,9 C 86 % 1023,3 hPa 0,0 l/m 4,9 km/h (1 Bft) W-SW 238 3,7 C 12,6 km/h (3 Bft) 100 %
14.11.2017 11:04 5,9 C 87 % 1023,2 hPa 0,0 l/m 0,5 km/h (0 Bft) S-SW 200 3,9 C 6,3 km/h (2 Bft) 100 %
14.11.2017 11:05 5,9 C 87 % 1023,2 hPa 0,0 l/m 2,2 km/h (1 Bft) S 184 3,9 C 9,4 km/h (2 Bft) 100 %
14.11.2017 11:06 5,9 C 87 % 1023,2 hPa 0,0 l/m 3,7 km/h (1 Bft) SW 231 3,9 C 9,4 km/h (2 Bft) 100 %
14.11.2017 11:07 6,0 C 87 % 1023,3 hPa 0,0 l/m 2,7 km/h (1 Bft) SW 218 4,0 C 9,4 km/h (2 Bft) 100 %
14.11.2017 11:08 6,0 C 86 % 1023,2 hPa 0,0 l/m 3,9 km/h (1 Bft) N-NW 329 3,8 C 9,4 km/h (2 Bft) 100 %
14.11.2017 11:09 6,1 C 86 % 1023,2 hPa 0,0 l/m 0,3 km/h (0 Bft) SW 218 3,9 C 3,1 km/h (1 Bft) 100 %
14.11.2017 11:10 6,1 C 87 % 1023,3 hPa 0,0 l/m 0,1 km/h (0 Bft) W 269 4,1 C 3,1 km/h (1 Bft) 100 %
14.11.2017 11:11 6,1 C 87 % 1023,3 hPa 0,0 l/m 4,9 km/h (1 Bft) S-SO 156 4,1 C 12,6 km/h (3 Bft) 100 %
14.11.2017 11:12 6,1 C 86 % 1023,3 hPa 0,0 l/m 2,1 km/h (1 Bft) S-SW 206 3,9 C 9,4 km/h (2 Bft) 100 %
14.11.2017 11:13 6,2 C 86 % 1023,3 hPa 0,0 l/m 1,9 km/h (1 Bft) NW 311 4,0 C 6,3 km/h (2 Bft) 100 %
14.11.2017 11:14 6,2 C 86 % 1023,3 hPa 0,0 l/m 7,5 km/h (2 Bft) NW 305 4,0 C 12,6 km/h (3 Bft) 100 %
14.11.2017 11:15 6,2 C 86 % 1023,3 hPa 0,0 l/m 5,7 km/h (1 Bft) W-SW 237 4,0 C 12,6 km/h (3 Bft) 100 %
14.11.2017 11:16 6,2 C 85 % 1023,3 hPa 0,0 l/m 6,1 km/h (2 Bft) W-NW 289 3,9 C 12,6 km/h (3 Bft) 100 %
14.11.2017 11:17 6,2 C 85 % 1023,2 hPa 0,0 l/m 5,0 km/h (1 Bft) W-SW 240 3,9 C 9,4 km/h (2 Bft) 100 %
14.11.2017 11:18 6,2 C 85 % 1023,2 hPa 0,0 l/m 5,5 km/h (1 Bft) W-SW 257 3,9 C 12,6 km/h (3 Bft) 100 %
14.11.2017 11:19 6,2 C 85 % 1023,2 hPa 0,0 l/m 4,2 km/h (1 Bft) W 264 3,9 C 9,4 km/h (2 Bft) 100 %
14.11.2017 11:20 6,2 C 85 % 1023,2 hPa 0,0 l/m 3,8 km/h (1 Bft) W-SW 256 3,9 C 12,6 km/h (3 Bft) 100 %
14.11.2017 11:21 6,2 C 85 % 1023,3 hPa 0,0 l/m 5,1 km/h (1 Bft) W-SW 243 3,9 C 9,4 km/h (2 Bft) 100 %
14.11.2017 11:22 6,2 C 85 % 1023,3 hPa 0,0 l/m 6,6 km/h (2 Bft) W 273 3,9 C 12,6 km/h (3 Bft) 100 %
14.11.2017 11:23 6,2 C 85 % 1023,3 hPa 0,0 l/m 5,2 km/h (1 Bft) W-SW 247 3,9 C 15,7 km/h (3 Bft) 100 %
14.11.2017 11:24 6,2 C 85 % 1023,3 hPa 0,0 l/m 8,6 km/h (2 Bft) W-SW 239 3,9 C 12,6 km/h (3 Bft) 100 %
14.11.2017 11:25 6,2 C 85 % 1023,3 hPa 0,0 l/m 5,4 km/h (1 Bft) W-SW 238 3,9 C 9,4 km/h (2 Bft) 100 %
14.11.2017 11:26 6,2 C 85 % 1023,3 hPa 0,0 l/m 2,2 km/h (1 Bft) SW 226 3,9 C 6,3 km/h (2 Bft) 100 %
14.11.2017 11:27 6,2 C 85 % 1023,4 hPa 0,0 l/m 3,5 km/h (1 Bft) S-SW 210 3,9 C 9,4 km/h (2 Bft) 100 %
14.11.2017 11:28 6,2 C 85 % 1023,3 hPa 0,0 l/m 3,9 km/h (1 Bft) W 260 3,9 C 9,4 km/h (2 Bft) 100 %
14.11.2017 11:29 6,3 C 85 % 1023,4 hPa 0,0 l/m 5,1 km/h (1 Bft) W-NW 300 4,0 C 15,7 km/h (3 Bft) 100 %
14.11.2017 11:30 6,3 C 85 % 1023,3 hPa 0,0 l/m 6,4 km/h (2 Bft) W-NW 296 4,0 C 12,6 km/h (3 Bft) 100 %
14.11.2017 11:31 6,3 C 85 % 1023,3 hPa 0,0 l/m 1,2 km/h (1 Bft) SW 233 4,0 C 3,1 km/h (1 Bft) 100 %
14.11.2017 11:32 6,3 C 85 % 1023,4 hPa 0,0 l/m 2,3 km/h (1 Bft) W-NW 301 4,0 C 6,3 km/h (2 Bft) 100 %
14.11.2017 11:33 6,3 C 86 % 1023,4 hPa 0,0 l/m 0,1 km/h (0 Bft) W 271 4,1 C 3,1 km/h (1 Bft) 100 %
14.11.2017 11:34 6,3 C 86 % 1023,4 hPa 0,0 l/m 1,2 km/h (1 Bft) N-NW 347 4,1 C 3,1 km/h (1 Bft) 100 %
14.11.2017 11:35 6,3 C 85 % 1023,4 hPa 0,0 l/m 3,8 km/h (1 Bft) SW 222 4,0 C 9,4 km/h (2 Bft) 100 %
14.11.2017 11:36 6,3 C 85 % 1023,4 hPa 0,0 l/m 4,9 km/h (1 Bft) S-SW 200 4,0 C 9,4 km/h (2 Bft) 100 %
14.11.2017 11:37 6,3 C 85 % 1023,3 hPa 0,0 l/m 2,0 km/h (1 Bft) S-SW 210 4,0 C 3,1 km/h (1 Bft) 100 %
14.11.2017 11:38 6,3 C 86 % 1023,4 hPa 0,0 l/m 0,9 km/h (0 Bft) S-SW 208 4,1 C 3,1 km/h (1 Bft) 100 %
14.11.2017 11:39 6,4 C 86 % 1023,4 hPa 0,0 l/m 0,8 km/h (0 Bft) S-SO 158 4,2 C 3,1 km/h (1 Bft) 100 %
14.11.2017 11:40 6,4 C 86 % 1023,4 hPa 0,0 l/m 0,3 km/h (0 Bft) S-SW 196 4,2 C 3,1 km/h (1 Bft) 100 %
14.11.2017 11:41 6,4 C 86 % 1023,4 hPa 0,0 l/m 1,6 km/h (1 Bft) SW 231 4,2 C 6,3 km/h (2 Bft) 100 %
14.11.2017 11:42 6,4 C 85 % 1023,4 hPa 0,0 l/m 1,1 km/h (1 Bft) S-SW 213 4,1 C 3,1 km/h (1 Bft) 100 %
14.11.2017 11:43 6,4 C 85 % 1023,4 hPa 0,0 l/m 3,5 km/h (1 Bft) SW 231 4,1 C 6,3 km/h (2 Bft) 100 %
14.11.2017 11:44 6,4 C 85 % 1023,4 hPa 0,0 l/m 0,8 km/h (0 Bft) W-NW 300 4,1 C 3,1 km/h (1 Bft) 100 %
14.11.2017 11:45 6,4 C 85 % 1023,4 hPa 0,0 l/m 2,3 km/h (1 Bft) W 264 4,1 C 12,6 km/h (3 Bft) 100 %
14.11.2017 11:46 6,4 C 85 % 1023,5 hPa 0,0 l/m 2,4 km/h (1 Bft) W-SW 238 4,1 C 6,3 km/h (2 Bft) 100 %
14.11.2017 11:47 6,4 C 85 % 1023,5 hPa 0,0 l/m 2,4 km/h (1 Bft) W-SW 253 4,1 C 6,3 km/h (2 Bft) 100 %
14.11.2017 11:48 6,4 C 85 % 1023,5 hPa 0,0 l/m 1,7 km/h (1 Bft) W-NW 287 4,1 C 3,1 km/h (1 Bft) 100 %
14.11.2017 11:49 6,4 C 85 % 1023,4 hPa 0,0 l/m 4,7 km/h (1 Bft) W-NW 291 4,1 C 9,4 km/h (2 Bft) 100 %
14.11.2017 11:50 6,4 C 85 % 1023,4 hPa 0,0 l/m 3,0 km/h (1 Bft) W-SW 255 4,1 C 6,3 km/h (2 Bft) 99 %
14.11.2017 11:51 6,4 C 85 % 1023,5 hPa 0,0 l/m 3,1 km/h (1 Bft) NW 304 4,1 C 9,4 km/h (2 Bft) 100 %
14.11.2017 11:52 6,4 C 85 % 1023,5 hPa 0,0 l/m 2,5 km/h (1 Bft) W-SW 243 4,1 C 6,3 km/h (2 Bft) 100 %
14.11.2017 11:53 6,4 C 85 % 1023,4 hPa 0,0 l/m 1,8 km/h (1 Bft) W-SW 250 4,1 C 6,3 km/h (2 Bft) 100 %
14.11.2017 11:54 6,4 C 85 % 1023,4 hPa 0,0 l/m 1,9 km/h (1 Bft) W-SW 255 4,1 C 3,1 km/h (1 Bft) 100 %
14.11.2017 11:55 6,4 C 85 % 1023,5 hPa 0,0 l/m 0,5 km/h (0 Bft) SW 231 4,1 C 3,1 km/h (1 Bft) 100 %
14.11.2017 11:56 6,5 C 84 % 1023,4 hPa 0,0 l/m 4,5 km/h (1 Bft) W-SW 255 4,0 C 9,4 km/h (2 Bft) 100 %
14.11.2017 11:57 6,4 C 84 % 1023,4 hPa 0,0 l/m 6,1 km/h (2 Bft) W 270 3,9 C 9,4 km/h (2 Bft) 100 %
14.11.2017 11:58 6,5 C 84 % 1023,4 hPa 0,0 l/m 4,4 km/h (1 Bft) W 269 4,0 C 9,4 km/h (2 Bft) 100 %
14.11.2017 11:59 6,5 C 84 % 1023,4 hPa 0,0 l/m 1,8 km/h (1 Bft) SW 232 4,0 C 6,3 km/h (2 Bft) 100 %
14.11.2017 12:00 6,5 C 84 % 1023,4 hPa 0,0 l/m 0,7 km/h (0 Bft) W-SW 237 4,0 C 6,3 km/h (2 Bft) 100 %
14.11.2017 12:01 6,5 C 84 % 1023,4 hPa 0,0 l/m 3,1 km/h (1 Bft) W 261 4,0 C 6,3 km/h (2 Bft) 100 %
14.11.2017 12:02 6,5 C 84 % 1023,4 hPa 0,0 l/m 6,3 km/h (2 Bft) W-SW 249 4,0 C 9,4 km/h (2 Bft) 100 %
14.11.2017 12:03 6,5 C 84 % 1023,4 hPa 0,0 l/m 0,7 km/h (0 Bft) W-SW 254 4,0 C 3,1 km/h (1 Bft) 100 %
14.11.2017 12:04 6,6 C 84 % 1023,3 hPa 0,0 l/m 3,5 km/h (1 Bft) NW 315 4,1 C 6,3 km/h (2 Bft) 100 %
14.11.2017 12:05 6,5 C 84 % 1023,3 hPa 0,0 l/m 4,9 km/h (1 Bft) SW 225 4,0 C 12,6 km/h (3 Bft) 100 %
14.11.2017 12:06 6,6 C 84 % 1023,3 hPa 0,0 l/m 13,2 km/h (3 Bft) S-SW 203 4,1 C 22,0 km/h (4 Bft) 100 %
14.11.2017 12:07 6,6 C 83 % 1023,3 hPa 0,0 l/m 12,6 km/h (3 Bft) SW 233 3,9 C 22,0 km/h (4 Bft) 100 %
14.11.2017 12:08 6,6 C 83 % 1023,3 hPa 0,0 l/m 10,0 km/h (2 Bft) W-NW 285 3,9 C 22,0 km/h (4 Bft) 100 %
14.11.2017 12:09 6,6 C 82 % 1023,2 hPa 0,0 l/m 13,9 km/h (3 Bft) W-SW 240 3,8 C 22,0 km/h (4 Bft) 100 %
14.11.2017 12:10 6,6 C 82 % 1023,2 hPa 0,0 l/m 10,1 km/h (2 Bft) W-SW 255 3,8 C 15,7 km/h (3 Bft) 100 %
14.11.2017 12:11 6,6 C 82 % 1023,2 hPa 0,0 l/m 8,4 km/h (2 Bft) W-NW 302 3,8 C 15,7 km/h (3 Bft) 96 %
14.11.2017 12:12 6,6 C 82 % 1023,2 hPa 0,0 l/m 7,8 km/h (2 Bft) W-NW 285 3,8 C 12,6 km/h (3 Bft) 100 %
14.11.2017 12:13 6,6 C 82 % 1023,1 hPa 0,0 l/m 6,4 km/h (2 Bft) W-NW 297 3,8 C 15,7 km/h (3 Bft) 100 %
14.11.2017 12:14 6,7 C 82 % 1023,1 hPa 0,0 l/m 9,6 km/h (2 Bft) W 277 3,8 C 18,8 km/h (3 Bft) 96 %
14.11.2017 12:15 6,7 C 82 % 1023,2 hPa 0,0 l/m 5,2 km/h (1 Bft) W-NW 293 3,8 C 12,6 km/h (3 Bft) 100 %
14.11.2017 12:16 6,7 C 82 % 1023,2 hPa 0,0 l/m 7,3 km/h (2 Bft) W 278 3,8 C 18,8 km/h (3 Bft) 100 %
14.11.2017 12:17 6,7 C 82 % 1023,2 hPa 0,0 l/m 3,9 km/h (1 Bft) W 261 3,8 C 6,3 km/h (2 Bft) 100 %
14.11.2017 12:18 6,7 C 82 % 1023,2 hPa 0,0 l/m 8,3 km/h (2 Bft) W-NW 295 3,8 C 12,6 km/h (3 Bft) 100 %
14.11.2017 12:19 6,7 C 83 % 1023,1 hPa 0,0 l/m 6,0 km/h (2 Bft) W-SW 240 4,0 C 9,4 km/h (2 Bft) 100 %
14.11.2017 12:20 6,7 C 82 % 1023,1 hPa 0,0 l/m 4,1 km/h (1 Bft) W 263 3,8 C 6,3 km/h (2 Bft) 96 %
14.11.2017 12:21 6,7 C 82 % 1023,1 hPa 0,0 l/m 8,0 km/h (2 Bft) W-NW 292 3,8 C 12,6 km/h (3 Bft) 96 %
14.11.2017 12:22 6,8 C 83 % 1023,1 hPa 0,0 l/m 8,4 km/h (2 Bft) W-SW 257 4,1 C 12,6 km/h (3 Bft) 100 %
14.11.2017 12:23 6,8 C 83 % 1023,1 hPa 0,0 l/m 10,5 km/h (2 Bft) O 80 4,1 C 25,1 km/h (4 Bft) 96 %
14.11.2017 12:24 6,8 C 82 % 1023,1 hPa 0,0 l/m 9,2 km/h (2 Bft) W-NW 283 3,9 C 15,7 km/h (3 Bft) 100 %
14.11.2017 12:25 6,8 C 82 % 1023,1 hPa 0,0 l/m 12,3 km/h (3 Bft) W-NW 288 3,9 C 22,0 km/h (4 Bft) 96 %
14.11.2017 12:26 6,8 C 82 % 1023,1 hPa 0,0 l/m 8,6 km/h (2 Bft) W-NW 300 3,9 C 12,6 km/h (3 Bft) 100 %
14.11.2017 12:27 6,8 C 82 % 1023,0 hPa 0,0 l/m 13,7 km/h (3 Bft) NW 311 3,9 C 31,4 km/h (5 Bft) 97 %
14.11.2017 12:28 6,8 C 81 % 1023,0 hPa 0,0 l/m 6,3 km/h (2 Bft) W-SW 250 3,8 C 15,7 km/h (3 Bft) 100 %
14.11.2017 12:29 6,8 C 81 % 1023,1 hPa 0,0 l/m 12,1 km/h (2 Bft) W-NW 295 3,8 C 28,2 km/h (4 Bft) 96 %
14.11.2017 12:30 6,8 C 81 % 1023,0 hPa 0,0 l/m 15,2 km/h (3 Bft) W 270 3,8 C 31,4 km/h (5 Bft) 96 %
14.11.2017 12:31 6,8 C 81 % 1023,0 hPa 0,0 l/m 6,5 km/h (2 Bft) S-SO 168 3,8 C 15,7 km/h (3 Bft) 100 %
14.11.2017 12:32 6,8 C 81 % 1023,0 hPa 0,0 l/m 8,6 km/h (2 Bft) W 278 3,8 C 22,0 km/h (4 Bft) 96 %
14.11.2017 12:33 6,8 C 81 % 1023,0 hPa 0,0 l/m 7,2 km/h (2 Bft) W-NW 302 3,8 C 12,6 km/h (3 Bft) 100 %
14.11.2017 12:34 6,8 C 81 % 1023,0 hPa 0,0 l/m 5,6 km/h (1 Bft) SO 134 3,8 C 12,6 km/h (3 Bft) 96 %
14.11.2017 12:35 6,8 C 81 % 1023,0 hPa 0,0 l/m 9,2 km/h (2 Bft) W-SW 253 3,8 C 18,8 km/h (3 Bft) 100 %
14.11.2017 12:36 6,8 C 81 % 1023,0 hPa 0,0 l/m 13,5 km/h (3 Bft) W-NW 291 3,8 C 22,0 km/h (4 Bft) 96 %
14.11.2017 12:37 6,9 C 81 % 1023,0 hPa 0,0 l/m 3,3 km/h (1 Bft) W-NW 285 3,9 C 9,4 km/h (2 Bft) 100 %
14.11.2017 12:38 6,8 C 81 % 1023,0 hPa 0,0 l/m 2,5 km/h (1 Bft) W 270 3,8 C 6,3 km/h (2 Bft) 100 %
14.11.2017 12:39 6,9 C 82 % 1023,0 hPa 0,0 l/m 1,4 km/h (1 Bft) W-NW 290 4,0 C 3,1 km/h (1 Bft) 100 %
14.11.2017 12:40 6,9 C 82 % 1023,0 hPa 0,0 l/m 8,9 km/h (2 Bft) W-SW 246 4,0 C 18,8 km/h (3 Bft) 100 %
14.11.2017 12:41 6,9 C 81 % 1022,9 hPa 0,0 l/m 8,8 km/h (2 Bft) NW 315 3,9 C 15,7 km/h (3 Bft) 100 %
14.11.2017 12:42 6,9 C 81 % 1023,0 hPa 0,0 l/m 5,5 km/h (1 Bft) N-NW 328 3,9 C 9,4 km/h (2 Bft) 100 %
14.11.2017 12:43 6,9 C 82 % 1022,9 hPa 0,0 l/m 6,3 km/h (2 Bft) NW 311 4,0 C 15,7 km/h (3 Bft) 100 %
14.11.2017 12:44 6,9 C 81 % 1022,9 hPa 0,0 l/m 7,7 km/h (2 Bft) W-NW 286 3,9 C 12,6 km/h (3 Bft) 96 %
14.11.2017 12:45 6,9 C 82 % 1022,9 hPa 0,0 l/m 5,9 km/h (2 Bft) SW 217 4,0 C 9,4 km/h (2 Bft) 100 %
14.11.2017 12:46 6,9 C 82 % 1023,0 hPa 0,0 l/m 5,1 km/h (1 Bft) W 266 4,0 C 9,4 km/h (2 Bft) 100 %
14.11.2017 12:47 6,9 C 82 % 1023,0 hPa 0,0 l/m 4,8 km/h (1 Bft) N-NW 338 4,0 C 9,4 km/h (2 Bft) 100 %
14.11.2017 12:48 6,9 C 82 % 1023,0 hPa 0,0 l/m 3,8 km/h (1 Bft) S-SW 210 4,0 C 9,4 km/h (2 Bft) 100 %
14.11.2017 12:49 6,9 C 82 % 1022,9 hPa 0,0 l/m 5,4 km/h (1 Bft) W 276 4,0 C 12,6 km/h (3 Bft) 100 %
14.11.2017 12:50 6,9 C 81 % 1023,0 hPa 0,0 l/m 11,6 km/h (2 Bft) SW 236 3,9 C 18,8 km/h (3 Bft) 100 %
14.11.2017 12:51 6,9 C 81 % 1023,0 hPa 0,0 l/m 4,3 km/h (1 Bft) SW 234 3,9 C 18,8 km/h (3 Bft) 100 %
14.11.2017 12:52 6,9 C 81 % 1023,0 hPa 0,0 l/m 1,6 km/h (1 Bft) W-NW 290 3,9 C 6,3 km/h (2 Bft) 100 %
14.11.2017 12:53 7,0 C 81 % 1023,0 hPa 0,0 l/m 5,7 km/h (1 Bft) W-SW 245 4,0 C 12,6 km/h (3 Bft) 100 %
14.11.2017 12:54 7,0 C 81 % 1023,0 hPa 0,0 l/m 5,9 km/h (2 Bft) W-SW 238 4,0 C 12,6 km/h (3 Bft) 100 %
14.11.2017 12:55 7,1 C 81 % 1023,0 hPa 0,0 l/m 0,6 km/h (0 Bft) W-NW 300 4,1 C 3,1 km/h (1 Bft) 100 %
14.11.2017 12:56 7,1 C 82 % 1023,1 hPa 0,0 l/m 3,5 km/h (1 Bft) W 266 4,2 C 15,7 km/h (3 Bft) 100 %
14.11.2017 12:57 7,1 C 82 % 1023,0 hPa 0,0 l/m 4,2 km/h (1 Bft) W 273 4,2 C 12,6 km/h (3 Bft) 100 %
14.11.2017 12:58 7,1 C 81 % 1023,0 hPa 0,0 l/m 0,7 km/h (0 Bft) W 269 4,1 C 3,1 km/h (1 Bft) 100 %
14.11.2017 12:59 7,2 C 82 % 1023,0 hPa 0,0 l/m 1,3 km/h (1 Bft) W-SW 258 4,3 C 9,4 km/h (2 Bft) 100 %
14.11.2017 13:00 7,2 C 82 % 1023,0 hPa 0,0 l/m 2,6 km/h (1 Bft) SW 217 4,3 C 6,3 km/h (2 Bft) 100 %
14.11.2017 13:01 7,2 C 82 % 1023,0 hPa 0,0 l/m 4,3 km/h (1 Bft) W-NW 295 4,3 C 6,3 km/h (2 Bft) 100 %
14.11.2017 13:02 7,2 C 82 % 1023,0 hPa 0,0 l/m 6,5 km/h (2 Bft) S-SW 196 4,3 C 12,6 km/h (3 Bft) 100 %
14.11.2017 13:03 7,2 C 81 % 1023,0 hPa 0,0 l/m 5,3 km/h (1 Bft) W 259 4,2 C 12,6 km/h (3 Bft) 100 %
14.11.2017 13:04 7,2 C 81 % 1022,9 hPa 0,0 l/m 3,3 km/h (1 Bft) W-SW 238 4,2 C 6,3 km/h (2 Bft) 100 %
14.11.2017 13:05 7,3 C 82 % 1022,9 hPa 0,0 l/m 2,8 km/h (1 Bft) W-NW 301 4,4 C 6,3 km/h (2 Bft) 100 %
14.11.2017 13:06 7,3 C 81 % 1022,9 hPa 0,0 l/m 4,2 km/h (1 Bft) W-SW 243 4,3 C 9,4 km/h (2 Bft) 100 %
14.11.2017 13:07 7,3 C 81 % 1022,9 hPa 0,0 l/m 3,6 km/h (1 Bft) W-NW 283 4,3 C 12,6 km/h (3 Bft) 100 %
14.11.2017 13:08 7,3 C 81 % 1022,9 hPa 0,0 l/m 0,8 km/h (0 Bft) N 354 4,3 C 3,1 km/h (1 Bft) 100 %
14.11.2017 13:09 7,3 C 82 % 1022,9 hPa 0,0 l/m 2,8 km/h (1 Bft) W 271 4,4 C 6,3 km/h (2 Bft) 100 %
14.11.2017 13:10 7,3 C 81 % 1022,9 hPa 0,0 l/m 5,8 km/h (2 Bft) SW 229 4,3 C 12,6 km/h (3 Bft) 100 %
14.11.2017 13:11 7,3 C 81 % 1022,9 hPa 0,0 l/m 4,3 km/h (1 Bft) NW 319 4,3 C 9,4 km/h (2 Bft) 100 %
14.11.2017 13:12 7,3 C 80 % 1023,0 hPa 0,0 l/m 10,3 km/h (2 Bft) W-NW 288 4,1 C 25,1 km/h (4 Bft) 100 %
14.11.2017 13:13 7,3 C 81 % 1022,9 hPa 0,0 l/m 7,2 km/h (2 Bft) NW 316 4,3 C 22,0 km/h (4 Bft) 100 %
14.11.2017 13:14 7,3 C 80 % 1022,9 hPa 0,0 l/m 8,9 km/h (2 Bft) SO 141 4,1 C 15,7 km/h (3 Bft) 100 %
14.11.2017 13:15 7,3 C 80 % 1022,9 hPa 0,0 l/m 8,0 km/h (2 Bft) W-SW 242 4,1 C 15,7 km/h (3 Bft) 100 %
14.11.2017 13:16 7,3 C 80 % 1022,9 hPa 0,0 l/m 6,7 km/h (2 Bft) W 264 4,1 C 15,7 km/h (3 Bft) 96 %
14.11.2017 13:17 7,3 C 80 % 1022,9 hPa 0,0 l/m 8,9 km/h (2 Bft) W-NW 287 4,1 C 15,7 km/h (3 Bft) 100 %
14.11.2017 13:18 7,3 C 80 % 1022,9 hPa 0,0 l/m 7,8 km/h (2 Bft) W-SW 237 4,1 C 12,6 km/h (3 Bft) 100 %
14.11.2017 13:19 7,3 C 80 % 1022,9 hPa 0,0 l/m 4,1 km/h (1 Bft) W 266 4,1 C 9,4 km/h (2 Bft) 100 %
14.11.2017 13:20 7,3 C 80 % 1022,9 hPa 0,0 l/m 6,6 km/h (2 Bft) W-NW 285 4,1 C 12,6 km/h (3 Bft) 100 %
14.11.2017 13:21 7,3 C 81 % 1022,9 hPa 0,0 l/m 4,8 km/h (1 Bft) S-SW 196 4,3 C 12,6 km/h (3 Bft) 100 %
14.11.2017 13:22 7,3 C 81 % 1022,9 hPa 0,0 l/m 4,4 km/h (1 Bft) W-NW 288 4,3 C 18,8 km/h (3 Bft) 100 %
14.11.2017 13:23 7,3 C 80 % 1022,8 hPa 0,0 l/m 6,9 km/h (2 Bft) W 266 4,1 C 12,6 km/h (3 Bft) 100 %
14.11.2017 13:24 7,3 C 80 % 1022,9 hPa 0,0 l/m 7,2 km/h (2 Bft) SW 224 4,1 C 15,7 km/h (3 Bft) 100 %
14.11.2017 13:25 7,3 C 80 % 1022,8 hPa 0,0 l/m 5,2 km/h (1 Bft) W 269 4,1 C 18,8 km/h (3 Bft) 100 %
14.11.2017 13:26 7,3 C 80 % 1022,8 hPa 0,0 l/m 3,6 km/h (1 Bft) W-SW 252 4,1 C 6,3 km/h (2 Bft) 100 %
14.11.2017 13:27 7,4 C 81 % 1022,7 hPa 0,0 l/m 4,8 km/h (1 Bft) SW 226 4,4 C 9,4 km/h (2 Bft) 100 %
14.11.2017 13:28 7,4 C 80 % 1022,7 hPa 0,0 l/m 2,1 km/h (1 Bft) SW 230 4,2 C 6,3 km/h (2 Bft) 100 %
14.11.2017 13:29 7,4 C 81 % 1022,7 hPa 0,0 l/m 6,1 km/h (2 Bft) SW 229 4,4 C 15,7 km/h (3 Bft) 100 %
14.11.2017 13:30 7,4 C 80 % 1022,7 hPa 0,0 l/m 10,8 km/h (2 Bft) SW 233 4,2 C 15,7 km/h (3 Bft) 100 %
14.11.2017 13:31 7,4 C 80 % 1022,7 hPa 0,0 l/m 7,4 km/h (2 Bft) N-NW 340 4,2 C 12,6 km/h (3 Bft) 100 %
14.11.2017 13:32 7,4 C 80 % 1022,7 hPa 0,0 l/m 8,5 km/h (2 Bft) W 276 4,2 C 15,7 km/h (3 Bft) 100 %
14.11.2017 13:33 7,5 C 79 % 1022,7 hPa 0,0 l/m 5,5 km/h (1 Bft) NW 317 4,1 C 9,4 km/h (2 Bft) 100 %
14.11.2017 13:34 7,5 C 79 % 1022,7 hPa 0,0 l/m 4,2 km/h (1 Bft) W 267 4,1 C 6,3 km/h (2 Bft) 100 %
14.11.2017 13:35 7,5 C 79 % 1022,7 hPa 0,0 l/m 5,4 km/h (1 Bft) N-NW 348 4,1 C 9,4 km/h (2 Bft) 100 %
14.11.2017 13:36 7,6 C 79 % 1022,7 hPa 0,0 l/m 4,8 km/h (1 Bft) W 269 4,2 C 9,4 km/h (2 Bft) 100 %
14.11.2017 13:37 7,6 C 80 % 1022,7 hPa 0,0 l/m 6,9 km/h (2 Bft) NW 319 4,4 C 9,4 km/h (2 Bft) 100 %
14.11.2017 13:38 7,6 C 80 % 1022,7 hPa 0,0 l/m 8,6 km/h (2 Bft) NW 304 4,4 C 18,8 km/h (3 Bft) 100 %
14.11.2017 13:39 7,6 C 79 % 1022,7 hPa 0,0 l/m 3,3 km/h (1 Bft) S-SW 205 4,2 C 12,6 km/h (3 Bft) 100 %
14.11.2017 13:40 7,6 C 79 % 1022,7 hPa 0,0 l/m 8,9 km/h (2 Bft) W 281 4,2 C 22,0 km/h (4 Bft) 100 %
14.11.2017 13:41 7,6 C 79 % 1022,7 hPa 0,0 l/m 11,3 km/h (2 Bft) SW 231 4,2 C 18,8 km/h (3 Bft) 100 %
14.11.2017 13:42 7,6 C 80 % 1022,7 hPa 0,0 l/m 6,9 km/h (2 Bft) W 276 4,4 C 9,4 km/h (2 Bft) 100 %
14.11.2017 13:43 7,5 C 80 % 1022,6 hPa 0,0 l/m 6,0 km/h (2 Bft) W 259 4,3 C 15,7 km/h (3 Bft) 100 %
14.11.2017 13:44 7,5 C 79 % 1022,6 hPa 0,0 l/m 12,2 km/h (2 Bft) W 263 4,1 C 22,0 km/h (4 Bft) 100 %
14.11.2017 13:45 7,4 C 79 % 1022,6 hPa 0,0 l/m 12,6 km/h (3 Bft) W-SW 243 4,0 C 28,2 km/h (4 Bft) 99 %
14.11.2017 13:46 7,4 C 79 % 1022,6 hPa 0,0 l/m 7,5 km/h (2 Bft) SW 217 4,0 C 25,1 km/h (4 Bft) 100 %
14.11.2017 13:47 7,4 C 79 % 1022,6 hPa 0,0 l/m 10,8 km/h (2 Bft) W-NW 302 4,0 C 18,8 km/h (3 Bft) 96 %
14.11.2017 13:48 7,4 C 79 % 1022,5 hPa 0,0 l/m 5,9 km/h (2 Bft) NW 323 4,0 C 12,6 km/h (3 Bft) 96 %
14.11.2017 13:49 7,4 C 79 % 1022,5 hPa 0,0 l/m 5,8 km/h (2 Bft) SW 227 4,0 C 12,6 km/h (3 Bft) 96 %
14.11.2017 13:50 7,3 C 79 % 1022,6 hPa 0,0 l/m 11,6 km/h (2 Bft) NW 319 3,9 C 18,8 km/h (3 Bft) 96 %
14.11.2017 13:51 7,3 C 79 % 1022,5 hPa 0,0 l/m 11,0 km/h (2 Bft) W 263 3,9 C 22,0 km/h (4 Bft) 100 %
14.11.2017 13:52 7,3 C 79 % 1022,5 hPa 0,0 l/m 13,0 km/h (3 Bft) S-SW 209 3,9 C 25,1 km/h (4 Bft) 100 %
14.11.2017 13:53 7,3 C 79 % 1022,6 hPa 0,0 l/m 8,6 km/h (2 Bft) SW 224 3,9 C 15,7 km/h (3 Bft) 100 %
14.11.2017 13:54 7,3 C 79 % 1022,5 hPa 0,0 l/m 4,2 km/h (1 Bft) W-NW 300 3,9 C 12,6 km/h (3 Bft) 92 %
14.11.2017 13:55 7,3 C 79 % 1022,5 hPa 0,0 l/m 4,5 km/h (1 Bft) W-SW 240 3,9 C 9,4 km/h (2 Bft) 100 %
14.11.2017 13:56 7,3 C 79 % 1022,5 hPa 0,0 l/m 4,9 km/h (1 Bft) NW 319 3,9 C 9,4 km/h (2 Bft) 100 %
14.11.2017 13:57 7,3 C 80 % 1022,5 hPa 0,0 l/m 6,0 km/h (2 Bft) W-SW 244 4,1 C 9,4 km/h (2 Bft) 96 %
14.11.2017 13:58 7,3 C 80 % 1022,6 hPa 0,0 l/m 4,4 km/h (1 Bft) W-NW 291 4,1 C 6,3 km/h (2 Bft) 96 %
14.11.2017 13:59 7,3 C 80 % 1022,5 hPa 0,0 l/m 5,1 km/h (1 Bft) W 259 4,1 C 9,4 km/h (2 Bft) 100 %
14.11.2017 14:00 7,3 C 80 % 1022,5 hPa 0,0 l/m 0,5 km/h (0 Bft) SW 219 4,1 C 6,3 km/h (2 Bft) 96 %
14.11.2017 14:01 7,3 C 80 % 1022,5 hPa 0,0 l/m 9,5 km/h (2 Bft) W-SW 242 4,1 C 15,7 km/h (3 Bft) 100 %
14.11.2017 14:02 7,3 C 80 % 1022,5 hPa 0,0 l/m 6,1 km/h (2 Bft) NW 304 4,1 C 12,6 km/h (3 Bft) 96 %
14.11.2017 14:03 7,3 C 80 % 1022,5 hPa 0,0 l/m 1,4 km/h (1 Bft) W-NW 293 4,1 C 6,3 km/h (2 Bft) 96 %
14.11.2017 14:04 7,3 C 80 % 1022,5 hPa 0,0 l/m 8,9 km/h (2 Bft) W 259 4,1 C 18,8 km/h (3 Bft) 100 %
14.11.2017 14:05 7,3 C 80 % 1022,5 hPa 0,0 l/m 7,1 km/h (2 Bft) SW 214 4,1 C 9,4 km/h (2 Bft) 96 %
14.11.2017 14:06 7,3 C 80 % 1022,5 hPa 0,0 l/m 5,1 km/h (1 Bft) SW 231 4,1 C 12,6 km/h (3 Bft) 100 %
14.11.2017 14:07 7,3 C 80 % 1022,5 hPa 0,0 l/m 2,2 km/h (1 Bft) SW 227 4,1 C 6,3 km/h (2 Bft) 96 %
14.11.2017 14:08 7,4 C 81 % 1022,5 hPa 0,0 l/m 2,3 km/h (1 Bft) W 277 4,4 C 6,3 km/h (2 Bft) 100 %
14.11.2017 14:09 7,4 C 81 % 1022,5 hPa 0,0 l/m 10,3 km/h (2 Bft) W-SW 240 4,4 C 28,2 km/h (4 Bft) 96 %
14.11.2017 14:10 7,4 C 79 % 1022,5 hPa 0,0 l/m 8,2 km/h (2 Bft) NW 326 4,0 C 15,7 km/h (3 Bft) 100 %
14.11.2017 14:11 7,4 C 79 % 1022,5 hPa 0,0 l/m 8,8 km/h (2 Bft) W-SW 248 4,0 C 15,7 km/h (3 Bft) 100 %
14.11.2017 14:12 7,4 C 79 % 1022,6 hPa 0,0 l/m 10,0 km/h (2 Bft) NW 304 4,0 C 15,7 km/h (3 Bft) 100 %
14.11.2017 14:13 7,4 C 79 % 1022,5 hPa 0,0 l/m 8,4 km/h (2 Bft) SW 233 4,0 C 18,8 km/h (3 Bft) 100 %
14.11.2017 14:14 7,4 C 79 % 1022,5 hPa 0,0 l/m 6,3 km/h (2 Bft) W-SW 256 4,0 C 18,8 km/h (3 Bft) 100 %
14.11.2017 14:15 7,4 C 79 % 1022,6 hPa 0,0 l/m 3,4 km/h (1 Bft) W-SW 240 4,0 C 6,3 km/h (2 Bft) 100 %
14.11.2017 14:16 7,4 C 79 % 1022,6 hPa 0,0 l/m 5,4 km/h (1 Bft) W-NW 298 4,0 C 12,6 km/h (3 Bft) 100 %
14.11.2017 14:17 7,4 C 79 % 1022,6 hPa 0,0 l/m 5,8 km/h (2 Bft) SW 223 4,0 C 12,6 km/h (3 Bft) 100 %
14.11.2017 14:18 7,4 C 79 % 1022,6 hPa 0,0 l/m 4,6 km/h (1 Bft) NW 314 4,0 C 6,3 km/h (2 Bft) 100 %
14.11.2017 14:19 7,5 C 79 % 1022,6 hPa 0,0 l/m 5,9 km/h (2 Bft) S-SO 161 4,1 C 12,6 km/h (3 Bft) 100 %
14.11.2017 14:20 7,5 C 79 % 1022,6 hPa 0,0 l/m 9,2 km/h (2 Bft) W-SW 249 4,1 C 15,7 km/h (3 Bft) 100 %
14.11.2017 14:21 7,5 C 79 % 1022,6 hPa 0,0 l/m 3,3 km/h (1 Bft) S-SO 151 4,1 C 9,4 km/h (2 Bft) 100 %
14.11.2017 14:22 7,4 C 78 % 1022,6 hPa 0,0 l/m 5,8 km/h (2 Bft) W-SW 255 3,8 C 15,7 km/h (3 Bft) 100 %
14.11.2017 14:23 7,5 C 78 % 1022,6 hPa 0,0 l/m 5,4 km/h (1 Bft) W-SW 256 3,9 C 9,4 km/h (2 Bft) 100 %
14.11.2017 14:24 7,4 C 79 % 1022,6 hPa 0,0 l/m 0,8 km/h (0 Bft) N-NW 337 4,0 C 6,3 km/h (2 Bft) 100 %
14.11.2017 14:25 7,5 C 79 % 1022,6 hPa 0,0 l/m 2,9 km/h (1 Bft) S 183 4,1 C 6,3 km/h (2 Bft) 100 %
14.11.2017 14:26 7,5 C 79 % 1022,5 hPa 0,0 l/m 1,4 km/h (1 Bft) W-NW 289 4,1 C 9,4 km/h (2 Bft) 100 %
14.11.2017 14:27 7,5 C 79 % 1022,6 hPa 0,0 l/m 8,3 km/h (2 Bft) W-NW 284 4,1 C 15,7 km/h (3 Bft) 100 %
14.11.2017 14:28 7,4 C 79 % 1022,6 hPa 0,0 l/m 3,4 km/h (1 Bft) W 280 4,0 C 9,4 km/h (2 Bft) 100 %
14.11.2017 14:29 7,4 C 79 % 1022,6 hPa 0,0 l/m 4,6 km/h (1 Bft) SW 227 4,0 C 12,6 km/h (3 Bft) 100 %
14.11.2017 14:30 7,4 C 79 % 1022,5 hPa 0,0 l/m 1,2 km/h (1 Bft) W-SW 238 4,0 C 6,3 km/h (2 Bft) 100 %
14.11.2017 14:31 7,4 C 79 % 1022,4 hPa 0,0 l/m 3,3 km/h (1 Bft) N-NW 330 4,0 C 9,4 km/h (2 Bft) 100 %
14.11.2017 14:32 7,4 C 79 % 1022,4 hPa 0,0 l/m 3,3 km/h (1 Bft) W 280 4,0 C 9,4 km/h (2 Bft) 100 %
14.11.2017 14:33 7,4 C 79 % 1022,4 hPa 0,0 l/m 1,4 km/h (1 Bft) W-NW 295 4,0 C 3,1 km/h (1 Bft) 100 %
14.11.2017 14:34 7,4 C 79 % 1022,4 hPa 0,0 l/m 1,7 km/h (1 Bft) W-NW 296 4,0 C 3,1 km/h (1 Bft) 100 %
14.11.2017 14:35 7,4 C 79 % 1022,4 hPa 0,0 l/m 2,0 km/h (1 Bft) NW 317 4,0 C 6,3 km/h (2 Bft) 100 %
14.11.2017 14:36 7,4 C 79 % 1022,4 hPa 0,0 l/m 4,6 km/h (1 Bft) N 1 4,0 C 9,4 km/h (2 Bft) 100 %
14.11.2017 14:37 7,4 C 79 % 1022,4 hPa 0,0 l/m 2,9 km/h (1 Bft) W 275 4,0 C 9,4 km/h (2 Bft) 100 %
14.11.2017 14:38 7,4 C 79 % 1022,5 hPa 0,0 l/m 4,9 km/h (1 Bft) SW 219 4,0 C 9,4 km/h (2 Bft) 100 %
14.11.2017 14:39 7,4 C 79 % 1022,4 hPa 0,0 l/m 3,5 km/h (1 Bft) SW 229 4,0 C 9,4 km/h (2 Bft) 100 %
14.11.2017 14:40 7,4 C 79 % 1022,4 hPa 0,0 l/m 4,0 km/h (1 Bft) S 187 4,0 C 12,6 km/h (3 Bft) 100 %
14.11.2017 14:41 7,4 C 79 % 1022,5 hPa 0,0 l/m 6,2 km/h (2 Bft) S-SW 210 4,0 C 15,7 km/h (3 Bft) 100 %
14.11.2017 14:42 7,4 C 79 % 1022,5 hPa 0,0 l/m 8,6 km/h (2 Bft) W 269 4,0 C 15,7 km/h (3 Bft) 100 %
14.11.2017 14:43 7,4 C 78 % 1022,5 hPa 0,0 l/m 5,2 km/h (1 Bft) S-SW 207 3,8 C 12,6 km/h (3 Bft) 100 %
14.11.2017 14:44 7,4 C 79 % 1022,5 hPa 0,0 l/m 3,3 km/h (1 Bft) SW 220 4,0 C 9,4 km/h (2 Bft) 100 %
14.11.2017 14:45 7,4 C 79 % 1022,5 hPa 0,0 l/m 4,3 km/h (1 Bft) S 180 4,0 C 9,4 km/h (2 Bft) 100 %
14.11.2017 14:46 7,4 C 79 % 1022,4 hPa 0,0 l/m 1,8 km/h (1 Bft) SW 231 4,0 C 6,3 km/h (2 Bft) 100 %
14.11.2017 14:47 7,4 C 78 % 1022,5 hPa 0,0 l/m 4,0 km/h (1 Bft) NW 304 3,8 C 6,3 km/h (2 Bft) 100 %
14.11.2017 14:48 7,4 C 78 % 1022,5 hPa 0,0 l/m 1,1 km/h (1 Bft) W-SW 257 3,8 C 6,3 km/h (2 Bft) 100 %
14.11.2017 14:49 7,4 C 79 % 1022,5 hPa 0,0 l/m 1,8 km/h (1 Bft) W-NW 294 4,0 C 6,3 km/h (2 Bft) 100 %
14.11.2017 14:50 7,4 C 79 % 1022,5 hPa 0,0 l/m 3,4 km/h (1 Bft) S 180 4,0 C 6,3 km/h (2 Bft) 99 %
14.11.2017 14:51 7,4 C 78 % 1022,5 hPa 0,0 l/m 4,2 km/h (1 Bft) W-SW 245 3,8 C 6,3 km/h (2 Bft) 100 %
14.11.2017 14:52 7,4 C 79 % 1022,4 hPa 0,0 l/m 1,8 km/h (1 Bft) W-SW 258 4,0 C 9,4 km/h (2 Bft) 100 %
14.11.2017 14:53 7,4 C 78 % 1022,4 hPa 0,0 l/m 10,4 km/h (2 Bft) S-SW 195 3,8 C 18,8 km/h (3 Bft) 100 %
14.11.2017 14:54 7,5 C 77 % 1022,5 hPa 0,0 l/m 2,3 km/h (1 Bft) W 268 3,7 C 6,3 km/h (2 Bft) 100 %
14.11.2017 14:55 7,5 C 78 % 1022,4 hPa 0,0 l/m 3,6 km/h (1 Bft) W-NW 282 3,9 C 12,6 km/h (3 Bft) 100 %
14.11.2017 14:57 7,6 C 77 % 1022,4 hPa 0,0 l/m 4,8 km/h (1 Bft) W-SW 257 3,8 C 12,6 km/h (3 Bft) 100 %
14.11.2017 14:58 7,6 C 77 % 1022,4 hPa 0,0 l/m 4,2 km/h (1 Bft) W-SW 248 3,8 C 9,4 km/h (2 Bft) 100 %
14.11.2017 14:59 7,7 C 77 % 1022,4 hPa 0,0 l/m 2,6 km/h (1 Bft) N-NW 330 3,9 C 6,3 km/h (2 Bft) 100 %
14.11.2017 15:00 7,7 C 77 % 1022,4 hPa 0,0 l/m 4,1 km/h (1 Bft) SW 231 3,9 C 15,7 km/h (3 Bft) 100 %
14.11.2017 15:02 7,8 C 77 % 1022,4 hPa 0,0 l/m 1,6 km/h (1 Bft) SW 225 4,0 C 9,4 km/h (2 Bft) 100 %
14.11.2017 15:03 7,8 C 76 % 1022,4 hPa 0,0 l/m 6,1 km/h (2 Bft) SW 214 3,8 C 9,4 km/h (2 Bft) 100 %
14.11.2017 15:04 7,8 C 76 % 1022,4 hPa 0,0 l/m 7,3 km/h (2 Bft) W-NW 290 3,8 C 12,6 km/h (3 Bft) 100 %
14.11.2017 15:05 7,8 C 76 % 1022,4 hPa 0,0 l/m 4,7 km/h (1 Bft) NW 308 3,8 C 9,4 km/h (2 Bft) 100 %
14.11.2017 15:06 7,8 C 76 % 1022,4 hPa 0,0 l/m 4,4 km/h (1 Bft) SO 144 3,8 C 9,4 km/h (2 Bft) 100 %
14.11.2017 15:07 7,8 C 76 % 1022,4 hPa 0,0 l/m 5,9 km/h (2 Bft) S-SW 195 3,8 C 12,6 km/h (3 Bft) 100 %
14.11.2017 15:08 7,7 C 76 % 1022,4 hPa 0,0 l/m 3,5 km/h (1 Bft) S-SW 210 3,7 C 6,3 km/h (2 Bft) 100 %
14.11.2017 15:09 7,7 C 76 % 1022,4 hPa 0,0 l/m 2,5 km/h (1 Bft) W 276 3,7 C 6,3 km/h (2 Bft) 100 %
14.11.2017 15:10 7,7 C 76 % 1022,4 hPa 0,0 l/m 7,0 km/h (2 Bft) W-SW 253 3,7 C 15,7 km/h (3 Bft) 100 %
14.11.2017 15:12 7,6 C 76 % 1022,4 hPa 0,0 l/m 2,4 km/h (1 Bft) S 181 3,6 C 12,6 km/h (3 Bft) 100 %
14.11.2017 15:13 7,6 C 76 % 1022,4 hPa 0,0 l/m 3,0 km/h (1 Bft) W-NW 289 3,6 C 9,4 km/h (2 Bft) 100 %
14.11.2017 15:14 7,5 C 76 % 1022,5 hPa 0,0 l/m 3,1 km/h (1 Bft) SW 227 3,5 C 9,4 km/h (2 Bft) 100 %
14.11.2017 15:15 7,5 C 77 % 1022,5 hPa 0,0 l/m 1,6 km/h (1 Bft) SW 226 3,7 C 3,1 km/h (1 Bft) 100 %
14.11.2017 15:16 7,5 C 77 % 1022,5 hPa 0,0 l/m 0,3 km/h (0 Bft) W-NW 290 3,7 C 3,1 km/h (1 Bft) 100 %
14.11.2017 15:17 7,4 C 77 % 1022,5 hPa 0,0 l/m 1,5 km/h (1 Bft) W 269 3,6 C 3,1 km/h (1 Bft) 100 %
14.11.2017 15:18 7,4 C 77 % 1022,5 hPa 0,0 l/m 1,5 km/h (1 Bft) S-SW 210 3,6 C 3,1 km/h (1 Bft) 100 %
14.11.2017 15:19 7,4 C 78 % 1022,5 hPa 0,0 l/m 1,9 km/h (1 Bft) W 280 3,8 C 9,4 km/h (2 Bft) 96 %
14.11.2017 15:20 7,4 C 78 % 1022,5 hPa 0,0 l/m 4,7 km/h (1 Bft) W-SW 250 3,8 C 9,4 km/h (2 Bft) 96 %
14.11.2017 15:21 7,4 C 78 % 1022,5 hPa 0,0 l/m 3,3 km/h (1 Bft) SW 231 3,8 C 12,6 km/h (3 Bft) 96 %
14.11.2017 15:22 7,3 C 79 % 1022,5 hPa 0,0 l/m 0,6 km/h (0 Bft) S-SW 212 3,9 C 3,1 km/h (1 Bft) 100 %
14.11.2017 15:23 7,3 C 79 % 1022,5 hPa 0,0 l/m 4,3 km/h (1 Bft) W-SW 255 3,9 C 9,4 km/h (2 Bft) 96 %
14.11.2017 15:24 7,3 C 79 % 1022,5 hPa 0,0 l/m 2,2 km/h (1 Bft) W-SW 252 3,9 C 6,3 km/h (2 Bft) 100 %
14.11.2017 15:25 7,3 C 79 % 1022,5 hPa 0,0 l/m 3,1 km/h (1 Bft) W-SW 252 3,9 C 6,3 km/h (2 Bft) 100 %
14.11.2017 15:27 7,2 C 79 % 1022,5 hPa 0,0 l/m 1,8 km/h (1 Bft) SW 235 3,8 C 6,3 km/h (2 Bft) 98 %
14.11.2017 15:28 7,2 C 79 % 1022,5 hPa 0,0 l/m 1,5 km/h (1 Bft) S-SW 213 3,8 C 6,3 km/h (2 Bft) 92 %
14.11.2017 15:29 7,2 C 80 % 1022,5 hPa 0,0 l/m 2,7 km/h (1 Bft) S-SO 149 4,0 C 6,3 km/h (2 Bft) 100 %
14.11.2017 15:30 7,2 C 80 % 1022,5 hPa 0,0 l/m 1,2 km/h (1 Bft) W-NW 286 4,0 C 6,3 km/h (2 Bft) 96 %
14.11.2017 15:32 7,1 C 80 % 1022,6 hPa 0,0 l/m 3,0 km/h (1 Bft) SW 221 3,9 C 12,6 km/h (3 Bft) 98 %
14.11.2017 15:33 7,1 C 80 % 1022,6 hPa 0,0 l/m 1,4 km/h (1 Bft) NW 307 3,9 C 6,3 km/h (2 Bft) 96 %
14.11.2017 15:34 7,1 C 80 % 1022,5 hPa 0,0 l/m 2,0 km/h (1 Bft) SW 222 3,9 C 9,4 km/h (2 Bft) 100 %
14.11.2017 15:35 7,1 C 80 % 1022,5 hPa 0,0 l/m 3,1 km/h (1 Bft) SW 226 3,9 C 6,3 km/h (2 Bft) 96 %
14.11.2017 15:36 7,1 C 80 % 1022,5 hPa 0,0 l/m 4,1 km/h (1 Bft) W 261 3,9 C 12,6 km/h (3 Bft) 100 %
14.11.2017 15:37 7,1 C 80 % 1022,6 hPa 0,0 l/m 2,7 km/h (1 Bft) SW 231 3,9 C 6,3 km/h (2 Bft) 96 %
14.11.2017 15:38 7,1 C 80 % 1022,5 hPa 0,0 l/m 0,3 km/h (0 Bft) SW 231 3,9 C 3,1 km/h (1 Bft) 96 %
14.11.2017 15:39 7,1 C 80 % 1022,5 hPa 0,0 l/m 0,0 km/h (0 Bft) S-SW 196 3,9 C 0,0 km/h (0 Bft) 100 %
14.11.2017 15:40 7,1 C 80 % 1022,6 hPa 0,0 l/m 3,1 km/h (1 Bft) W-NW 292 3,9 C 9,4 km/h (2 Bft) 96 %
14.11.2017 15:42 7,1 C 80 % 1022,5 hPa 0,0 l/m 1,2 km/h (1 Bft) W-NW 288 3,9 C 6,3 km/h (2 Bft) 100 %
14.11.2017 15:43 7,1 C 80 % 1022,6 hPa 0,0 l/m 1,1 km/h (1 Bft) W-NW 287 3,9 C 6,3 km/h (2 Bft) 100 %
14.11.2017 15:44 7,0 C 80 % 1022,6 hPa 0,0 l/m 1,0 km/h (0 Bft) SW 223 3,8 C 3,1 km/h (1 Bft) 100 %
14.11.2017 15:45 7,0 C 80 % 1022,6 hPa 0,0 l/m 1,7 km/h (1 Bft) S-SW 206 3,8 C 3,1 km/h (1 Bft) 100 %
14.11.2017 15:46 7,0 C 80 % 1022,6 hPa 0,0 l/m 0,3 km/h (0 Bft) SW 236 3,8 C 3,1 km/h (1 Bft) 100 %
14.11.2017 15:47 7,0 C 80 % 1022,5 hPa 0,0 l/m 0,5 km/h (0 Bft) S-SW 206 3,8 C 3,1 km/h (1 Bft) 100 %
14.11.2017 15:48 7,0 C 80 % 1022,5 hPa 0,0 l/m 0,5 km/h (0 Bft) SW 223 3,8 C 3,1 km/h (1 Bft) 100 %
14.11.2017 15:49 7,0 C 80 % 1022,5 hPa 0,0 l/m 0,4 km/h (0 Bft) SW 236 3,8 C 3,1 km/h (1 Bft) 100 %
14.11.2017 15:50 7,0 C 81 % 1022,5 hPa 0,0 l/m 0,2 km/h (0 Bft) W-SW 257 4,0 C 3,1 km/h (1 Bft) 100 %
14.11.2017 15:51 7,0 C 80 % 1022,5 hPa 0,0 l/m 2,2 km/h (1 Bft) SW 229 3,8 C 3,1 km/h (1 Bft) 100 %
14.11.2017 15:52 7,0 C 80 % 1022,4 hPa 0,0 l/m 0,6 km/h (0 Bft) SW 228 3,8 C 3,1 km/h (1 Bft) 100 %
14.11.2017 15:53 7,0 C 80 % 1022,4 hPa 0,0 l/m 1,8 km/h (1 Bft) SW 236 3,8 C 9,4 km/h (2 Bft) 100 %
14.11.2017 15:54 7,0 C 80 % 1022,4 hPa 0,0 l/m 0,3 km/h (0 Bft) SW 236 3,8 C 3,1 km/h (1 Bft) 100 %
14.11.2017 15:55 7,0 C 81 % 1022,4 hPa 0,0 l/m 0,2 km/h (0 Bft) W-NW 282 4,0 C 3,1 km/h (1 Bft) 100 %
14.11.2017 15:56 7,0 C 81 % 1022,4 hPa 0,0 l/m 2,5 km/h (1 Bft) W-SW 240 4,0 C 9,4 km/h (2 Bft) 100 %
14.11.2017 15:57 6,9 C 81 % 1022,5 hPa 0,0 l/m 0,9 km/h (0 Bft) W-NW 295 3,9 C 3,1 km/h (1 Bft) 100 %
14.11.2017 15:58 6,9 C 81 % 1022,5 hPa 0,0 l/m 0,7 km/h (0 Bft) NW 314 3,9 C 3,1 km/h (1 Bft) 100 %
14.11.2017 15:59 6,9 C 81 % 1022,5 hPa 0,0 l/m 0,0 km/h (0 Bft) NW 314 3,9 C 0,0 km/h (0 Bft) 100 %
14.11.2017 16:00 6,9 C 81 % 1022,5 hPa 0,0 l/m 2,5 km/h (1 Bft) W-NW 302 3,9 C 6,3 km/h (2 Bft) 100 %
14.11.2017 16:01 6,9 C 81 % 1022,6 hPa 0,0 l/m 0,1 km/h (0 Bft) SW 217 3,9 C 3,1 km/h (1 Bft) 100 %
14.11.2017 16:02 6,9 C 81 % 1022,6 hPa 0,0 l/m 0,8 km/h (0 Bft) S-SW 193 3,9 C 3,1 km/h (1 Bft) 100 %
14.11.2017 16:03 6,9 C 81 % 1022,6 hPa 0,0 l/m 0,3 km/h (0 Bft) SW 229 3,9 C 3,1 km/h (1 Bft) 100 %
14.11.2017 16:04 6,9 C 81 % 1022,6 hPa 0,0 l/m 2,7 km/h (1 Bft) NW 312 3,9 C 3,1 km/h (1 Bft) 100 %
14.11.2017 16:05 6,9 C 81 % 1022,6 hPa 0,0 l/m 0,3 km/h (0 Bft) NW 307 3,9 C 3,1 km/h (1 Bft) 100 %
14.11.2017 16:06 6,9 C 81 % 1022,5 hPa 0,0 l/m 0,0 km/h (0 Bft) NW 307 3,9 C 0,0 km/h (0 Bft) 100 %
14.11.2017 16:07 6,9 C 81 % 1022,6 hPa 0,0 l/m 0,0 km/h (0 Bft) W 278 3,9 C 0,0 km/h (0 Bft) 100 %
14.11.2017 16:08 6,9 C 81 % 1022,6 hPa 0,0 l/m 0,7 km/h (0 Bft) W 270 3,9 C 3,1 km/h (1 Bft) 100 %
14.11.2017 16:09 6,9 C 81 % 1022,6 hPa 0,0 l/m 0,0 km/h (0 Bft) W 275 3,9 C 0,0 km/h (0 Bft) 100 %
14.11.2017 16:10 6,9 C 81 % 1022,6 hPa 0,0 l/m 0,0 km/h (0 Bft) N-NW 342 3,9 C 0,0 km/h (0 Bft) 100 %
14.11.2017 16:11 6,9 C 81 % 1022,6 hPa 0,0 l/m 1,6 km/h (1 Bft) SW 232 3,9 C 6,3 km/h (2 Bft) 100 %
14.11.2017 16:12 6,8 C 81 % 1022,6 hPa 0,0 l/m 0,9 km/h (0 Bft) SW 226 3,8 C 3,1 km/h (1 Bft) 100 %
14.11.2017 16:13 6,8 C 81 % 1022,6 hPa 0,0 l/m 0,0 km/h (0 Bft) SW 226 3,8 C 0,0 km/h (0 Bft) 100 %
14.11.2017 16:14 6,8 C 81 % 1022,6 hPa 0,0 l/m 0,0 km/h (0 Bft) SW 226 3,8 C 0,0 km/h (0 Bft) 100 %
14.11.2017 16:15 6,8 C 81 % 1022,5 hPa 0,0 l/m 0,0 km/h (0 Bft) SW 217 3,8 C 0,0 km/h (0 Bft) 100 %
14.11.2017 16:16 6,8 C 81 % 1022,6 hPa 0,0 l/m 0,3 km/h (0 Bft) W 260 3,8 C 3,1 km/h (1 Bft) 100 %
14.11.2017 16:17 6,8 C 81 % 1022,6 hPa 0,0 l/m 0,9 km/h (0 Bft) NW 307 3,8 C 3,1 km/h (1 Bft) 100 %
14.11.2017 16:18 6,8 C 81 % 1022,6 hPa 0,0 l/m 0,0 km/h (0 Bft) NW 307 3,8 C 0,0 km/h (0 Bft) 100 %
14.11.2017 16:19 6,8 C 81 % 1022,6 hPa 0,0 l/m 0,0 km/h (0 Bft) NW 306 3,8 C 0,0 km/h (0 Bft) 100 %
14.11.2017 16:20 6,8 C 81 % 1022,6 hPa 0,0 l/m 0,0 km/h (0 Bft) NW 306 3,8 C 0,0 km/h (0 Bft) 100 %
14.11.2017 16:21 6,8 C 81 % 1022,6 hPa 0,0 l/m 0,0 km/h (0 Bft) NW 307 3,8 C 0,0 km/h (0 Bft) 96 %
14.11.2017 16:22 6,7 C 81 % 1022,6 hPa 0,0 l/m 0,0 km/h (0 Bft) NW 306 3,7 C 0,0 km/h (0 Bft) 100 %
14.11.2017 16:23 6,8 C 81 % 1022,6 hPa 0,0 l/m 0,1 km/h (0 Bft) W 266 3,8 C 3,1 km/h (1 Bft) 100 %
14.11.2017 16:24 6,7 C 81 % 1022,7 hPa 0,0 l/m 0,4 km/h (0 Bft) W-NW 283 3,7 C 3,1 km/h (1 Bft) 100 %
14.11.2017 16:25 6,7 C 81 % 1022,7 hPa 0,0 l/m 2,4 km/h (1 Bft) W 268 3,7 C 9,4 km/h (2 Bft) 100 %
14.11.2017 16:26 6,7 C 81 % 1022,6 hPa 0,0 l/m 0,8 km/h (0 Bft) W-SW 250 3,7 C 6,3 km/h (2 Bft) 100 %
14.11.2017 16:27 6,7 C 81 % 1022,6 hPa 0,0 l/m 0,5 km/h (0 Bft) SW 234 3,7 C 3,1 km/h (1 Bft) 100 %
14.11.2017 16:28 6,7 C 80 % 1022,6 hPa 0,0 l/m 0,0 km/h (0 Bft) SW 223 3,5 C 0,0 km/h (0 Bft) 100 %
14.11.2017 16:29 6,7 C 80 % 1022,6 hPa 0,0 l/m 0,0 km/h (0 Bft) W-SW 254 3,5 C 0,0 km/h (0 Bft) 100 %
14.11.2017 16:30 6,7 C 80 % 1022,6 hPa 0,0 l/m 3,4 km/h (1 Bft) W-NW 290 3,5 C 9,4 km/h (2 Bft) 100 %
14.11.2017 16:31 6,7 C 78 % 1022,6 hPa 0,0 l/m 6,6 km/h (2 Bft) SW 236 3,1 C 9,4 km/h (2 Bft) 100 %
14.11.2017 16:32 6,8 C 78 % 1022,6 hPa 0,0 l/m 4,3 km/h (1 Bft) N-NW 340 3,2 C 6,3 km/h (2 Bft) 100 %
14.11.2017 16:33 6,8 C 77 % 1022,6 hPa 0,0 l/m 1,9 km/h (1 Bft) W-SW 257 3,1 C 3,1 km/h (1 Bft) 100 %
14.11.2017 16:34 6,8 C 77 % 1022,6 hPa 0,0 l/m 2,5 km/h (1 Bft) W 270 3,1 C 6,3 km/h (2 Bft) 100 %
14.11.2017 16:35 6,8 C 77 % 1022,6 hPa 0,0 l/m 2,7 km/h (1 Bft) W 262 3,1 C 9,4 km/h (2 Bft) 100 %
14.11.2017 16:36 6,8 C 77 % 1022,5 hPa 0,0 l/m 3,1 km/h (1 Bft) W-SW 254 3,1 C 3,1 km/h (1 Bft) 100 %
14.11.2017 16:37 6,8 C 77 % 1022,5 hPa 0,0 l/m 2,7 km/h (1 Bft) N-NW 342 3,1 C 6,3 km/h (2 Bft) 100 %
14.11.2017 16:38 6,8 C 76 % 1022,6 hPa 0,0 l/m 3,6 km/h (1 Bft) W-SW 256 2,9 C 9,4 km/h (2 Bft) 100 %
14.11.2017 16:39 6,8 C 76 % 1022,6 hPa 0,0 l/m 0,7 km/h (0 Bft) W-SW 248 2,9 C 6,3 km/h (2 Bft) 100 %
14.11.2017 16:40 6,8 C 76 % 1022,6 hPa 0,0 l/m 3,0 km/h (1 Bft) SW 218 2,9 C 9,4 km/h (2 Bft) 100 %
14.11.2017 16:41 6,8 C 76 % 1022,6 hPa 0,0 l/m 3,9 km/h (1 Bft) W-SW 242 2,9 C 9,4 km/h (2 Bft) 100 %
14.11.2017 16:42 6,9 C 76 % 1022,5 hPa 0,0 l/m 0,2 km/h (0 Bft) W-NW 288 3,0 C 3,1 km/h (1 Bft) 100 %
14.11.2017 16:43 6,9 C 76 % 1022,6 hPa 0,0 l/m 0,7 km/h (0 Bft) W 265 3,0 C 3,1 km/h (1 Bft) 100 %
14.11.2017 16:44 6,9 C 76 % 1022,6 hPa 0,0 l/m 3,3 km/h (1 Bft) W-SW 243 3,0 C 6,3 km/h (2 Bft) 100 %
14.11.2017 16:45 6,9 C 76 % 1022,5 hPa 0,0 l/m 3,4 km/h (1 Bft) W-SW 239 3,0 C 9,4 km/h (2 Bft) 100 %
14.11.2017 16:46 6,8 C 77 % 1022,5 hPa 0,0 l/m 3,1 km/h (1 Bft) SW 231 3,1 C 9,4 km/h (2 Bft) 100 %
14.11.2017 16:47 6,8 C 77 % 1022,5 hPa 0,0 l/m 4,4 km/h (1 Bft) W-NW 288 3,1 C 9,4 km/h (2 Bft) 100 %
14.11.2017 16:48 6,8 C 77 % 1022,6 hPa 0,0 l/m 0,3 km/h (0 Bft) W-NW 283 3,1 C 3,1 km/h (1 Bft) 100 %
14.11.2017 16:49 6,8 C 77 % 1022,6 hPa 0,0 l/m 0,8 km/h (0 Bft) W 266 3,1 C 3,1 km/h (1 Bft) 100 %
14.11.2017 16:50 6,8 C 77 % 1022,6 hPa 0,0 l/m 4,6 km/h (1 Bft) W-SW 256 3,1 C 9,4 km/h (2 Bft) 100 %
14.11.2017 16:51 6,8 C 77 % 1022,5 hPa 0,0 l/m 1,0 km/h (0 Bft) SW 224 3,1 C 3,1 km/h (1 Bft) 100 %
14.11.2017 16:52 6,8 C 77 % 1022,6 hPa 0,0 l/m 1,8 km/h (1 Bft) SW 218 3,1 C 3,1 km/h (1 Bft) 100 %
14.11.2017 16:53 6,8 C 78 % 1022,6 hPa 0,0 l/m 3,8 km/h (1 Bft) W-SW 246 3,2 C 9,4 km/h (2 Bft) 100 %
14.11.2017 16:54 6,8 C 77 % 1022,7 hPa 0,0 l/m 2,5 km/h (1 Bft) W 260 3,1 C 9,4 km/h (2 Bft) 100 %
14.11.2017 16:55 6,8 C 77 % 1022,6 hPa 0,0 l/m 1,4 km/h (1 Bft) W-SW 250 3,1 C 3,1 km/h (1 Bft) 100 %
14.11.2017 16:56 6,8 C 77 % 1022,6 hPa 0,0 l/m 2,1 km/h (1 Bft) W 262 3,1 C 6,3 km/h (2 Bft) 100 %
14.11.2017 16:57 6,8 C 77 % 1022,7 hPa 0,0 l/m 5,5 km/h (1 Bft) SW 230 3,1 C 15,7 km/h (3 Bft) 100 %
14.11.2017 16:58 6,8 C 77 % 1022,7 hPa 0,0 l/m 3,1 km/h (1 Bft) W-SW 239 3,1 C 6,3 km/h (2 Bft) 100 %
14.11.2017 16:59 6,8 C 77 % 1022,7 hPa 0,0 l/m 2,4 km/h (1 Bft) S-SW 195 3,1 C 6,3 km/h (2 Bft) 100 %
14.11.2017 17:00 6,8 C 77 % 1022,7 hPa 0,0 l/m 0,9 km/h (0 Bft) W-SW 253 3,1 C 3,1 km/h (1 Bft) 100 %
14.11.2017 17:01 6,8 C 77 % 1022,7 hPa 0,0 l/m 0,7 km/h (0 Bft) S-SO 167 3,1 C 3,1 km/h (1 Bft) 100 %
14.11.2017 17:02 6,8 C 77 % 1022,7 hPa 0,0 l/m 1,5 km/h (1 Bft) W 260 3,1 C 3,1 km/h (1 Bft) 100 %
14.11.2017 17:03 6,8 C 77 % 1022,7 hPa 0,0 l/m 4,9 km/h (1 Bft) SW 233 3,1 C 9,4 km/h (2 Bft) 100 %
14.11.2017 17:04 6,8 C 77 % 1022,8 hPa 0,0 l/m 2,1 km/h (1 Bft) SW 234 3,1 C 6,3 km/h (2 Bft) 96 %
14.11.2017 17:05 6,8 C 78 % 1022,8 hPa 0,0 l/m 1,7 km/h (1 Bft) W 261 3,2 C 3,1 km/h (1 Bft) 100 %
14.11.2017 17:06 6,8 C 78 % 1022,8 hPa 0,0 l/m 5,4 km/h (1 Bft) NW 316 3,2 C 9,4 km/h (2 Bft) 100 %
14.11.2017 17:07 6,8 C 78 % 1022,8 hPa 0,0 l/m 1,3 km/h (1 Bft) W 261 3,2 C 6,3 km/h (2 Bft) 100 %
14.11.2017 17:08 6,8 C 78 % 1022,8 hPa 0,0 l/m 0,0 km/h (0 Bft) W 261 3,2 C 0,0 km/h (0 Bft) 96 %
14.11.2017 17:09 6,8 C 78 % 1022,7 hPa 0,0 l/m 1,6 km/h (1 Bft) W 273 3,2 C 6,3 km/h (2 Bft) 100 %
14.11.2017 17:10 6,8 C 78 % 1022,7 hPa 0,0 l/m 0,1 km/h (0 Bft) SW 230 3,2 C 3,1 km/h (1 Bft) 96 %
14.11.2017 17:11 6,8 C 79 % 1022,7 hPa 0,0 l/m 3,6 km/h (1 Bft) W-NW 296 3,4 C 6,3 km/h (2 Bft) 100 %
14.11.2017 17:12 6,8 C 79 % 1022,7 hPa 0,0 l/m 1,6 km/h (1 Bft) SW 221 3,4 C 6,3 km/h (2 Bft) 96 %
14.11.2017 17:13 6,7 C 79 % 1022,7 hPa 0,0 l/m 0,4 km/h (0 Bft) N-NW 348 3,3 C 3,1 km/h (1 Bft) 100 %
14.11.2017 17:14 6,7 C 79 % 1022,7 hPa 0,0 l/m 0,0 km/h (0 Bft) SW 223 3,3 C 0,0 km/h (0 Bft) 96 %
14.11.2017 17:15 6,7 C 79 % 1022,7 hPa 0,0 l/m 7,0 km/h (2 Bft) W-NW 290 3,3 C 12,6 km/h (3 Bft) 96 %
14.11.2017 17:16 6,7 C 78 % 1022,7 hPa 0,0 l/m 3,8 km/h (1 Bft) W-NW 288 3,1 C 9,4 km/h (2 Bft) 100 %
14.11.2017 17:17 6,7 C 78 % 1022,8 hPa 0,0 l/m 2,8 km/h (1 Bft) SW 223 3,1 C 9,4 km/h (2 Bft) 96 %
14.11.2017 17:18 6,7 C 78 % 1022,7 hPa 0,0 l/m 3,7 km/h (1 Bft) W-SW 253 3,1 C 9,4 km/h (2 Bft) 100 %
14.11.2017 17:19 6,7 C 78 % 1022,8 hPa 0,0 l/m 7,6 km/h (2 Bft) SW 232 3,1 C 18,8 km/h (3 Bft) 96 %
14.11.2017 17:20 6,7 C 78 % 1022,8 hPa 0,0 l/m 1,8 km/h (1 Bft) SW 235 3,1 C 3,1 km/h (1 Bft) 100 %
14.11.2017 17:21 6,7 C 78 % 1022,7 hPa 0,0 l/m 1,5 km/h (1 Bft) SW 226 3,1 C 6,3 km/h (2 Bft) 96 %
14.11.2017 17:22 6,7 C 78 % 1022,8 hPa 0,0 l/m 0,5 km/h (0 Bft) SW 221 3,1 C 3,1 km/h (1 Bft) 96 %
14.11.2017 17:23 6,7 C 78 % 1022,8 hPa 0,0 l/m 0,7 km/h (0 Bft) SW 214 3,1 C 3,1 km/h (1 Bft) 100 %
14.11.2017 17:24 6,7 C 78 % 1022,8 hPa 0,0 l/m 2,4 km/h (1 Bft) W-SW 244 3,1 C 6,3 km/h (2 Bft) 100 %
14.11.2017 17:25 6,7 C 78 % 1022,8 hPa 0,0 l/m 3,3 km/h (1 Bft) SW 233 3,1 C 9,4 km/h (2 Bft) 96 %
14.11.2017 17:26 6,7 C 78 % 1022,8 hPa 0,0 l/m 2,2 km/h (1 Bft) W-NW 295 3,1 C 6,3 km/h (2 Bft) 96 %
14.11.2017 17:27 6,7 C 78 % 1022,8 hPa 0,0 l/m 1,6 km/h (1 Bft) W-SW 244 3,1 C 6,3 km/h (2 Bft) 100 %
14.11.2017 17:28 6,7 C 78 % 1022,8 hPa 0,0 l/m 1,6 km/h (1 Bft) NW 312 3,1 C 6,3 km/h (2 Bft) 100 %
14.11.2017 17:29 6,7 C 77 % 1022,8 hPa 0,0 l/m 4,6 km/h (1 Bft) SW 217 3,0 C 12,6 km/h (3 Bft) 100 %
14.11.2017 17:30 6,7 C 77 % 1022,8 hPa 0,0 l/m 4,2 km/h (1 Bft) W 274 3,0 C 9,4 km/h (2 Bft) 100 %
14.11.2017 17:31 6,7 C 78 % 1022,9 hPa 0,0 l/m 2,1 km/h (1 Bft) W-NW 299 3,1 C 3,1 km/h (1 Bft) 100 %
14.11.2017 17:32 6,7 C 78 % 1022,9 hPa 0,0 l/m 0,3 km/h (0 Bft) S-SW 212 3,1 C 3,1 km/h (1 Bft) 100 %
14.11.2017 17:33 6,7 C 78 % 1022,9 hPa 0,0 l/m 4,1 km/h (1 Bft) SW 226 3,1 C 9,4 km/h (2 Bft) 100 %
14.11.2017 17:34 6,7 C 78 % 1022,9 hPa 0,0 l/m 4,4 km/h (1 Bft) W-SW 255 3,1 C 6,3 km/h (2 Bft) 100 %
14.11.2017 17:35 6,7 C 78 % 1022,9 hPa 0,0 l/m 0,1 km/h (0 Bft) W-SW 255 3,1 C 3,1 km/h (1 Bft) 100 %
14.11.2017 17:36 6,7 C 78 % 1022,9 hPa 0,0 l/m 1,0 km/h (0 Bft) W-NW 285 3,1 C 6,3 km/h (2 Bft) 100 %
14.11.2017 17:37 6,7 C 78 % 1022,9 hPa 0,0 l/m 3,0 km/h (1 Bft) W-NW 293 3,1 C 12,6 km/h (3 Bft) 100 %
14.11.2017 17:38 6,7 C 78 % 1022,9 hPa 0,0 l/m 0,0 km/h (0 Bft) S 180 3,1 C 0,0 km/h (0 Bft) 100 %
14.11.2017 17:39 6,7 C 78 % 1022,9 hPa 0,0 l/m 2,0 km/h (1 Bft) W-NW 301 3,1 C 6,3 km/h (2 Bft) 100 %
14.11.2017 17:40 6,7 C 78 % 1022,9 hPa 0,0 l/m 1,7 km/h (1 Bft) W 271 3,1 C 6,3 km/h (2 Bft) 100 %
14.11.2017 17:41 6,7 C 78 % 1022,9 hPa 0,0 l/m 1,9 km/h (1 Bft) O-SO 115 3,1 C 6,3 km/h (2 Bft) 99 %
14.11.2017 17:42 6,7 C 77 % 1022,9 hPa 0,0 l/m 2,0 km/h (1 Bft) SW 221 3,0 C 6,3 km/h (2 Bft) 100 %
14.11.2017 17:43 6,7 C 78 % 1022,9 hPa 0,0 l/m 0,7 km/h (0 Bft) W-NW 283 3,1 C 3,1 km/h (1 Bft) 100 %
14.11.2017 17:44 6,7 C 77 % 1022,9 hPa 0,0 l/m 3,0 km/h (1 Bft) W-SW 244 3,0 C 6,3 km/h (2 Bft) 100 %
14.11.2017 17:45 6,7 C 77 % 1022,9 hPa 0,0 l/m 4,1 km/h (1 Bft) W 263 3,0 C 15,7 km/h (3 Bft) 100 %
14.11.2017 17:46 6,7 C 77 % 1022,9 hPa 0,0 l/m 6,7 km/h (2 Bft) W 270 3,0 C 15,7 km/h (3 Bft) 92 %
14.11.2017 17:47 6,7 C 77 % 1022,9 hPa 0,0 l/m 3,1 km/h (1 Bft) W-NW 301 3,0 C 6,3 km/h (2 Bft) 100 %
14.11.2017 17:48 6,7 C 77 % 1022,9 hPa 0,0 l/m 1,8 km/h (1 Bft) SW 236 3,0 C 3,1 km/h (1 Bft) 100 %
14.11.2017 17:49 6,7 C 77 % 1023,0 hPa 0,0 l/m 4,1 km/h (1 Bft) W-SW 240 3,0 C 9,4 km/h (2 Bft) 100 %
14.11.2017 17:50 6,7 C 77 % 1023,0 hPa 0,0 l/m 0,3 km/h (0 Bft) SW 228 3,0 C 3,1 km/h (1 Bft) 100 %
14.11.2017 17:51 6,7 C 77 % 1023,0 hPa 0,0 l/m 1,6 km/h (1 Bft) SW 221 3,0 C 9,4 km/h (2 Bft) 100 %
14.11.2017 17:52 6,7 C 77 % 1023,1 hPa 0,0 l/m 2,4 km/h (1 Bft) W-NW 297 3,0 C 6,3 km/h (2 Bft) 100 %
14.11.2017 17:53 6,7 C 78 % 1023,0 hPa 0,0 l/m 3,0 km/h (1 Bft) W-SW 240 3,1 C 12,6 km/h (3 Bft) 100 %
14.11.2017 17:54 6,6 C 77 % 1023,1 hPa 0,0 l/m 0,8 km/h (0 Bft) S-SW 207 2,9 C 3,1 km/h (1 Bft) 100 %
14.11.2017 17:55 6,6 C 78 % 1023,1 hPa 0,0 l/m 0,7 km/h (0 Bft) W 259 3,0 C 3,1 km/h (1 Bft) 100 %
14.11.2017 17:56 6,6 C 78 % 1023,0 hPa 0,0 l/m 0,3 km/h (0 Bft) W-SW 256 3,0 C 3,1 km/h (1 Bft) 100 %
14.11.2017 17:57 6,6 C 78 % 1023,0 hPa 0,0 l/m 4,6 km/h (1 Bft) W-SW 252 3,0 C 6,3 km/h (2 Bft) 100 %
14.11.2017 17:58 6,6 C 78 % 1023,1 hPa 0,0 l/m 0,5 km/h (0 Bft) SW 234 3,0 C 3,1 km/h (1 Bft) 100 %
14.11.2017 17:59 6,6 C 78 % 1023,1 hPa 0,0 l/m 3,1 km/h (1 Bft) SW 219 3,0 C 9,4 km/h (2 Bft) 100 %
14.11.2017 18:00 6,6 C 78 % 1023,1 hPa 0,0 l/m 5,6 km/h (1 Bft) SW 219 3,0 C 12,6 km/h (3 Bft) 100 %
14.11.2017 18:01 6,6 C 78 % 1023,1 hPa 0,0 l/m 4,3 km/h (1 Bft) O 98 3,0 C 9,4 km/h (2 Bft) 100 %
14.11.2017 18:02 6,6 C 78 % 1023,1 hPa 0,0 l/m 1,3 km/h (1 Bft) S-SW 204 3,0 C 3,1 km/h (1 Bft) 100 %
14.11.2017 18:03 6,6 C 78 % 1023,1 hPa 0,0 l/m 3,7 km/h (1 Bft) W-SW 255 3,0 C 6,3 km/h (2 Bft) 100 %
14.11.2017 18:04 6,6 C 78 % 1023,1 hPa 0,0 l/m 3,1 km/h (1 Bft) S-SW 206 3,0 C 6,3 km/h (2 Bft) 100 %
14.11.2017 18:05 6,6 C 79 % 1023,1 hPa 0,0 l/m 5,4 km/h (1 Bft) SW 221 3,2 C 12,6 km/h (3 Bft) 100 %
14.11.2017 18:06 6,6 C 79 % 1023,1 hPa 0,0 l/m 1,1 km/h (1 Bft) SW 221 3,2 C 6,3 km/h (2 Bft) 100 %
14.11.2017 18:07 6,6 C 79 % 1023,1 hPa 0,0 l/m 1,0 km/h (0 Bft) W-SW 257 3,2 C 3,1 km/h (1 Bft) 100 %
14.11.2017 18:08 6,6 C 79 % 1023,1 hPa 0,0 l/m 3,6 km/h (1 Bft) SW 227 3,2 C 6,3 km/h (2 Bft) 100 %
14.11.2017 18:09 6,6 C 79 % 1023,1 hPa 0,0 l/m 0,1 km/h (0 Bft) SW 227 3,2 C 3,1 km/h (1 Bft) 100 %
14.11.2017 18:10 6,6 C 79 % 1023,1 hPa 0,0 l/m 0,2 km/h (0 Bft) W-NW 294 3,2 C 3,1 km/h (1 Bft) 100 %
14.11.2017 18:11 6,6 C 80 % 1023,1 hPa 0,0 l/m 5,2 km/h (1 Bft) W-SW 248 3,4 C 9,4 km/h (2 Bft) 97 %
14.11.2017 18:12 6,6 C 80 % 1023,1 hPa 0,0 l/m 0,5 km/h (0 Bft) W-SW 251 3,4 C 6,3 km/h (2 Bft) 100 %
14.11.2017 18:13 6,6 C 80 % 1023,1 hPa 0,0 l/m 0,5 km/h (0 Bft) W-SW 243 3,4 C 3,1 km/h (1 Bft) 100 %
14.11.2017 18:14 6,6 C 80 % 1023,1 hPa 0,0 l/m 1,0 km/h (0 Bft) N 352 3,4 C 3,1 km/h (1 Bft) 100 %
14.11.2017 18:15 6,6 C 80 % 1023,1 hPa 0,0 l/m 1,0 km/h (0 Bft) SW 218 3,4 C 6,3 km/h (2 Bft) 100 %
14.11.2017 18:16 6,6 C 81 % 1023,1 hPa 0,0 l/m 2,0 km/h (1 Bft) S-SW 210 3,6 C 9,4 km/h (2 Bft) 100 %
14.11.2017 18:17 6,6 C 81 % 1023,1 hPa 0,0 l/m 1,7 km/h (1 Bft) W-SW 240 3,6 C 6,3 km/h (2 Bft) 100 %
14.11.2017 18:18 6,6 C 81 % 1023,1 hPa 0,0 l/m 0,2 km/h (0 Bft) W-NW 296 3,6 C 3,1 km/h (1 Bft) 100 %
14.11.2017 18:19 6,6 C 81 % 1023,1 hPa 0,0 l/m 4,5 km/h (1 Bft) W 281 3,6 C 12,6 km/h (3 Bft) 100 %
14.11.2017 18:20 6,5 C 81 % 1023,1 hPa 0,0 l/m 0,9 km/h (0 Bft) S-SW 198 3,5 C 6,3 km/h (2 Bft) 100 %
14.11.2017 18:21 6,5 C 81 % 1023,1 hPa 0,0 l/m 3,8 km/h (1 Bft) S-SW 211 3,5 C 9,4 km/h (2 Bft) 100 %
14.11.2017 18:22 6,5 C 81 % 1023,0 hPa 0,0 l/m 0,0 km/h (0 Bft) S-SW 199 3,5 C 0,0 km/h (0 Bft) 100 %
14.11.2017 18:23 6,5 C 81 % 1022,9 hPa 0,0 l/m 0,0 km/h (0 Bft) W 269 3,5 C 0,0 km/h (0 Bft) 100 %
14.11.2017 18:24 6,5 C 81 % 1023,0 hPa 0,0 l/m 1,3 km/h (1 Bft) S-SW 207 3,5 C 3,1 km/h (1 Bft) 100 %
14.11.2017 18:25 6,5 C 81 % 1023,0 hPa 0,0 l/m 0,1 km/h (0 Bft) SW 220 3,5 C 3,1 km/h (1 Bft) 100 %
14.11.2017 18:26 6,5 C 82 % 1023,0 hPa 0,0 l/m 1,4 km/h (1 Bft) W 278 3,7 C 6,3 km/h (2 Bft) 100 %
14.11.2017 18:27 6,4 C 82 % 1023,0 hPa 0,0 l/m 2,1 km/h (1 Bft) W 263 3,6 C 3,1 km/h (1 Bft) 100 %
14.11.2017 18:28 6,4 C 82 % 1023,0 hPa 0,0 l/m 0,0 km/h (0 Bft) W 263 3,6 C 0,0 km/h (0 Bft) 100 %
14.11.2017 18:29 6,4 C 82 % 1023,0 hPa 0,0 l/m 0,0 km/h (0 Bft) W 263 3,6 C 0,0 km/h (0 Bft) 100 %
14.11.2017 18:30 6,4 C 82 % 1023,0 hPa 0,0 l/m 0,3 km/h (0 Bft) SW 222 3,6 C 3,1 km/h (1 Bft) 100 %
14.11.2017 18:31 6,4 C 82 % 1023,0 hPa 0,0 l/m 0,0 km/h (0 Bft) SW 221 3,6 C 0,0 km/h (0 Bft) 100 %
14.11.2017 18:32 6,4 C 82 % 1023,0 hPa 0,0 l/m 0,0 km/h (0 Bft) SW 217 3,6 C 0,0 km/h (0 Bft) 100 %
14.11.2017 18:33 6,4 C 82 % 1023,0 hPa 0,0 l/m 0,1 km/h (0 Bft) W-SW 241 3,6 C 3,1 km/h (1 Bft) 100 %
14.11.2017 18:34 6,4 C 82 % 1023,0 hPa 0,0 l/m 0,1 km/h (0 Bft) W-SW 254 3,6 C 3,1 km/h (1 Bft) 100 %
14.11.2017 18:35 6,4 C 82 % 1023,0 hPa 0,0 l/m 0,0 km/h (0 Bft) W-SW 254 3,6 C 0,0 km/h (0 Bft) 100 %
14.11.2017 18:36 6,3 C 82 % 1023,0 hPa 0,0 l/m 0,0 km/h (0 Bft) SW 224 3,5 C 0,0 km/h (0 Bft) 100 %
14.11.2017 18:37 6,3 C 82 % 1023,0 hPa 0,0 l/m 2,1 km/h (1 Bft) SW 215 3,5 C 9,4 km/h (2 Bft) 100 %
14.11.2017 18:38 6,3 C 82 % 1022,9 hPa 0,0 l/m 3,0 km/h (1 Bft) W-SW 243 3,5 C 6,3 km/h (2 Bft) 100 %
14.11.2017 18:39 6,3 C 82 % 1023,0 hPa 0,0 l/m 1,6 km/h (1 Bft) W-SW 238 3,5 C 9,4 km/h (2 Bft) 100 %
14.11.2017 18:40 6,3 C 82 % 1023,0 hPa 0,0 l/m 0,0 km/h (0 Bft) W-SW 238 3,5 C 0,0 km/h (0 Bft) 100 %
14.11.2017 18:41 6,3 C 82 % 1022,9 hPa 0,0 l/m 0,0 km/h (0 Bft) W-SW 241 3,5 C 0,0 km/h (0 Bft) 100 %
14.11.2017 18:42 6,3 C 82 % 1023,1 hPa 0,0 l/m 0,0 km/h (0 Bft) W 268 3,5 C 0,0 km/h (0 Bft) 100 %
14.11.2017 18:43 6,3 C 82 % 1023,1 hPa 0,0 l/m 0,0 km/h (0 Bft) W 268 3,5 C 0,0 km/h (0 Bft) 100 %
14.11.2017 18:44 6,3 C 82 % 1023,0 hPa 0,0 l/m 0,0 km/h (0 Bft) W-SW 239 3,5 C 0,0 km/h (0 Bft) 100 %
14.11.2017 18:45 6,3 C 82 % 1023,0 hPa 0,0 l/m 0,9 km/h (0 Bft) SW 226 3,5 C 3,1 km/h (1 Bft) 100 %
14.11.2017 18:46 6,3 C 82 % 1023,0 hPa 0,0 l/m 3,8 km/h (1 Bft) SW 231 3,5 C 9,4 km/h (2 Bft) 96 %
14.11.2017 18:47 6,3 C 82 % 1023,1 hPa 0,0 l/m 0,5 km/h (0 Bft) SW 224 3,5 C 3,1 km/h (1 Bft) 100 %
14.11.2017 18:48 6,3 C 82 % 1023,0 hPa 0,0 l/m 0,0 km/h (0 Bft) SW 227 3,5 C 0,0 km/h (0 Bft) 100 %
14.11.2017 18:49 6,3 C 82 % 1023,1 hPa 0,0 l/m 0,1 km/h (0 Bft) SW 227 3,5 C 3,1 km/h (1 Bft) 100 %
14.11.2017 18:50 6,3 C 82 % 1023,1 hPa 0,0 l/m 0,3 km/h (0 Bft) SW 229 3,5 C 3,1 km/h (1 Bft) 100 %
14.11.2017 18:51 6,3 C 81 % 1023,1 hPa 0,0 l/m 1,8 km/h (1 Bft) W 269 3,3 C 3,1 km/h (1 Bft) 100 %
14.11.2017 18:52 6,3 C 81 % 1023,1 hPa 0,0 l/m 3,0 km/h (1 Bft) W 272 3,3 C 6,3 km/h (2 Bft) 100 %
14.11.2017 18:53 6,3 C 81 % 1023,2 hPa 0,0 l/m 0,2 km/h (0 Bft) W 276 3,3 C 3,1 km/h (1 Bft) 100 %
14.11.2017 18:54 6,3 C 81 % 1023,2 hPa 0,0 l/m 0,0 km/h (0 Bft) W 276 3,3 C 0,0 km/h (0 Bft) 100 %
14.11.2017 18:55 6,3 C 82 % 1023,2 hPa 0,0 l/m 0,0 km/h (0 Bft) W 276 3,5 C 0,0 km/h (0 Bft) 96 %
14.11.2017 18:56 6,3 C 82 % 1023,2 hPa 0,0 l/m 1,0 km/h (0 Bft) SW 236 3,5 C 6,3 km/h (2 Bft) 100 %
14.11.2017 18:57 6,3 C 81 % 1023,2 hPa 0,0 l/m 0,3 km/h (0 Bft) SW 236 3,3 C 3,1 km/h (1 Bft) 100 %
14.11.2017 18:58 6,3 C 81 % 1023,2 hPa 0,0 l/m 0,3 km/h (0 Bft) SW 224 3,3 C 3,1 km/h (1 Bft) 100 %
14.11.2017 18:59 6,3 C 82 % 1023,2 hPa 0,0 l/m 0,3 km/h (0 Bft) W 281 3,5 C 3,1 km/h (1 Bft) 96 %
14.11.2017 19:00 6,3 C 82 % 1023,2 hPa 0,0 l/m 0,0 km/h (0 Bft) W 281 3,5 C 0,0 km/h (0 Bft) 100 %
14.11.2017 19:01 6,3 C 82 % 1023,2 hPa 0,0 l/m 0,1 km/h (0 Bft) W-NW 282 3,5 C 3,1 km/h (1 Bft) 96 %
14.11.2017 19:02 6,3 C 82 % 1023,2 hPa 0,0 l/m 0,0 km/h (0 Bft) NW 304 3,5 C 0,0 km/h (0 Bft) 100 %
14.11.2017 19:03 6,3 C 82 % 1023,3 hPa 0,0 l/m 0,1 km/h (0 Bft) SW 233 3,5 C 3,1 km/h (1 Bft) 100 %
14.11.2017 19:04 6,3 C 81 % 1023,3 hPa 0,0 l/m 2,2 km/h (1 Bft) S-SW 193 3,3 C 6,3 km/h (2 Bft) 100 %
14.11.2017 19:05 6,3 C 81 % 1023,2 hPa 0,0 l/m 3,5 km/h (1 Bft) W-SW 247 3,3 C 9,4 km/h (2 Bft) 96 %
14.11.2017 19:06 6,3 C 81 % 1023,2 hPa 0,0 l/m 0,1 km/h (0 Bft) W-SW 248 3,3 C 3,1 km/h (1 Bft) 96 %
14.11.2017 19:07 6,3 C 81 % 1023,3 hPa 0,0 l/m 0,2 km/h (0 Bft) W-SW 247 3,3 C 3,1 km/h (1 Bft) 100 %
14.11.2017 19:08 6,3 C 81 % 1023,3 hPa 0,0 l/m 1,3 km/h (1 Bft) SW 225 3,3 C 3,1 km/h (1 Bft) 96 %
14.11.2017 19:09 6,3 C 81 % 1023,3 hPa 0,0 l/m 0,7 km/h (0 Bft) W-SW 252 3,3 C 3,1 km/h (1 Bft) 100 %
14.11.2017 19:10 6,3 C 81 % 1023,3 hPa 0,0 l/m 0,3 km/h (0 Bft) SW 218 3,3 C 3,1 km/h (1 Bft) 96 %
14.11.2017 19:11 6,3 C 81 % 1023,3 hPa 0,0 l/m 0,7 km/h (0 Bft) SW 229 3,3 C 3,1 km/h (1 Bft) 100 %
14.11.2017 19:12 6,3 C 81 % 1023,3 hPa 0,0 l/m 0,7 km/h (0 Bft) SW 229 3,3 C 3,1 km/h (1 Bft) 96 %
14.11.2017 19:13 6,3 C 81 % 1023,3 hPa 0,0 l/m 0,3 km/h (0 Bft) SW 228 3,3 C 3,1 km/h (1 Bft) 100 %
14.11.2017 19:14 6,3 C 82 % 1023,3 hPa 0,0 l/m 0,0 km/h (0 Bft) SW 228 3,5 C 0,0 km/h (0 Bft) 96 %
14.11.2017 19:15 6,3 C 82 % 1023,3 hPa 0,0 l/m 0,0 km/h (0 Bft) SW 228 3,5 C 0,0 km/h (0 Bft) 96 %
14.11.2017 19:16 6,3 C 82 % 1023,4 hPa 0,0 l/m 0,0 km/h (0 Bft) SW 228 3,5 C 0,0 km/h (0 Bft) 100 %
14.11.2017 19:17 6,3 C 82 % 1023,4 hPa 0,0 l/m 0,6 km/h (0 Bft) S-SO 163 3,5 C 3,1 km/h (1 Bft) 96 %
14.11.2017 19:18 6,3 C 82 % 1023,4 hPa 0,0 l/m 0,0 km/h (0 Bft) S-SO 163 3,5 C 0,0 km/h (0 Bft) 100 %
14.11.2017 19:19 6,3 C 82 % 1023,4 hPa 0,0 l/m 0,0 km/h (0 Bft) S-SO 163 3,5 C 0,0 km/h (0 Bft) 92 %
14.11.2017 19:20 6,3 C 82 % 1023,4 hPa 0,0 l/m 0,0 km/h (0 Bft) S-SO 159 3,5 C 0,0 km/h (0 Bft) 100 %
14.11.2017 19:21 6,3 C 82 % 1023,4 hPa 0,0 l/m 0,0 km/h (0 Bft) W 259 3,5 C 0,0 km/h (0 Bft) 92 %
14.11.2017 19:22 6,3 C 82 % 1023,4 hPa 0,0 l/m 0,0 km/h (0 Bft) W 259 3,5 C 0,0 km/h (0 Bft) 100 %
14.11.2017 19:23 6,3 C 82 % 1023,4 hPa 0,0 l/m 0,6 km/h (0 Bft) NW 304 3,5 C 3,1 km/h (1 Bft) 96 %
14.11.2017 19:24 6,3 C 82 % 1023,4 hPa 0,0 l/m 2,8 km/h (1 Bft) SW 231 3,5 C 9,4 km/h (2 Bft) 97 %
14.11.2017 19:25 6,3 C 82 % 1023,5 hPa 0,0 l/m 0,7 km/h (0 Bft) SW 236 3,5 C 3,1 km/h (1 Bft) 96 %
14.11.2017 19:26 6,3 C 82 % 1023,5 hPa 0,0 l/m 0,0 km/h (0 Bft) SW 236 3,5 C 0,0 km/h (0 Bft) 100 %
14.11.2017 19:27 6,3 C 82 % 1023,5 hPa 0,0 l/m 0,1 km/h (0 Bft) W 274 3,5 C 3,1 km/h (1 Bft) 100 %
14.11.2017 19:28 6,3 C 82 % 1023,5 hPa 0,0 l/m 2,2 km/h (1 Bft) SW 233 3,5 C 6,3 km/h (2 Bft) 100 %
14.11.2017 19:29 6,3 C 82 % 1023,5 hPa 0,0 l/m 3,1 km/h (1 Bft) SW 230 3,5 C 6,3 km/h (2 Bft) 100 %
14.11.2017 19:30 6,3 C 82 % 1023,5 hPa 0,0 l/m 0,0 km/h (0 Bft) SW 230 3,5 C 0,0 km/h (0 Bft) 100 %
14.11.2017 19:31 6,3 C 82 % 1023,5 hPa 0,0 l/m 0,2 km/h (0 Bft) SW 233 3,5 C 3,1 km/h (1 Bft) 100 %
14.11.2017 19:32 6,3 C 82 % 1023,5 hPa 0,0 l/m 1,6 km/h (1 Bft) W-SW 247 3,5 C 6,3 km/h (2 Bft) 100 %
14.11.2017 19:33 6,3 C 82 % 1023,5 hPa 0,0 l/m 1,6 km/h (1 Bft) W-SW 245 3,5 C 9,4 km/h (2 Bft) 100 %
14.11.2017 19:34 6,3 C 82 % 1023,5 hPa 0,0 l/m 4,2 km/h (1 Bft) SW 228 3,5 C 9,4 km/h (2 Bft) 100 %
14.11.2017 19:35 6,3 C 82 % 1023,5 hPa 0,0 l/m 1,6 km/h (1 Bft) W 263 3,5 C 6,3 km/h (2 Bft) 100 %
14.11.2017 19:36 6,3 C 82 % 1023,5 hPa 0,0 l/m 4,4 km/h (1 Bft) SW 220 3,5 C 12,6 km/h (3 Bft) 100 %
14.11.2017 19:37 6,3 C 82 % 1023,5 hPa 0,0 l/m 2,0 km/h (1 Bft) SW 225 3,5 C 6,3 km/h (2 Bft) 100 %
14.11.2017 19:38 6,3 C 82 % 1023,5 hPa 0,0 l/m 1,0 km/h (0 Bft) SW 224 3,5 C 6,3 km/h (2 Bft) 100 %
14.11.2017 19:39 6,3 C 82 % 1023,5 hPa 0,0 l/m 0,3 km/h (0 Bft) W-SW 255 3,5 C 3,1 km/h (1 Bft) 100 %
14.11.2017 19:40 6,3 C 82 % 1023,5 hPa 0,0 l/m 0,4 km/h (0 Bft) SW 225 3,5 C 3,1 km/h (1 Bft) 100 %
14.11.2017 19:41 6,3 C 82 % 1023,5 hPa 0,0 l/m 2,2 km/h (1 Bft) SW 231 3,5 C 3,1 km/h (1 Bft) 100 %
14.11.2017 19:42 6,3 C 82 % 1023,6 hPa 0,0 l/m 0,1 km/h (0 Bft) SW 231 3,5 C 3,1 km/h (1 Bft) 100 %
14.11.2017 19:43 6,3 C 82 % 1023,5 hPa 0,0 l/m 1,7 km/h (1 Bft) SW 230 3,5 C 6,3 km/h (2 Bft) 100 %
14.11.2017 19:44 6,3 C 82 % 1023,6 hPa 0,0 l/m 1,8 km/h (1 Bft) W-SW 251 3,5 C 6,3 km/h (2 Bft) 100 %
14.11.2017 19:45 6,3 C 82 % 1023,6 hPa 0,0 l/m 1,2 km/h (1 Bft) W 259 3,5 C 3,1 km/h (1 Bft) 100 %
14.11.2017 19:46 6,3 C 83 % 1023,6 hPa 0,0 l/m 0,0 km/h (0 Bft) W 279 3,6 C 0,0 km/h (0 Bft) 100 %
14.11.2017 19:47 6,3 C 83 % 1023,6 hPa 0,0 l/m 1,6 km/h (1 Bft) W 263 3,6 C 6,3 km/h (2 Bft) 100 %
14.11.2017 19:48 6,3 C 83 % 1023,6 hPa 0,0 l/m 0,0 km/h (0 Bft) W 268 3,6 C 0,0 km/h (0 Bft) 100 %
14.11.2017 19:49 6,3 C 83 % 1023,6 hPa 0,0 l/m 3,0 km/h (1 Bft) S-SW 203 3,6 C 9,4 km/h (2 Bft) 100 %
14.11.2017 19:50 6,3 C 83 % 1023,6 hPa 0,0 l/m 4,6 km/h (1 Bft) SW 214 3,6 C 9,4 km/h (2 Bft) 100 %
14.11.2017 19:51 6,3 C 83 % 1023,6 hPa 0,0 l/m 1,6 km/h (1 Bft) W-SW 251 3,6 C 6,3 km/h (2 Bft) 100 %
14.11.2017 19:52 6,3 C 83 % 1023,6 hPa 0,0 l/m 7,1 km/h (2 Bft) W 271 3,6 C 9,4 km/h (2 Bft) 100 %
14.11.2017 19:53 6,3 C 83 % 1023,6 hPa 0,0 l/m 5,5 km/h (1 Bft) W 271 3,6 C 9,4 km/h (2 Bft) 100 %
14.11.2017 19:54 6,3 C 83 % 1023,6 hPa 0,0 l/m 1,7 km/h (1 Bft) W-SW 255 3,6 C 3,1 km/h (1 Bft) 100 %
14.11.2017 19:55 6,3 C 83 % 1023,6 hPa 0,0 l/m 2,4 km/h (1 Bft) W-SW 240 3,6 C 6,3 km/h (2 Bft) 100 %
14.11.2017 19:56 6,3 C 83 % 1023,6 hPa 0,0 l/m 0,7 km/h (0 Bft) SW 232 3,6 C 6,3 km/h (2 Bft) 100 %
14.11.2017 19:57 6,3 C 84 % 1023,6 hPa 0,0 l/m 0,1 km/h (0 Bft) W-SW 238 3,8 C 3,1 km/h (1 Bft) 100 %
14.11.2017 19:58 6,3 C 84 % 1023,6 hPa 0,0 l/m 2,7 km/h (1 Bft) W 281 3,8 C 6,3 km/h (2 Bft) 100 %
14.11.2017 19:59 6,3 C 84 % 1023,7 hPa 0,0 l/m 0,0 km/h (0 Bft) W 266 3,8 C 0,0 km/h (0 Bft) 100 %
14.11.2017 20:00 6,3 C 84 % 1023,6 hPa 0,0 l/m 4,3 km/h (1 Bft) NW 315 3,8 C 6,3 km/h (2 Bft) 100 %
14.11.2017 20:01 6,3 C 84 % 1023,6 hPa 0,0 l/m 2,4 km/h (1 Bft) W 265 3,8 C 6,3 km/h (2 Bft) 100 %
14.11.2017 20:02 6,3 C 84 % 1023,6 hPa 0,0 l/m 6,0 km/h (2 Bft) S 183 3,8 C 12,6 km/h (3 Bft) 100 %
14.11.2017 20:03 6,3 C 84 % 1023,6 hPa 0,0 l/m 1,4 km/h (1 Bft) W-NW 296 3,8 C 6,3 km/h (2 Bft) 100 %
14.11.2017 20:04 6,3 C 84 % 1023,6 hPa 0,0 l/m 3,1 km/h (1 Bft) NW 309 3,8 C 9,4 km/h (2 Bft) 100 %
14.11.2017 20:05 6,2 C 84 % 1023,6 hPa 0,0 l/m 1,0 km/h (0 Bft) W-NW 290 3,7 C 6,3 km/h (2 Bft) 100 %
14.11.2017 20:06 6,3 C 84 % 1023,6 hPa 0,0 l/m 0,7 km/h (0 Bft) W 281 3,8 C 3,1 km/h (1 Bft) 100 %
14.11.2017 20:07 6,2 C 85 % 1023,6 hPa 0,0 l/m 1,4 km/h (1 Bft) SW 223 3,9 C 6,3 km/h (2 Bft) 100 %
14.11.2017 20:08 6,2 C 85 % 1023,6 hPa 0,0 l/m 0,0 km/h (0 Bft) W-NW 285 3,9 C 0,0 km/h (0 Bft) 100 %
14.11.2017 20:09 6,2 C 85 % 1023,6 hPa 0,0 l/m 0,1 km/h (0 Bft) W-SW 257 3,9 C 3,1 km/h (1 Bft) 100 %
14.11.2017 20:10 6,2 C 85 % 1023,7 hPa 0,0 l/m 4,1 km/h (1 Bft) SW 230 3,9 C 6,3 km/h (2 Bft) 100 %
14.11.2017 20:11 6,2 C 85 % 1023,7 hPa 0,0 l/m 1,3 km/h (1 Bft) SW 224 3,9 C 3,1 km/h (1 Bft) 100 %
14.11.2017 20:12 6,2 C 85 % 1023,6 hPa 0,0 l/m 0,7 km/h (0 Bft) SW 229 3,9 C 3,1 km/h (1 Bft) 100 %
14.11.2017 20:13 6,2 C 85 % 1023,6 hPa 0,0 l/m 2,9 km/h (1 Bft) W 278 3,9 C 6,3 km/h (2 Bft) 100 %
14.11.2017 20:14 6,2 C 85 % 1023,6 hPa 0,0 l/m 0,8 km/h (0 Bft) O-NO 68 3,9 C 3,1 km/h (1 Bft) 100 %
14.11.2017 20:15 6,2 C 85 % 1023,7 hPa 0,0 l/m 0,9 km/h (0 Bft) N-NO 32 3,9 C 6,3 km/h (2 Bft) 100 %
14.11.2017 20:16 6,2 C 85 % 1023,6 hPa 0,0 l/m 2,5 km/h (1 Bft) W-SW 240 3,9 C 6,3 km/h (2 Bft) 100 %
14.11.2017 20:17 6,2 C 85 % 1023,6 hPa 0,0 l/m 1,0 km/h (0 Bft) W 264 3,9 C 3,1 km/h (1 Bft) 100 %
14.11.2017 20:18 6,2 C 85 % 1023,6 hPa 0,0 l/m 0,1 km/h (0 Bft) W-NW 287 3,9 C 3,1 km/h (1 Bft) 100 %
14.11.2017 20:19 6,2 C 86 % 1023,6 hPa 0,0 l/m 0,1 km/h (0 Bft) W 267 4,0 C 3,1 km/h (1 Bft) 100 %
14.11.2017 20:20 6,2 C 85 % 1023,7 hPa 0,0 l/m 4,1 km/h (1 Bft) W 273 3,9 C 6,3 km/h (2 Bft) 100 %
14.11.2017 20:21 6,2 C 86 % 1023,7 hPa 0,0 l/m 2,0 km/h (1 Bft) W-NW 286 4,0 C 9,4 km/h (2 Bft) 100 %
14.11.2017 20:22 6,2 C 86 % 1023,7 hPa 0,0 l/m 0,1 km/h (0 Bft) W-NW 290 4,0 C 3,1 km/h (1 Bft) 100 %
14.11.2017 20:23 6,2 C 86 % 1023,7 hPa 0,0 l/m 1,7 km/h (1 Bft) SO 143 4,0 C 6,3 km/h (2 Bft) 100 %
14.11.2017 20:24 6,2 C 86 % 1023,7 hPa 0,0 l/m 3,0 km/h (1 Bft) SW 225 4,0 C 9,4 km/h (2 Bft) 100 %
14.11.2017 20:25 6,2 C 86 % 1023,7 hPa 0,0 l/m 0,0 km/h (0 Bft) SW 219 4,0 C 0,0 km/h (0 Bft) 100 %
14.11.2017 20:26 6,2 C 86 % 1023,7 hPa 0,0 l/m 0,5 km/h (0 Bft) W-SW 245 4,0 C 3,1 km/h (1 Bft) 100 %
14.11.2017 20:27 6,2 C 86 % 1023,7 hPa 0,0 l/m 5,5 km/h (1 Bft) SW 229 4,0 C 15,7 km/h (3 Bft) 100 %
14.11.2017 20:28 6,2 C 86 % 1023,6 hPa 0,0 l/m 2,4 km/h (1 Bft) S-SW 200 4,0 C 6,3 km/h (2 Bft) 100 %
14.11.2017 20:29 6,1 C 86 % 1023,6 hPa 0,0 l/m 0,4 km/h (0 Bft) S-SW 210 3,9 C 3,1 km/h (1 Bft) 100 %
14.11.2017 20:30 6,1 C 87 % 1023,7 hPa 0,0 l/m 0,1 km/h (0 Bft) S-SW 210 4,1 C 3,1 km/h (1 Bft) 100 %
14.11.2017 20:31 6,1 C 87 % 1023,7 hPa 0,0 l/m 2,1 km/h (1 Bft) SW 214 4,1 C 6,3 km/h (2 Bft) 100 %
14.11.2017 20:32 6,1 C 87 % 1023,7 hPa 0,0 l/m 3,4 km/h (1 Bft) SW 233 4,1 C 6,3 km/h (2 Bft) 100 %
14.11.2017 20:33 6,1 C 87 % 1023,7 hPa 0,0 l/m 4,3 km/h (1 Bft) SW 223 4,1 C 6,3 km/h (2 Bft) 100 %
14.11.2017 20:34 6,1 C 87 % 1023,7 hPa 0,0 l/m 1,1 km/h (1 Bft) W 276 4,1 C 3,1 km/h (1 Bft) 100 %
14.11.2017 20:35 6,1 C 87 % 1023,7 hPa 0,0 l/m 0,6 km/h (0 Bft) W-SW 255 4,1 C 3,1 km/h (1 Bft) 99 %
14.11.2017 20:36 6,1 C 87 % 1023,7 hPa 0,0 l/m 0,0 km/h (0 Bft) SW 228 4,1 C 0,0 km/h (0 Bft) 100 %
14.11.2017 20:37 6,1 C 87 % 1023,7 hPa 0,0 l/m 1,3 km/h (1 Bft) NW 307 4,1 C 6,3 km/h (2 Bft) 100 %
14.11.2017 20:38 6,1 C 87 % 1023,7 hPa 0,0 l/m 2,5 km/h (1 Bft) W-NW 286 4,1 C 6,3 km/h (2 Bft) 100 %
14.11.2017 20:39 6,1 C 88 % 1023,8 hPa 0,0 l/m 1,6 km/h (1 Bft) W 261 4,3 C 6,3 km/h (2 Bft) 100 %
14.11.2017 20:40 6,0 C 88 % 1023,8 hPa 0,0 l/m 1,5 km/h (1 Bft) SW 219 4,2 C 3,1 km/h (1 Bft) 100 %
14.11.2017 20:41 6,0 C 88 % 1023,8 hPa 0,0 l/m 0,5 km/h (0 Bft) W-NW 291 4,2 C 3,1 km/h (1 Bft) 100 %
14.11.2017 20:42 6,0 C 88 % 1023,8 hPa 0,0 l/m 0,3 km/h (0 Bft) W-NW 295 4,2 C 3,1 km/h (1 Bft) 100 %
14.11.2017 20:43 6,0 C 88 % 1023,8 hPa 0,0 l/m 0,5 km/h (0 Bft) SW 217 4,2 C 3,1 km/h (1 Bft) 100 %
14.11.2017 20:44 6,0 C 88 % 1023,8 hPa 0,0 l/m 0,2 km/h (0 Bft) W 268 4,2 C 3,1 km/h (1 Bft) 100 %
14.11.2017 20:45 6,0 C 88 % 1023,8 hPa 0,0 l/m 4,7 km/h (1 Bft) W-SW 254 4,2 C 12,6 km/h (3 Bft) 100 %
14.11.2017 20:46 6,0 C 88 % 1023,9 hPa 0,0 l/m 0,8 km/h (0 Bft) W-SW 243 4,2 C 3,1 km/h (1 Bft) 100 %
14.11.2017 20:47 6,0 C 88 % 1023,9 hPa 0,0 l/m 0,7 km/h (0 Bft) W 270 4,2 C 3,1 km/h (1 Bft) 100 %
14.11.2017 20:48 5,9 C 88 % 1023,9 hPa 0,0 l/m 1,1 km/h (1 Bft) NO 56 4,1 C 3,1 km/h (1 Bft) 100 %
14.11.2017 20:49 5,9 C 88 % 1023,9 hPa 0,0 l/m 3,1 km/h (1 Bft) W 272 4,1 C 6,3 km/h (2 Bft) 100 %
14.11.2017 20:50 5,9 C 88 % 1023,9 hPa 0,0 l/m 1,8 km/h (1 Bft) W-NW 288 4,1 C 6,3 km/h (2 Bft) 100 %
14.11.2017 20:51 5,9 C 88 % 1023,9 hPa 0,0 l/m 4,1 km/h (1 Bft) W 274 4,1 C 9,4 km/h (2 Bft) 100 %
14.11.2017 20:52 5,9 C 88 % 1023,9 hPa 0,0 l/m 1,3 km/h (1 Bft) W-SW 250 4,1 C 3,1 km/h (1 Bft) 100 %
14.11.2017 20:53 5,9 C 88 % 1023,9 hPa 0,0 l/m 0,0 km/h (0 Bft) W-SW 243 4,1 C 0,0 km/h (0 Bft) 100 %
14.11.2017 20:54 5,9 C 88 % 1023,9 hPa 0,0 l/m 2,5 km/h (1 Bft) SW 214 4,1 C 9,4 km/h (2 Bft) 100 %
14.11.2017 20:55 5,9 C 89 % 1024,0 hPa 0,0 l/m 3,9 km/h (1 Bft) W-SW 242 4,2 C 9,4 km/h (2 Bft) 100 %
14.11.2017 20:56 5,9 C 89 % 1023,9 hPa 0,0 l/m 2,8 km/h (1 Bft) W-NW 282 4,2 C 6,3 km/h (2 Bft) 100 %
14.11.2017 20:57 5,9 C 89 % 1024,0 hPa 0,0 l/m 0,9 km/h (0 Bft) W 259 4,2 C 3,1 km/h (1 Bft) 99 %
14.11.2017 20:58 5,9 C 89 % 1024,0 hPa 0,0 l/m 1,7 km/h (1 Bft) NW 315 4,2 C 6,3 km/h (2 Bft) 100 %
14.11.2017 20:59 5,9 C 89 % 1024,0 hPa 0,0 l/m 1,3 km/h (1 Bft) W 269 4,2 C 6,3 km/h (2 Bft) 100 %
14.11.2017 21:00 5,9 C 89 % 1024,0 hPa 0,0 l/m 5,0 km/h (1 Bft) W 271 4,2 C 9,4 km/h (2 Bft) 98 %
14.11.2017 21:02 5,9 C 89 % 1024,0 hPa 0,0 l/m 3,6 km/h (1 Bft) NW 319 4,2 C 9,4 km/h (2 Bft) 100 %
14.11.2017 21:03 5,9 C 89 % 1024,0 hPa 0,0 l/m 5,9 km/h (2 Bft) S-SW 207 4,2 C 12,6 km/h (3 Bft) 100 %
14.11.2017 21:04 5,8 C 89 % 1024,0 hPa 0,0 l/m 3,8 km/h (1 Bft) W-NW 295 4,1 C 12,6 km/h (3 Bft) 97 %
14.11.2017 21:05 5,8 C 89 % 1024,0 hPa 0,0 l/m 2,7 km/h (1 Bft) SW 228 4,1 C 6,3 km/h (2 Bft) 100 %
14.11.2017 21:07 5,8 C 90 % 1024,0 hPa 0,0 l/m 1,9 km/h (1 Bft) W 275 4,3 C 6,3 km/h (2 Bft) 98 %
14.11.2017 21:08 5,8 C 90 % 1024,0 hPa 0,0 l/m 2,7 km/h (1 Bft) S-SW 209 4,3 C 9,4 km/h (2 Bft) 96 %
14.11.2017 21:09 5,8 C 90 % 1024,0 hPa 0,0 l/m 1,9 km/h (1 Bft) W-NW 295 4,3 C 9,4 km/h (2 Bft) 100 %
14.11.2017 21:10 5,8 C 90 % 1024,0 hPa 0,0 l/m 3,9 km/h (1 Bft) NW 309 4,3 C 6,3 km/h (2 Bft) 96 %
14.11.2017 21:12 5,8 C 91 % 1024,1 hPa 0,0 l/m 0,7 km/h (0 Bft) SW 217 4,4 C 6,3 km/h (2 Bft) 98 %
14.11.2017 21:13 5,8 C 91 % 1024,1 hPa 0,0 l/m 0,3 km/h (0 Bft) W-NW 282 4,4 C 3,1 km/h (1 Bft) 100 %
14.11.2017 21:14 5,7 C 91 % 1024,1 hPa 0,0 l/m 0,9 km/h (0 Bft) S 180 4,3 C 6,3 km/h (2 Bft) 93 %
14.11.2017 21:15 5,7 C 91 % 1024,1 hPa 0,0 l/m 0,7 km/h (0 Bft) W 269 4,3 C 3,1 km/h (1 Bft) 100 %
14.11.2017 21:16 5,7 C 91 % 1024,1 hPa 0,0 l/m 1,4 km/h (1 Bft) W-SW 245 4,3 C 6,3 km/h (2 Bft) 96 %
14.11.2017 21:17 5,7 C 91 % 1024,1 hPa 0,0 l/m 0,0 km/h (0 Bft) NW 311 4,3 C 0,0 km/h (0 Bft) 96 %
14.11.2017 21:18 5,7 C 91 % 1024,1 hPa 0,0 l/m 0,0 km/h (0 Bft) NW 311 4,3 C 0,0 km/h (0 Bft) 100 %
14.11.2017 21:19 5,7 C 91 % 1024,0 hPa 0,0 l/m 4,7 km/h (1 Bft) NW 307 4,3 C 12,6 km/h (3 Bft) 96 %
14.11.2017 21:20 5,7 C 92 % 1024,1 hPa 0,0 l/m 5,5 km/h (1 Bft) SW 225 4,5 C 15,7 km/h (3 Bft) 100 %
14.11.2017 21:21 5,7 C 92 % 1024,1 hPa 0,0 l/m 4,9 km/h (1 Bft) SW 226 4,5 C 9,4 km/h (2 Bft) 97 %
14.11.2017 21:22 5,7 C 92 % 1024,1 hPa 0,0 l/m 2,9 km/h (1 Bft) S-SW 200 4,5 C 6,3 km/h (2 Bft) 100 %
14.11.2017 21:23 5,6 C 92 % 1024,1 hPa 0,0 l/m 0,1 km/h (0 Bft) SW 214 4,4 C 3,1 km/h (1 Bft) 96 %
14.11.2017 21:24 5,6 C 92 % 1024,1 hPa 0,0 l/m 0,6 km/h (0 Bft) W-SW 243 4,4 C 3,1 km/h (1 Bft) 100 %
14.11.2017 21:25 5,6 C 92 % 1024,1 hPa 0,0 l/m 2,9 km/h (1 Bft) SW 236 4,4 C 9,4 km/h (2 Bft) 96 %
14.11.2017 21:27 5,6 C 92 % 1024,1 hPa 0,0 l/m 0,4 km/h (0 Bft) W-SW 242 4,4 C 3,1 km/h (1 Bft) 98 %
14.11.2017 21:28 5,6 C 92 % 1024,1 hPa 0,0 l/m 0,2 km/h (0 Bft) W-SW 245 4,4 C 3,1 km/h (1 Bft) 96 %
14.11.2017 21:29 5,6 C 92 % 1024,1 hPa 0,0 l/m 1,9 km/h (1 Bft) N 8 4,4 C 6,3 km/h (2 Bft) 100 %
14.11.2017 21:30 5,6 C 92 % 1024,1 hPa 0,0 l/m 0,9 km/h (0 Bft) SW 216 4,4 C 3,1 km/h (1 Bft) 96 %
14.11.2017 21:32 5,6 C 92 % 1024,1 hPa 0,0 l/m 0,9 km/h (0 Bft) W-SW 248 4,4 C 3,1 km/h (1 Bft) 96 %
14.11.2017 21:33 5,6 C 92 % 1024,1 hPa 0,0 l/m 0,2 km/h (0 Bft) W-SW 244 4,4 C 3,1 km/h (1 Bft) 100 %
14.11.2017 21:34 5,6 C 92 % 1024,1 hPa 0,0 l/m 0,0 km/h (0 Bft) W-SW 244 4,4 C 0,0 km/h (0 Bft) 100 %
14.11.2017 21:35 5,6 C 92 % 1024,1 hPa 0,0 l/m 0,0 km/h (0 Bft) W-NW 286 4,4 C 0,0 km/h (0 Bft) 100 %
14.11.2017 21:36 5,6 C 93 % 1024,1 hPa 0,0 l/m 6,1 km/h (2 Bft) SW 231 4,6 C 15,7 km/h (3 Bft) 100 %
14.11.2017 21:37 5,6 C 93 % 1024,1 hPa 0,0 l/m 0,3 km/h (0 Bft) SW 231 4,6 C 3,1 km/h (1 Bft) 100 %
14.11.2017 21:38 5,6 C 93 % 1024,1 hPa 0,0 l/m 1,7 km/h (1 Bft) SW 233 4,6 C 6,3 km/h (2 Bft) 100 %
14.11.2017 21:39 5,6 C 93 % 1024,1 hPa 0,0 l/m 0,9 km/h (0 Bft) SW 221 4,6 C 6,3 km/h (2 Bft) 100 %
14.11.2017 21:40 5,6 C 93 % 1024,1 hPa 0,0 l/m 0,1 km/h (0 Bft) SO 139 4,6 C 3,1 km/h (1 Bft) 100 %
14.11.2017 21:42 5,6 C 93 % 1024,1 hPa 0,0 l/m 0,4 km/h (0 Bft) O-NO 77 4,6 C 3,1 km/h (1 Bft) 100 %
14.11.2017 21:43 5,5 C 93 % 1024,1 hPa 0,0 l/m 0,1 km/h (0 Bft) N-NW 346 4,5 C 3,1 km/h (1 Bft) 100 %
14.11.2017 21:44 5,5 C 93 % 1024,1 hPa 0,0 l/m 0,0 km/h (0 Bft) W-NW 293 4,5 C 0,0 km/h (0 Bft) 100 %
14.11.2017 21:45 5,5 C 93 % 1024,1 hPa 0,0 l/m 2,0 km/h (1 Bft) W-SW 239 4,5 C 6,3 km/h (2 Bft) 100 %
14.11.2017 21:47 5,5 C 93 % 1024,1 hPa 0,0 l/m 1,3 km/h (1 Bft) SW 226 4,5 C 9,4 km/h (2 Bft) 100 %
14.11.2017 21:48 5,5 C 93 % 1024,1 hPa 0,0 l/m 3,7 km/h (1 Bft) SW 230 4,5 C 9,4 km/h (2 Bft) 100 %
14.11.2017 21:49 5,5 C 93 % 1024,1 hPa 0,0 l/m 0,6 km/h (0 Bft) W-SW 250 4,5 C 3,1 km/h (1 Bft) 100 %
14.11.2017 21:50 5,5 C 93 % 1024,1 hPa 0,0 l/m 0,0 km/h (0 Bft) SO 144 4,5 C 0,0 km/h (0 Bft) 100 %
14.11.2017 21:52 5,5 C 93 % 1024,1 hPa 0,0 l/m 1,9 km/h (1 Bft) SW 223 4,5 C 9,4 km/h (2 Bft) 100 %
14.11.2017 21:53 5,5 C 94 % 1024,1 hPa 0,0 l/m 4,0 km/h (1 Bft) W-SW 247 4,6 C 12,6 km/h (3 Bft) 100 %
14.11.2017 21:54 5,5 C 94 % 1024,1 hPa 0,0 l/m 1,7 km/h (1 Bft) S-SW 210 4,6 C 6,3 km/h (2 Bft) 100 %
14.11.2017 21:55 5,4 C 94 % 1024,2 hPa 0,0 l/m 4,6 km/h (1 Bft) S-SW 209 4,5 C 9,4 km/h (2 Bft) 100 %
14.11.2017 21:56 5,4 C 94 % 1024,2 hPa 0,0 l/m 0,0 km/h (0 Bft) S-SW 212 4,5 C 0,0 km/h (0 Bft) 100 %
14.11.2017 21:57 5,4 C 94 % 1024,2 hPa 0,0 l/m 3,4 km/h (1 Bft) SW 229 4,5 C 12,6 km/h (3 Bft) 100 %
14.11.2017 21:58 5,4 C 94 % 1024,2 hPa 0,0 l/m 0,4 km/h (0 Bft) SW 233 4,5 C 3,1 km/h (1 Bft) 96 %
14.11.2017 21:59 5,4 C 94 % 1024,2 hPa 0,0 l/m 0,0 km/h (0 Bft) SW 233 4,5 C 0,0 km/h (0 Bft) 100 %
14.11.2017 22:00 5,4 C 94 % 1024,1 hPa 0,0 l/m 0,0 km/h (0 Bft) SW 233 4,5 C 0,0 km/h (0 Bft) 100 %
14.11.2017 22:01 5,4 C 94 % 1024,1 hPa 0,0 l/m 0,0 km/h (0 Bft) SW 233 4,5 C 0,0 km/h (0 Bft) 100 %
14.11.2017 22:02 5,4 C 94 % 1024,1 hPa 0,0 l/m 0,2 km/h (0 Bft) W-SW 244 4,5 C 3,1 km/h (1 Bft) 100 %
14.11.2017 22:03 5,4 C 94 % 1024,1 hPa 0,0 l/m 0,0 km/h (0 Bft) W-SW 244 4,5 C 0,0 km/h (0 Bft) 100 %
14.11.2017 22:04 5,4 C 94 % 1024,1 hPa 0,0 l/m 0,0 km/h (0 Bft) W-SW 244 4,5 C 0,0 km/h (0 Bft) 100 %
14.11.2017 22:05 5,4 C 94 % 1024,1 hPa 0,0 l/m 0,0 km/h (0 Bft) W-SW 244 4,5 C 0,0 km/h (0 Bft) 100 %
14.11.2017 22:06 5,4 C 94 % 1024,1 hPa 0,0 l/m 0,0 km/h (0 Bft) W-SW 245 4,5 C 0,0 km/h (0 Bft) 100 %
14.11.2017 22:07 5,4 C 94 % 1024,1 hPa 0,0 l/m 0,0 km/h (0 Bft) W-SW 245 4,5 C 0,0 km/h (0 Bft) 100 %
14.11.2017 22:08 5,4 C 94 % 1024,1 hPa 0,0 l/m 0,9 km/h (0 Bft) N-NW 338 4,5 C 3,1 km/h (1 Bft) 100 %
14.11.2017 22:09 5,4 C 94 % 1024,1 hPa 0,0 l/m 0,8 km/h (0 Bft) SW 226 4,5 C 3,1 km/h (1 Bft) 100 %
14.11.2017 22:10 5,4 C 94 % 1024,1 hPa 0,0 l/m 0,0 km/h (0 Bft) SW 226 4,5 C 0,0 km/h (0 Bft) 100 %
14.11.2017 22:11 5,4 C 94 % 1024,1 hPa 0,0 l/m 1,2 km/h (1 Bft) W-SW 245 4,5 C 6,3 km/h (2 Bft) 100 %
14.11.2017 22:12 5,4 C 94 % 1024,1 hPa 0,0 l/m 0,1 km/h (0 Bft) W-SW 245 4,5 C 3,1 km/h (1 Bft) 100 %
14.11.2017 22:13 5,4 C 94 % 1024,1 hPa 0,0 l/m 0,0 km/h (0 Bft) W-SW 245 4,5 C 0,0 km/h (0 Bft) 100 %
14.11.2017 22:14 5,4 C 94 % 1024,1 hPa 0,0 l/m 0,0 km/h (0 Bft) W-SW 245 4,5 C 0,0 km/h (0 Bft) 100 %
14.11.2017 22:15 5,4 C 94 % 1024,1 hPa 0,0 l/m 3,5 km/h (1 Bft) S-SW 208 4,5 C 9,4 km/h (2 Bft) 100 %
14.11.2017 22:16 5,4 C 94 % 1024,1 hPa 0,0 l/m 0,0 km/h (0 Bft) S-SW 208 4,5 C 0,0 km/h (0 Bft) 100 %
14.11.2017 22:17 5,4 C 94 % 1024,1 hPa 0,0 l/m 0,0 km/h (0 Bft) W-SW 245 4,5 C 0,0 km/h (0 Bft) 100 %
14.11.2017 22:18 5,4 C 94 % 1024,1 hPa 0,0 l/m 0,5 km/h (0 Bft) SW 218 4,5 C 3,1 km/h (1 Bft) 100 %
14.11.2017 22:19 5,4 C 94 % 1024,1 hPa 0,0 l/m 1,0 km/h (0 Bft) SW 231 4,5 C 3,1 km/h (1 Bft) 100 %
14.11.2017 22:20 5,4 C 94 % 1024,1 hPa 0,0 l/m 1,6 km/h (1 Bft) SW 226 4,5 C 6,3 km/h (2 Bft) 100 %
14.11.2017 22:21 5,4 C 94 % 1024,1 hPa 0,0 l/m 1,7 km/h (1 Bft) S-SW 193 4,5 C 6,3 km/h (2 Bft) 100 %
14.11.2017 22:22 5,4 C 94 % 1024,1 hPa 0,0 l/m 0,7 km/h (0 Bft) W-SW 238 4,5 C 3,1 km/h (1 Bft) 100 %
14.11.2017 22:23 5,4 C 94 % 1024,1 hPa 0,0 l/m 0,1 km/h (0 Bft) W-SW 237 4,5 C 3,1 km/h (1 Bft) 100 %
14.11.2017 22:24 5,4 C 94 % 1024,1 hPa 0,0 l/m 0,0 km/h (0 Bft) W-SW 244 4,5 C 0,0 km/h (0 Bft) 100 %
14.11.2017 22:25 5,4 C 95 % 1024,1 hPa 0,0 l/m 0,6 km/h (0 Bft) W-SW 240 4,7 C 3,1 km/h (1 Bft) 100 %
14.11.2017 22:26 5,4 C 95 % 1024,1 hPa 0,0 l/m 0,1 km/h (0 Bft) W-SW 240 4,7 C 3,1 km/h (1 Bft) 100 %
14.11.2017 22:27 5,4 C 95 % 1024,1 hPa 0,0 l/m 0,0 km/h (0 Bft) W-SW 240 4,7 C 0,0 km/h (0 Bft) 100 %
14.11.2017 22:28 5,4 C 95 % 1024,1 hPa 0,0 l/m 0,0 km/h (0 Bft) W-SW 240 4,7 C 0,0 km/h (0 Bft) 100 %
14.11.2017 22:29 5,4 C 95 % 1024,1 hPa 0,0 l/m 3,3 km/h (1 Bft) SW 233 4,7 C 9,4 km/h (2 Bft) 100 %
14.11.2017 22:30 5,4 C 95 % 1024,1 hPa 0,0 l/m 0,9 km/h (0 Bft) W-SW 246 4,7 C 3,1 km/h (1 Bft) 99 %
14.11.2017 22:31 5,4 C 95 % 1024,1 hPa 0,0 l/m 1,4 km/h (1 Bft) W-SW 239 4,7 C 3,1 km/h (1 Bft) 100 %
14.11.2017 22:32 5,4 C 95 % 1024,1 hPa 0,0 l/m 0,0 km/h (0 Bft) W-SW 242 4,7 C 0,0 km/h (0 Bft) 100 %
14.11.2017 22:33 5,4 C 94 % 1024,1 hPa 0,0 l/m 0,0 km/h (0 Bft) W-SW 242 4,5 C 0,0 km/h (0 Bft) 100 %
14.11.2017 22:34 5,4 C 94 % 1024,2 hPa 0,0 l/m 0,0 km/h (0 Bft) W-SW 242 4,5 C 0,0 km/h (0 Bft) 100 %
14.11.2017 22:35 5,4 C 94 % 1024,2 hPa 0,0 l/m 0,0 km/h (0 Bft) W-SW 242 4,5 C 0,0 km/h (0 Bft) 100 %
14.11.2017 22:36 5,4 C 94 % 1024,2 hPa 0,0 l/m 0,0 km/h (0 Bft) W-SW 242 4,5 C 0,0 km/h (0 Bft) 100 %
14.11.2017 22:37 5,4 C 94 % 1024,2 hPa 0,0 l/m 0,0 km/h (0 Bft) W-SW 242 4,5 C 0,0 km/h (0 Bft) 100 %
14.11.2017 22:38 5,4 C 94 % 1024,2 hPa 0,0 l/m 0,0 km/h (0 Bft) W-SW 242 4,5 C 0,0 km/h (0 Bft) 100 %
14.11.2017 22:39 5,4 C 95 % 1024,2 hPa 0,0 l/m 0,0 km/h (0 Bft) W-SW 242 4,7 C 0,0 km/h (0 Bft) 100 %
14.11.2017 22:40 5,4 C 95 % 1024,1 hPa 0,0 l/m 1,1 km/h (1 Bft) W 264 4,7 C 3,1 km/h (1 Bft) 100 %
14.11.2017 22:41 5,4 C 94 % 1024,1 hPa 0,0 l/m 0,1 km/h (0 Bft) W 264 4,5 C 3,1 km/h (1 Bft) 100 %
14.11.2017 22:42 5,4 C 94 % 1024,2 hPa 0,0 l/m 0,4 km/h (0 Bft) W-SW 248 4,5 C 3,1 km/h (1 Bft) 100 %
14.11.2017 22:43 5,4 C 94 % 1024,1 hPa 0,0 l/m 0,8 km/h (0 Bft) W-NW 300 4,5 C 3,1 km/h (1 Bft) 100 %
14.11.2017 22:44 5,4 C 94 % 1024,1 hPa 0,0 l/m 0,0 km/h (0 Bft) W-NW 300 4,5 C 0,0 km/h (0 Bft) 100 %
14.11.2017 22:45 5,4 C 94 % 1024,1 hPa 0,0 l/m 0,5 km/h (0 Bft) SO 129 4,5 C 3,1 km/h (1 Bft) 100 %
14.11.2017 22:46 5,4 C 94 % 1024,1 hPa 0,0 l/m 2,3 km/h (1 Bft) SW 224 4,5 C 9,4 km/h (2 Bft) 100 %
14.11.2017 22:47 5,4 C 94 % 1024,1 hPa 0,0 l/m 2,9 km/h (1 Bft) SW 232 4,5 C 9,4 km/h (2 Bft) 100 %
14.11.2017 22:48 5,4 C 94 % 1024,1 hPa 0,0 l/m 0,0 km/h (0 Bft) SW 232 4,5 C 0,0 km/h (0 Bft) 100 %
14.11.2017 22:49 5,4 C 94 % 1024,1 hPa 0,0 l/m 0,4 km/h (0 Bft) SW 234 4,5 C 3,1 km/h (1 Bft) 100 %
14.11.2017 22:50 5,4 C 94 % 1024,1 hPa 0,0 l/m 2,5 km/h (1 Bft) W-SW 240 4,5 C 3,1 km/h (1 Bft) 100 %
14.11.2017 22:51 5,4 C 94 % 1024,2 hPa 0,0 l/m 2,9 km/h (1 Bft) S-SW 195 4,5 C 9,4 km/h (2 Bft) 100 %
14.11.2017 22:52 5,5 C 94 % 1024,1 hPa 0,0 l/m 1,2 km/h (1 Bft) W 261 4,6 C 9,4 km/h (2 Bft) 100 %
14.11.2017 22:53 5,5 C 94 % 1024,1 hPa 0,0 l/m 0,0 km/h (0 Bft) W-SW 257 4,6 C 0,0 km/h (0 Bft) 100 %
14.11.2017 22:54 5,5 C 94 % 1024,2 hPa 0,0 l/m 0,0 km/h (0 Bft) W-SW 257 4,6 C 0,0 km/h (0 Bft) 100 %
14.11.2017 22:55 5,5 C 94 % 1024,1 hPa 0,0 l/m 0,0 km/h (0 Bft) W-SW 257 4,6 C 0,0 km/h (0 Bft) 100 %
14.11.2017 22:56 5,5 C 94 % 1024,1 hPa 0,0 l/m 0,0 km/h (0 Bft) W-SW 257 4,6 C 0,0 km/h (0 Bft) 100 %
14.11.2017 22:57 5,5 C 94 % 1024,1 hPa 0,0 l/m 0,0 km/h (0 Bft) S 181 4,6 C 0,0 km/h (0 Bft) 100 %
14.11.2017 22:58 5,5 C 94 % 1024,1 hPa 0,0 l/m 0,0 km/h (0 Bft) O-SO 120 4,6 C 0,0 km/h (0 Bft) 100 %
14.11.2017 22:59 5,5 C 94 % 1024,1 hPa 0,0 l/m 0,5 km/h (0 Bft) S-SW 212 4,6 C 3,1 km/h (1 Bft) 100 %
14.11.2017 23:00 5,5 C 94 % 1024,1 hPa 0,0 l/m 0,0 km/h (0 Bft) S-SW 212 4,6 C 0,0 km/h (0 Bft) 100 %
14.11.2017 23:01 5,5 C 94 % 1024,1 hPa 0,0 l/m 0,0 km/h (0 Bft) S-SW 212 4,6 C 0,0 km/h (0 Bft) 100 %
14.11.2017 23:02 5,5 C 94 % 1024,1 hPa 0,0 l/m 0,0 km/h (0 Bft) S-SW 212 4,6 C 0,0 km/h (0 Bft) 100 %
14.11.2017 23:03 5,5 C 94 % 1024,1 hPa 0,0 l/m 0,0 km/h (0 Bft) S-SW 212 4,6 C 0,0 km/h (0 Bft) 100 %
14.11.2017 23:04 5,5 C 94 % 1024,1 hPa 0,0 l/m 0,0 km/h (0 Bft) N 3 4,6 C 0,0 km/h (0 Bft) 100 %
14.11.2017 23:05 5,5 C 94 % 1024,1 hPa 0,0 l/m 0,2 km/h (0 Bft) W-SW 252 4,6 C 3,1 km/h (1 Bft) 100 %
14.11.2017 23:06 5,5 C 94 % 1024,2 hPa 0,0 l/m 0,0 km/h (0 Bft) W-SW 252 4,6 C 0,0 km/h (0 Bft) 100 %
14.11.2017 23:07 5,5 C 94 % 1024,2 hPa 0,0 l/m 0,0 km/h (0 Bft) W-SW 252 4,6 C 0,0 km/h (0 Bft) 100 %
14.11.2017 23:08 5,5 C 94 % 1024,1 hPa 0,0 l/m 0,0 km/h (0 Bft) SW 225 4,6 C 0,0 km/h (0 Bft) 100 %
14.11.2017 23:09 5,5 C 94 % 1024,1 hPa 0,0 l/m 0,0 km/h (0 Bft) SW 225 4,6 C 0,0 km/h (0 Bft) 100 %
14.11.2017 23:10 5,5 C 94 % 1024,2 hPa 0,0 l/m 0,0 km/h (0 Bft) W 264 4,6 C 0,0 km/h (0 Bft) 100 %
14.11.2017 23:11 5,5 C 94 % 1024,1 hPa 0,0 l/m 2,7 km/h (1 Bft) SW 233 4,6 C 12,6 km/h (3 Bft) 100 %
14.11.2017 23:12 5,6 C 94 % 1024,1 hPa 0,0 l/m 0,3 km/h (0 Bft) W-SW 255 4,7 C 3,1 km/h (1 Bft) 100 %
14.11.2017 23:13 5,6 C 94 % 1024,1 hPa 0,0 l/m 0,0 km/h (0 Bft) W-SW 255 4,7 C 0,0 km/h (0 Bft) 100 %
14.11.2017 23:14 5,6 C 93 % 1024,2 hPa 0,0 l/m 0,1 km/h (0 Bft) SW 225 4,6 C 3,1 km/h (1 Bft) 100 %
14.11.2017 23:15 5,6 C 93 % 1024,2 hPa 0,0 l/m 0,3 km/h (0 Bft) SW 225 4,6 C 3,1 km/h (1 Bft) 100 %
14.11.2017 23:16 5,6 C 93 % 1024,2 hPa 0,0 l/m 0,0 km/h (0 Bft) SW 226 4,6 C 0,0 km/h (0 Bft) 100 %
14.11.2017 23:17 5,6 C 93 % 1024,2 hPa 0,0 l/m 0,0 km/h (0 Bft) SW 226 4,6 C 0,0 km/h (0 Bft) 100 %
14.11.2017 23:18 5,6 C 93 % 1024,1 hPa 0,0 l/m 1,0 km/h (0 Bft) SW 235 4,6 C 3,1 km/h (1 Bft) 99 %
14.11.2017 23:19 5,6 C 93 % 1024,2 hPa 0,0 l/m 0,5 km/h (0 Bft) SW 226 4,6 C 3,1 km/h (1 Bft) 100 %
14.11.2017 23:20 5,6 C 93 % 1024,2 hPa 0,0 l/m 0,0 km/h (0 Bft) S-SW 206 4,6 C 0,0 km/h (0 Bft) 96 %
14.11.2017 23:21 5,6 C 93 % 1024,1 hPa 0,0 l/m 0,0 km/h (0 Bft) S-SW 206 4,6 C 0,0 km/h (0 Bft) 100 %
14.11.2017 23:22 5,6 C 93 % 1024,1 hPa 0,0 l/m 1,9 km/h (1 Bft) SW 223 4,6 C 6,3 km/h (2 Bft) 92 %
14.11.2017 23:23 5,6 C 93 % 1024,1 hPa 0,0 l/m 0,3 km/h (0 Bft) SW 224 4,6 C 3,1 km/h (1 Bft) 100 %
14.11.2017 23:24 5,6 C 93 % 1024,1 hPa 0,0 l/m 2,4 km/h (1 Bft) SW 234 4,6 C 6,3 km/h (2 Bft) 100 %
14.11.2017 23:25 5,6 C 93 % 1024,1 hPa 0,0 l/m 0,7 km/h (0 Bft) SW 236 4,6 C 3,1 km/h (1 Bft) 96 %
14.11.2017 23:26 5,6 C 93 % 1024,1 hPa 0,0 l/m 2,4 km/h (1 Bft) SW 224 4,6 C 9,4 km/h (2 Bft) 100 %
14.11.2017 23:27 5,6 C 93 % 1024,2 hPa 0,0 l/m 2,6 km/h (1 Bft) W-NW 290 4,6 C 9,4 km/h (2 Bft) 100 %
14.11.2017 23:28 5,6 C 93 % 1024,2 hPa 0,0 l/m 1,3 km/h (1 Bft) W-SW 248 4,6 C 6,3 km/h (2 Bft) 100 %
14.11.2017 23:29 5,6 C 93 % 1024,1 hPa 0,0 l/m 0,0 km/h (0 Bft) W-SW 248 4,6 C 0,0 km/h (0 Bft) 100 %
14.11.2017 23:30 5,6 C 93 % 1024,2 hPa 0,0 l/m 0,1 km/h (0 Bft) W-SW 248 4,6 C 3,1 km/h (1 Bft) 96 %
14.11.2017 23:31 5,7 C 93 % 1024,2 hPa 0,0 l/m 0,0 km/h (0 Bft) W-SW 248 4,7 C 0,0 km/h (0 Bft) 100 %
14.11.2017 23:32 5,7 C 93 % 1024,2 hPa 0,0 l/m 0,6 km/h (0 Bft) W-NW 299 4,7 C 3,1 km/h (1 Bft) 98 %
14.11.2017 23:33 5,7 C 93 % 1024,2 hPa 0,0 l/m 0,6 km/h (0 Bft) W-SW 238 4,7 C 3,1 km/h (1 Bft) 100 %
14.11.2017 23:34 5,7 C 93 % 1024,2 hPa 0,0 l/m 1,6 km/h (1 Bft) SW 224 4,7 C 9,4 km/h (2 Bft) 96 %
14.11.2017 23:35 5,7 C 93 % 1024,2 hPa 0,0 l/m 0,5 km/h (0 Bft) SW 236 4,7 C 3,1 km/h (1 Bft) 100 %
14.11.2017 23:36 5,7 C 92 % 1024,2 hPa 0,0 l/m 3,5 km/h (1 Bft) W-SW 252 4,5 C 9,4 km/h (2 Bft) 96 %
14.11.2017 23:37 5,7 C 92 % 1024,3 hPa 0,0 l/m 0,0 km/h (0 Bft) W-SW 252 4,5 C 0,0 km/h (0 Bft) 96 %
14.11.2017 23:38 5,7 C 92 % 1024,3 hPa 0,0 l/m 3,7 km/h (1 Bft) W-SW 255 4,5 C 15,7 km/h (3 Bft) 100 %
14.11.2017 23:39 5,7 C 92 % 1024,3 hPa 0,0 l/m 4,9 km/h (1 Bft) W-SW 248 4,5 C 6,3 km/h (2 Bft) 96 %
14.11.2017 23:40 5,7 C 92 % 1024,2 hPa 0,0 l/m 2,5 km/h (1 Bft) SW 236 4,5 C 6,3 km/h (2 Bft) 100 %
14.11.2017 23:41 5,7 C 92 % 1024,2 hPa 0,0 l/m 0,0 km/h (0 Bft) SW 236 4,5 C 0,0 km/h (0 Bft) 96 %
14.11.2017 23:42 5,7 C 92 % 1024,2 hPa 0,0 l/m 1,0 km/h (0 Bft) W-SW 248 4,5 C 6,3 km/h (2 Bft) 100 %
14.11.2017 23:43 5,7 C 92 % 1024,3 hPa 0,0 l/m 0,1 km/h (0 Bft) W-SW 248 4,5 C 3,1 km/h (1 Bft) 96 %
14.11.2017 23:44 5,7 C 92 % 1024,3 hPa 0,0 l/m 0,0 km/h (0 Bft) W-SW 248 4,5 C 0,0 km/h (0 Bft) 100 %
14.11.2017 23:45 5,7 C 92 % 1024,3 hPa 0,0 l/m 0,0 km/h (0 Bft) W-SW 248 4,5 C 0,0 km/h (0 Bft) 96 %
14.11.2017 23:46 5,7 C 92 % 1024,3 hPa 0,0 l/m 0,3 km/h (0 Bft) W-SW 241 4,5 C 3,1 km/h (1 Bft) 96 %
14.11.2017 23:47 5,7 C 92 % 1024,3 hPa 0,0 l/m 0,0 km/h (0 Bft) W-SW 241 4,5 C 0,0 km/h (0 Bft) 100 %
14.11.2017 23:48 5,7 C 92 % 1024,3 hPa 0,0 l/m 0,0 km/h (0 Bft) W-SW 241 4,5 C 0,0 km/h (0 Bft) 96 %
14.11.2017 23:49 5,7 C 92 % 1024,2 hPa 0,0 l/m 1,2 km/h (1 Bft) W 267 4,5 C 6,3 km/h (2 Bft) 100 %
14.11.2017 23:50 5,7 C 92 % 1024,2 hPa 0,0 l/m 2,8 km/h (1 Bft) W-SW 240 4,5 C 6,3 km/h (2 Bft) 96 %
14.11.2017 23:51 5,7 C 92 % 1024,2 hPa 0,0 l/m 0,7 km/h (0 Bft) W-NW 287 4,5 C 6,3 km/h (2 Bft) 100 %
14.11.2017 23:52 5,7 C 92 % 1024,2 hPa 0,0 l/m 0,5 km/h (0 Bft) SW 233 4,5 C 3,1 km/h (1 Bft) 96 %
14.11.2017 23:53 5,7 C 92 % 1024,2 hPa 0,0 l/m 0,8 km/h (0 Bft) W 264 4,5 C 6,3 km/h (2 Bft) 100 %
14.11.2017 23:54 5,7 C 92 % 1024,2 hPa 0,0 l/m 2,2 km/h (1 Bft) O-SO 106 4,5 C 6,3 km/h (2 Bft) 100 %
14.11.2017 23:55 5,7 C 92 % 1024,2 hPa 0,0 l/m 1,8 km/h (1 Bft) SW 226 4,5 C 9,4 km/h (2 Bft) 100 %
14.11.2017 23:56 5,7 C 92 % 1024,2 hPa 0,0 l/m 1,3 km/h (1 Bft) SW 229 4,5 C 6,3 km/h (2 Bft) 100 %
14.11.2017 23:57 5,7 C 92 % 1024,2 hPa 0,0 l/m 0,3 km/h (0 Bft) W-SW 242 4,5 C 3,1 km/h (1 Bft) 100 %
14.11.2017 23:58 5,7 C 92 % 1024,2 hPa 0,0 l/m 0,2 km/h (0 Bft) W-SW 248 4,5 C 3,1 km/h (1 Bft) 100 %
14.11.2017 23:59 5,7 C 92 % 1024,2 hPa 0,0 l/m 2,0 km/h (1 Bft) S-SW 212 4,5 C 6,3 km/h (2 Bft) 100 %
_ Min-Zeit 07:22 15:03 00:00 - 00:08 - - 07:22 00:08 04:29
Minimum _ 1,8 C 76 % 1020,3 hPa - 0,0 km/h (0 Bft) - - 1,2 C 0,0 km/h (0 Bft) 92 %
_ Max-Zeit 15:02 07:29 23:37 00:00 12:30 - - 23:12 12:27 00:01
Maximum _ 7,8 C 97 % 1024,3 hPa 0,0 l/m 15,2 km/h
W (3 Bft)
- - 4,7 C 31,4 km/h
NW (5 Bft)
100 %
Durchschnitt _ 5,3 C 89 % 1022,7 hPa #0,0 l/m 1,9 km/h (1 Bft) SW - 3,5 C 5,2 km/h (1 Bft) 99 %